Home > Products > Valid Products > OSO

000
SXUS55 KMSO 210943
OSOMSO
MONTANA AWOS SUMMARY
NATIONAL WEATHER SERVICE MISSOULA MT
243 AM MST TUE APR 21 2015

Montana AWOS Reports

LAUREL      |K6S8 210935Z AUTO 23006KT 5SM 04/M03 A2984 RMK AO1 T00391027
TWIN BRIDGES|K7S1 210935Z AUTO 00000KT 40SM 04/M05 A2990 RMK AO1 T00391049
ROUNDUP     |KRPX 210935Z AUTO 00000KT 40SM 03/M06 A2977 RMK AO1 T00331055
MALTA       |KM75 210935Z AUTO 00000KT 40SM 06/M03 A2979 RMK AO1 T00561032






000
SXUS55 KMSO 210923
OSOMSO
MONTANA AWOS SUMMARY
NATIONAL WEATHER SERVICE MISSOULA MT
223 AM MST TUE APR 21 2015

Montana AWOS Reports

LAUREL      |K6S8 210915Z AUTO 22005KT 7SM 04/M03 A2984 RMK AO1 T00391032
TWIN BRIDGES|K7S1 210915Z AUTO 00000KT 40SM 03/M05 A2990 RMK AO1 T00331049
ROUNDUP     |KRPX 210915Z AUTO 00000KT 40SM 03/M07 A2976 RMK AO1 T00331066
MALTA       |KM75 210915Z AUTO 00000KT 40SM 06/M03 A2978 RMK AO1 T00561032






000
SXUS55 KMSO 210903
OSOMSO
MONTANA AWOS SUMMARY
NATIONAL WEATHER SERVICE MISSOULA MT
203 AM MST TUE APR 21 2015

Montana AWOS Reports

LAUREL      |K6S8 210855Z AUTO 00000KT 10SM 04/M03 A2984 RMK AO1 T00441027
TWIN BRIDGES|K7S1 210855Z AUTO 00000KT 40SM 03/M05 A2990 RMK AO1 T00281049
MALTA       |KM75 210855Z AUTO 26005KT 40SM 06/M03 A2978 RMK AO1 T00561032
SCOBEY      |K9S2 210855Z AUTO 08009G14KT 40SM 00/M08 A2981 RMK AO1 T00001077
ROUNDUP     |KRPX 210855Z AUTO 00000KT 40SM 04/M07 A2976 RMK AO1 T00441066






000
SXUS55 KMSO 210843
OSOMSO
MONTANA AWOS SUMMARY
NATIONAL WEATHER SERVICE MISSOULA MT
143 AM MST TUE APR 21 2015

Montana AWOS Reports

LAUREL      |K6S8 210835Z AUTO 20007KT 5SM 05/M03 A2984 RMK AO1 T00501027
TWIN BRIDGES|K7S1 210835Z AUTO 00000KT 40SM 03/M05 A2990 RMK AO1 T00281049
MALTA       |KM75 210835Z AUTO 26004KT 40SM 06/M04 A2978 RMK AO1 T00561038
ROUNDUP     |KRPX 210835Z AUTO 26005KT 40SM 04/M07 A2977 RMK AO1 T00391066






000
SXUS55 KMSO 210823
OSOMSO
MONTANA AWOS SUMMARY
NATIONAL WEATHER SERVICE MISSOULA MT
122 AM MST TUE APR 21 2015

Montana AWOS Reports

LAUREL      |K6S8 210815Z AUTO 21006KT 4SM 04/M03 A2984 RMK AO1 T00441027
TWIN BRIDGES|K7S1 210815Z AUTO 00000KT 40SM 03/M05 A2990 RMK AO1 T00331049
ROUNDUP     |KRPX 210815Z AUTO 26005KT 40SM 04/M06 A2977 RMK AO1 T00391060
MALTA       |KM75 210815Z AUTO 00000KT 40SM 06/M04 A2977 RMK AO1 T00561043






000
SXUS55 KMSO 210803
OSOMSO
MONTANA AWOS SUMMARY
NATIONAL WEATHER SERVICE MISSOULA MT
102 AM MST TUE APR 21 2015

Montana AWOS Reports

LAUREL      |K6S8 210755Z AUTO 00000KT 2SM 04/M03 A2985 RMK AO1 T00391032
SCOBEY      |K9S2 210755Z AUTO 08010G17KT 40SM 01/M08 A2982 RMK AO1 T00111077
EKALAKA     |K97M 210755Z AUTO 00000KT 40SM 05/M09 A2979 RMK AO1 T00501088
ROUNDUP     |KRPX 210755Z AUTO 00000KT 40SM 03/M07 A2977 RMK AO1 T00331066
MALTA       |KM75 210755Z AUTO 00000KT 40SM 06/M04 A2977 RMK AO1 T00611043
TWIN BRIDGES|K7S1 210755Z AUTO 00000KT 40SM 05/M05 A2990 RMK AO1 T00501049






000
SXUS55 KMSO 210743
OSOMSO
MONTANA AWOS SUMMARY
NATIONAL WEATHER SERVICE MISSOULA MT
1243 AM MST TUE APR 21 2015

Montana AWOS Reports

LAUREL      |K6S8 210735Z AUTO 00000KT 40SM 04/M04 A2985 RMK AO1 T00441043
TWIN BRIDGES|K7S1 210735Z AUTO 00000KT 40SM 04/M04 A2990 RMK AO1 T00391043
MALTA       |KM75 210735Z AUTO 00000KT 40SM 06/M05 A2977 RMK AO1 T00611049
ROUNDUP     |KRPX 210735Z AUTO 27004KT 40SM 03/M07 A2978 RMK AO1 T00331066






000
SXUS55 KMSO 210724
OSOMSO
MONTANA AWOS SUMMARY
NATIONAL WEATHER SERVICE MISSOULA MT
1223 AM MST TUE APR 21 2015

Montana AWOS Reports

LAUREL      |K6S8 210715Z AUTO 00000KT 40SM 05/M05 A2986 RMK AO1 T00501049
TWIN BRIDGES|K7S1 210715Z AUTO 00000KT 40SM 04/M05 A2990 RMK AO1 T00441049
MALTA       |KM75 210715Z AUTO 00000KT 40SM 07/M04 A2977 RMK AO1 T00721038
ROUNDUP     |KRPX 210715Z AUTO 27004KT 40SM 04/M06 A2978 RMK AO1 T00391060






000
SXUS55 KMSO 210724
OSOMSO
MONTANA AWOS SUMMARY
NATIONAL WEATHER SERVICE MISSOULA MT
1223 AM MST TUE APR 21 2015

Montana AWOS Reports

LAUREL      |K6S8 210715Z AUTO 00000KT 40SM 05/M05 A2986 RMK AO1 T00501049
TWIN BRIDGES|K7S1 210715Z AUTO 00000KT 40SM 04/M05 A2990 RMK AO1 T00441049
MALTA       |KM75 210715Z AUTO 00000KT 40SM 07/M04 A2977 RMK AO1 T00721038
ROUNDUP     |KRPX 210715Z AUTO 27004KT 40SM 04/M06 A2978 RMK AO1 T00391060






000
SXUS55 KMSO 210713
OSOMSO
MONTANA AWOS SUMMARY
NATIONAL WEATHER SERVICE MISSOULA MT
1213 AM MST TUE APR 21 2015

Montana AWOS Reports

SCOBEY      |K9S2 210655Z AUTO 07015G22KT 40SM 03/M08 A2980 RMK AO1 T00331077
EKALAKA     |K97M 210655Z AUTO 13005KT 40SM 01/M09 A2981 RMK AO1 T00111088






000
SXUS55 KMSO 210704
OSOMSO
MONTANA AWOS SUMMARY
NATIONAL WEATHER SERVICE MISSOULA MT
1203 AM MST TUE APR 21 2015

Montana AWOS Reports

LAUREL      |K6S8 210655Z AUTO 00000KT 40SM 06/M06 A2986 RMK AO1 T00611055
TWIN BRIDGES|K7S1 210655Z AUTO 00000KT 40SM 05/M04 A2990 RMK AO1 T00501043
ROUNDUP     |KRPX 210655Z AUTO 27005KT 40SM 03/M07 A2978 RMK AO1 T00331066
MALTA       |KM75 210655Z AUTO 26005KT 40SM 08/M05 A2976 RMK AO1 T00831049






000
SXUS55 KMSO 210704
OSOMSO
MONTANA AWOS SUMMARY
NATIONAL WEATHER SERVICE MISSOULA MT
1203 AM MST TUE APR 21 2015

Montana AWOS Reports

LAUREL      |K6S8 210655Z AUTO 00000KT 40SM 06/M06 A2986 RMK AO1 T00611055
TWIN BRIDGES|K7S1 210655Z AUTO 00000KT 40SM 05/M04 A2990 RMK AO1 T00501043
ROUNDUP     |KRPX 210655Z AUTO 27005KT 40SM 03/M07 A2978 RMK AO1 T00331066
MALTA       |KM75 210655Z AUTO 26005KT 40SM 08/M05 A2976 RMK AO1 T00831049






000
SXUS55 KMSO 210643
OSOMSO
MONTANA AWOS SUMMARY
NATIONAL WEATHER SERVICE MISSOULA MT
1143 PM MST MON APR 20 2015

Montana AWOS Reports

MALTA       |KM75 210635Z AUTO 26006KT 40SM 08/M05 A2976 RMK AO1 T00781049
LAUREL      |K6S8 210635Z AUTO 00000KT 40SM 07/M05 A2986 RMK AO1 T00671049
TWIN BRIDGES|K7S1 210635Z AUTO 00000KT 40SM 04/M05 A2989 RMK AO1 T00441049
ROUNDUP     |KRPX 210635Z AUTO 27004KT 40SM 04/M07 A2978 RMK AO1 T00391066






000
SXUS55 KMSO 210643
OSOMSO
MONTANA AWOS SUMMARY
NATIONAL WEATHER SERVICE MISSOULA MT
1143 PM MST MON APR 20 2015

Montana AWOS Reports

MALTA       |KM75 210635Z AUTO 26006KT 40SM 08/M05 A2976 RMK AO1 T00781049
LAUREL      |K6S8 210635Z AUTO 00000KT 40SM 07/M05 A2986 RMK AO1 T00671049
TWIN BRIDGES|K7S1 210635Z AUTO 00000KT 40SM 04/M05 A2989 RMK AO1 T00441049
ROUNDUP     |KRPX 210635Z AUTO 27004KT 40SM 04/M07 A2978 RMK AO1 T00391066






000
SXUS55 KMSO 210624
OSOMSO
MONTANA AWOS SUMMARY
NATIONAL WEATHER SERVICE MISSOULA MT
1123 PM MST MON APR 20 2015

Montana AWOS Reports

LAUREL      |K6S8 210615Z AUTO 00000KT 40SM 07/M04 A2986 RMK AO1 T00671043
TWIN BRIDGES|K7S1 210615Z AUTO 00000KT 40SM 04/M04 A2989 RMK AO1 T00441043
ROUNDUP     |KRPX 210615Z AUTO 26005KT 40SM 05/M07 A2978 RMK AO1 T00501066
MALTA       |KM75 210615Z AUTO 26005KT 40SM 09/M05 A2976 RMK AO1 T00891049






000
SXUS55 KMSO 210603
OSOMSO
MONTANA AWOS SUMMARY
NATIONAL WEATHER SERVICE MISSOULA MT
1103 PM MST MON APR 20 2015

Montana AWOS Reports

LAUREL      |K6S8 210555Z AUTO 00000KT 40SM 06/M04 A2986 RMK AO1 T00611043
TWIN BRIDGES|K7S1 210555Z AUTO 00000KT 40SM 06/M04 A2989 RMK AO1 T00561043
SCOBEY      |K9S2 210555Z AUTO 00000KT 40SM 06/M07 A2979 RMK AO1 T00611066
EKALAKA     |K97M 210555Z AUTO 13005KT 40SM 01/M09 A2982 RMK AO1 T00061093
ROUNDUP     |KRPX 210555Z AUTO 00000KT 40SM 08/M07 A2978 RMK AO1 T00781066
MALTA       |KM75 210555Z AUTO 26008KT 40SM 10/M06 A2976 RMK AO1 T01001055






000
SXUS55 KMSO 210603
OSOMSO
MONTANA AWOS SUMMARY
NATIONAL WEATHER SERVICE MISSOULA MT
1103 PM MST MON APR 20 2015

Montana AWOS Reports

LAUREL      |K6S8 210555Z AUTO 00000KT 40SM 06/M04 A2986 RMK AO1 T00611043
TWIN BRIDGES|K7S1 210555Z AUTO 00000KT 40SM 06/M04 A2989 RMK AO1 T00561043
SCOBEY      |K9S2 210555Z AUTO 00000KT 40SM 06/M07 A2979 RMK AO1 T00611066
EKALAKA     |K97M 210555Z AUTO 13005KT 40SM 01/M09 A2982 RMK AO1 T00061093
ROUNDUP     |KRPX 210555Z AUTO 00000KT 40SM 08/M07 A2978 RMK AO1 T00781066
MALTA       |KM75 210555Z AUTO 26008KT 40SM 10/M06 A2976 RMK AO1 T01001055






000
SXUS55 KMSO 210543
OSOMSO
MONTANA AWOS SUMMARY
NATIONAL WEATHER SERVICE MISSOULA MT
1043 PM MST MON APR 20 2015

Montana AWOS Reports

TWIN BRIDGES|K7S1 210535Z AUTO 00000KT 40SM 07/M05 A2989 RMK AO1 T00671049
LAUREL      |K6S8 210535Z AUTO 40SM 08/M06 A2986 RMK AO1 T00781055
ROUNDUP     |KRPX 210535Z AUTO 00000KT 40SM 11/M07 A2978 RMK AO1 T01061071
MALTA       |KM75 210535Z AUTO 23006KT 40SM 09/M04 A2975 RMK AO1 T00941043






000
SXUS55 KMSO 210543
OSOMSO
MONTANA AWOS SUMMARY
NATIONAL WEATHER SERVICE MISSOULA MT
1043 PM MST MON APR 20 2015

Montana AWOS Reports

TWIN BRIDGES|K7S1 210535Z AUTO 00000KT 40SM 07/M05 A2989 RMK AO1 T00671049
LAUREL      |K6S8 210535Z AUTO 40SM 08/M06 A2986 RMK AO1 T00781055
ROUNDUP     |KRPX 210535Z AUTO 00000KT 40SM 11/M07 A2978 RMK AO1 T01061071
MALTA       |KM75 210535Z AUTO 23006KT 40SM 09/M04 A2975 RMK AO1 T00941043






000
SXUS55 KMSO 210523
OSOMSO
MONTANA AWOS SUMMARY
NATIONAL WEATHER SERVICE MISSOULA MT
1023 PM MST MON APR 20 2015

Montana AWOS Reports

LAUREL      |K6S8 210515Z AUTO 40SM 08/M06 A2986 RMK AO1 T00831055
TWIN BRIDGES|K7S1 210515Z AUTO 00000KT 40SM 09/M05 A2989 RMK AO1 T00891049
ROUNDUP     |KRPX 210515Z AUTO 00000KT 40SM 08/M07 A2978 RMK AO1 T00831071
MALTA       |KM75 210515Z AUTO 00000KT 40SM 06/M04 A2976 RMK AO1 T00561043
SCOBEY      |K9S2 210455Z AUTO 00000KT 40SM 07/M08 A2979 RMK AO1 T00671077
EKALAKA     |K97M 210455Z AUTO 13005KT 40SM 01/M09 A2984 RMK AO1 T00061088






000
SXUS55 KMSO 210503
OSOMSO
MONTANA AWOS SUMMARY
NATIONAL WEATHER SERVICE MISSOULA MT
1003 PM MST MON APR 20 2015

Montana AWOS Reports

LAUREL      |K6S8 210455Z AUTO 40SM 07/M06 A2986 RMK AO1 T00721055
TWIN BRIDGES|K7S1 210455Z AUTO 00000KT 40SM 08/M06 A2989 RMK AO1 T00831055
ROUNDUP     |KRPX 210455Z AUTO 00000KT 40SM 09/M07 A2978 RMK AO1 T00941066
MALTA       |KM75 210455Z AUTO 00000KT 40SM 06/M04 A2976 RMK AO1 T00611038






000
SXUS55 KMSO 210503
OSOMSO
MONTANA AWOS SUMMARY
NATIONAL WEATHER SERVICE MISSOULA MT
1003 PM MST MON APR 20 2015

Montana AWOS Reports

LAUREL      |K6S8 210455Z AUTO 40SM 07/M06 A2986 RMK AO1 T00721055
TWIN BRIDGES|K7S1 210455Z AUTO 00000KT 40SM 08/M06 A2989 RMK AO1 T00831055
ROUNDUP     |KRPX 210455Z AUTO 00000KT 40SM 09/M07 A2978 RMK AO1 T00941066
MALTA       |KM75 210455Z AUTO 00000KT 40SM 06/M04 A2976 RMK AO1 T00611038






000
SXUS55 KMSO 210443
OSOMSO
MONTANA AWOS SUMMARY
NATIONAL WEATHER SERVICE MISSOULA MT
943 PM MST MON APR 20 2015

Montana AWOS Reports

LAUREL      |K6S8 210435Z AUTO 00000KT 40SM 07/M06 A2986 RMK AO1 T00721060
TWIN BRIDGES|K7S1 210435Z AUTO 21004KT 40SM 10/M05 A2989 RMK AO1 T01001049
ROUNDUP     |KRPX 210435Z AUTO 40SM 11/M07 A2978 RMK AO1 T01061066
MALTA       |KM75 210435Z AUTO 00000KT 40SM 06/M04 A2976 RMK AO1 T00561043






000
SXUS55 KMSO 210443
OSOMSO
MONTANA AWOS SUMMARY
NATIONAL WEATHER SERVICE MISSOULA MT
943 PM MST MON APR 20 2015

Montana AWOS Reports

LAUREL      |K6S8 210435Z AUTO 00000KT 40SM 07/M06 A2986 RMK AO1 T00721060
TWIN BRIDGES|K7S1 210435Z AUTO 21004KT 40SM 10/M05 A2989 RMK AO1 T01001049
ROUNDUP     |KRPX 210435Z AUTO 40SM 11/M07 A2978 RMK AO1 T01061066
MALTA       |KM75 210435Z AUTO 00000KT 40SM 06/M04 A2976 RMK AO1 T00561043






000
SXUS55 KMSO 210423
OSOMSO
MONTANA AWOS SUMMARY
NATIONAL WEATHER SERVICE MISSOULA MT
922 PM MST MON APR 20 2015

Montana AWOS Reports

TWIN BRIDGES|K7S1 210415Z AUTO 00000KT 40SM 09/M06 A2989 RMK AO1 T00891055
LAUREL      |K6S8 210415Z AUTO 40SM 08/M07 A2986 RMK AO1 T00781066
ROUNDUP     |KRPX 210415Z AUTO 00000KT 40SM 12/M07 A2978 RMK AO1 T01171071
MALTA       |KM75 210415Z AUTO 00000KT 40SM 07/M04 A2977 RMK AO1 T00721038






000
SXUS55 KMSO 210423
OSOMSO
MONTANA AWOS SUMMARY
NATIONAL WEATHER SERVICE MISSOULA MT
922 PM MST MON APR 20 2015

Montana AWOS Reports

TWIN BRIDGES|K7S1 210415Z AUTO 00000KT 40SM 09/M06 A2989 RMK AO1 T00891055
LAUREL      |K6S8 210415Z AUTO 40SM 08/M07 A2986 RMK AO1 T00781066
ROUNDUP     |KRPX 210415Z AUTO 00000KT 40SM 12/M07 A2978 RMK AO1 T01171071
MALTA       |KM75 210415Z AUTO 00000KT 40SM 07/M04 A2977 RMK AO1 T00721038






000
SXUS55 KMSO 210413
OSOMSO
MONTANA AWOS SUMMARY
NATIONAL WEATHER SERVICE MISSOULA MT
913 PM MST MON APR 20 2015

Montana AWOS Reports

EKALAKA     |K97M 210355Z AUTO 00000KT 40SM 03/M09 A2986 RMK AO1 T00281093






000
SXUS55 KMSO 210404
OSOMSO
MONTANA AWOS SUMMARY
NATIONAL WEATHER SERVICE MISSOULA MT
903 PM MST MON APR 20 2015

Montana AWOS Reports

LAUREL      |K6S8 210355Z AUTO 00000KT 40SM 08/M07 A2987 RMK AO1 T00831066
TWIN BRIDGES|K7S1 210355Z AUTO 00000KT 40SM 10/M05 A2989 RMK AO1 T01001049
SCOBEY      |K9S2 210355Z AUTO 00000KT 40SM 07/M08 A2979 RMK AO1 T00671077
ROUNDUP     |KRPX 210355Z AUTO 00000KT 40SM 11/M07 A2979 RMK AO1 T01111071
MALTA       |KM75 210355Z AUTO 22004KT 40SM 08/M04 A2976 RMK AO1 T00831038






000
SXUS55 KMSO 210343
OSOMSO
MONTANA AWOS SUMMARY
NATIONAL WEATHER SERVICE MISSOULA MT
843 PM MST MON APR 20 2015

Montana AWOS Reports

LAUREL      |K6S8 210335Z AUTO 00000KT 40SM 08/M07 A2986 RMK AO1 T00831066
TWIN BRIDGES|K7S1 210335Z AUTO 34004KT 40SM 12/M04 A2989 RMK AO1 T01171043
ROUNDUP     |KRPX 210335Z AUTO 00000KT 40SM 12/M07 A2978 RMK AO1 T01171071
MALTA       |KM75 210335Z AUTO 22004KT 40SM 09/M03 A2976 RMK AO1 T00891032






000
SXUS55 KMSO 210323
OSOMSO
MONTANA AWOS SUMMARY
NATIONAL WEATHER SERVICE MISSOULA MT
823 PM MST MON APR 20 2015

Montana AWOS Reports

TWIN BRIDGES|K7S1 210315Z AUTO 00000KT 40SM 12/M05 A2988 RMK AO1 T01221049
LAUREL      |K6S8 210315Z AUTO 00000KT 25SM 08/M07 A2986 RMK AO1 T00831066
MALTA       |KM75 210315Z AUTO 00000KT 40SM 11/M03 A2976 RMK AO1 T01061032
ROUNDUP     |KRPX 210315Z AUTO 00000KT 40SM 12/M07 A2978 RMK AO1 T01171071






000
SXUS55 KMSO 210313
OSOMSO
MONTANA AWOS SUMMARY
NATIONAL WEATHER SERVICE MISSOULA MT
813 PM MST MON APR 20 2015

Montana AWOS Reports

ROUNDUP     |KRPX 210255Z AUTO 00000KT 40SM 12/M07 A2979 RMK AO1 T01171071






000
SXUS55 KMSO 210313
OSOMSO
MONTANA AWOS SUMMARY
NATIONAL WEATHER SERVICE MISSOULA MT
813 PM MST MON APR 20 2015

Montana AWOS Reports

ROUNDUP     |KRPX 210255Z AUTO 00000KT 40SM 12/M07 A2979 RMK AO1 T01171071






000
SXUS55 KMSO 210303
OSOMSO
MONTANA AWOS SUMMARY
NATIONAL WEATHER SERVICE MISSOULA MT
803 PM MST MON APR 20 2015

Montana AWOS Reports

LAUREL      |K6S8 210255Z AUTO 00000KT 25SM 09/M06 A2986 RMK AO1 T00891060
TWIN BRIDGES|K7S1 210255Z AUTO 00000KT 40SM 12/M04 A2988 RMK AO1 T01171043
MALTA       |KM75 210255Z AUTO 00000KT 40SM 10/M04 A2976 RMK AO1 T01001038






000
SXUS55 KMSO 210303
OSOMSO
MONTANA AWOS SUMMARY
NATIONAL WEATHER SERVICE MISSOULA MT
803 PM MST MON APR 20 2015

Montana AWOS Reports

LAUREL      |K6S8 210255Z AUTO 00000KT 25SM 09/M06 A2986 RMK AO1 T00891060
TWIN BRIDGES|K7S1 210255Z AUTO 00000KT 40SM 12/M04 A2988 RMK AO1 T01171043
MALTA       |KM75 210255Z AUTO 00000KT 40SM 10/M04 A2976 RMK AO1 T01001038






000
SXUS55 KMSO 210243
OSOMSO
MONTANA AWOS SUMMARY
NATIONAL WEATHER SERVICE MISSOULA MT
743 PM MST MON APR 20 2015

Montana AWOS Reports

LAUREL      |K6S8 210235Z AUTO 00000KT 25SM 10/M06 A2986 RMK AO1 T01001055
TWIN BRIDGES|K7S1 210235Z AUTO 03004KT 40SM 12/M04 A2987 RMK AO1 T01221043
ROUNDUP     |KRPX 210235Z AUTO 00000KT 40SM 12/M07 A2979 RMK AO1 T01221066
MALTA       |KM75 210235Z AUTO 00000KT 40SM 11/M03 A2976 RMK AO1 T01061027






000
SXUS55 KMSO 210243
OSOMSO
MONTANA AWOS SUMMARY
NATIONAL WEATHER SERVICE MISSOULA MT
743 PM MST MON APR 20 2015

Montana AWOS Reports

LAUREL      |K6S8 210235Z AUTO 00000KT 25SM 10/M06 A2986 RMK AO1 T01001055
TWIN BRIDGES|K7S1 210235Z AUTO 03004KT 40SM 12/M04 A2987 RMK AO1 T01221043
ROUNDUP     |KRPX 210235Z AUTO 00000KT 40SM 12/M07 A2979 RMK AO1 T01221066
MALTA       |KM75 210235Z AUTO 00000KT 40SM 11/M03 A2976 RMK AO1 T01061027






000
SXUS55 KMSO 210223
OSOMSO
MONTANA AWOS SUMMARY
NATIONAL WEATHER SERVICE MISSOULA MT
723 PM MST MON APR 20 2015

Montana AWOS Reports

LAUREL      |K6S8 210215Z AUTO 00000KT 40SM 12/M04 A2986 RMK AO1 T01171043
TWIN BRIDGES|K7S1 210215Z AUTO 00000KT 40SM 16/M05 A2987 RMK AO1 T01561049
MALTA       |KM75 210215Z AUTO 00000KT 40SM 12/M04 A2976 RMK AO1 T01171038
ROUNDUP     |KRPX 210215Z AUTO 00000KT 40SM 12/M07 A2978 RMK AO1 T01221071






000
SXUS55 KMSO 210204
OSOMSO
MONTANA AWOS SUMMARY
NATIONAL WEATHER SERVICE MISSOULA MT
703 PM MST MON APR 20 2015

Montana AWOS Reports

EKALAKA     |K97M 210155Z AUTO 00000KT 40SM 05/M09 A2987 RMK AO1 T00501088
LAUREL      |K6S8 210155Z AUTO 00000KT 40SM 13/M06 A2986 RMK AO1 T01331055
TWIN BRIDGES|K7S1 210155Z AUTO 00000KT 40SM 16/M07 A2987 RMK AO1 T01611066
SCOBEY      |K9S2 210155Z AUTO 00000KT 40SM 09/M08 A2981 RMK AO1 T00941077
ROUNDUP     |KRPX 210155Z AUTO 00000KT 40SM 13/M07 A2978 RMK AO1 T01281071
MALTA       |KM75 210155Z AUTO 00000KT 40SM 13/M04 A2976 RMK AO1 T01281038






000
SXUS55 KMSO 210204
OSOMSO
MONTANA AWOS SUMMARY
NATIONAL WEATHER SERVICE MISSOULA MT
703 PM MST MON APR 20 2015

Montana AWOS Reports

EKALAKA     |K97M 210155Z AUTO 00000KT 40SM 05/M09 A2987 RMK AO1 T00501088
LAUREL      |K6S8 210155Z AUTO 00000KT 40SM 13/M06 A2986 RMK AO1 T01331055
TWIN BRIDGES|K7S1 210155Z AUTO 00000KT 40SM 16/M07 A2987 RMK AO1 T01611066
SCOBEY      |K9S2 210155Z AUTO 00000KT 40SM 09/M08 A2981 RMK AO1 T00941077
ROUNDUP     |KRPX 210155Z AUTO 00000KT 40SM 13/M07 A2978 RMK AO1 T01281071
MALTA       |KM75 210155Z AUTO 00000KT 40SM 13/M04 A2976 RMK AO1 T01281038






000
SXUS55 KMSO 210143
OSOMSO
MONTANA AWOS SUMMARY
NATIONAL WEATHER SERVICE MISSOULA MT
643 PM MST MON APR 20 2015

Montana AWOS Reports

TWIN BRIDGES|K7S1 210135Z AUTO 00000KT 40SM 17/M06 A2987 RMK AO1 T01721055
LAUREL      |K6S8 210135Z AUTO 00000KT 40SM 14/M05 A2985 RMK AO1 T01391049
ROUNDUP     |KRPX 210135Z AUTO 00000KT 40SM 13/M07 A2978 RMK AO1 T01331066
MALTA       |KM75 210135Z AUTO 00000KT 40SM 14/M04 A2977 RMK AO1 T01391038






000
SXUS55 KMSO 210124
OSOMSO
MONTANA AWOS SUMMARY
NATIONAL WEATHER SERVICE MISSOULA MT
623 PM MST MON APR 20 2015

Montana AWOS Reports

TWIN BRIDGES|K7S1 210115Z AUTO 02004KT 40SM 18/M07 A2987 RMK AO1 T01781066
LAUREL      |K6S8 210115Z AUTO 40SM 14/M04 A2985 RMK AO1 T01441043
ROUNDUP     |KRPX 210115Z AUTO 00000KT 40SM 13/M07 A2978 RMK AO1 T01331071
MALTA       |KM75 210115Z AUTO 00000KT 40SM 16/M03 A2977 RMK AO1 T01561032






000
SXUS55 KMSO 210124
OSOMSO
MONTANA AWOS SUMMARY
NATIONAL WEATHER SERVICE MISSOULA MT
623 PM MST MON APR 20 2015

Montana AWOS Reports

TWIN BRIDGES|K7S1 210115Z AUTO 02004KT 40SM 18/M07 A2987 RMK AO1 T01781066
LAUREL      |K6S8 210115Z AUTO 40SM 14/M04 A2985 RMK AO1 T01441043
ROUNDUP     |KRPX 210115Z AUTO 00000KT 40SM 13/M07 A2978 RMK AO1 T01331071
MALTA       |KM75 210115Z AUTO 00000KT 40SM 16/M03 A2977 RMK AO1 T01561032






000
SXUS55 KMSO 210104
OSOMSO
MONTANA AWOS SUMMARY
NATIONAL WEATHER SERVICE MISSOULA MT
603 PM MST MON APR 20 2015

Montana AWOS Reports

LAUREL      |K6S8 210055Z AUTO 00000KT 40SM 15/M04 A2985 RMK AO1 T01501043
TWIN BRIDGES|K7S1 210055Z AUTO 34005KT 40SM 18/M06 A2987 RMK AO1 T01831060
SCOBEY      |K9S2 210055Z AUTO 00000KT 40SM 11/M08 A2982 RMK AO1 T01111082
EKALAKA     |K97M 210055Z AUTO 34009G14KT 40SM 07/M08 A2986 RMK AO1 T00721082
ROUNDUP     |KRPX 210055Z AUTO 00000KT 40SM 14/M07 A2979 RMK AO1 T01441066
MALTA       |KM75 210055Z AUTO 22007KT 40SM 16/M04 A2978 RMK AO1 T01611038






000
SXUS55 KMSO 210043
OSOMSO
MONTANA AWOS SUMMARY
NATIONAL WEATHER SERVICE MISSOULA MT
543 PM MST MON APR 20 2015

Montana AWOS Reports

LAUREL      |K6S8 210035Z AUTO 00000KT 40SM 16/M04 A2986 RMK AO1 T01561043
TWIN BRIDGES|K7S1 210035Z AUTO 35005KT 40SM 19/M06 A2987 RMK AO1 T01891055
MALTA       |KM75 210035Z AUTO 22007KT 40SM 16/M04 A2978 RMK AO1 T01611038
ROUNDUP     |KRPX 210035Z AUTO 00000KT 40SM 15/M07 A2979 RMK AO1 T01501066






000
SXUS55 KMSO 210043
OSOMSO
MONTANA AWOS SUMMARY
NATIONAL WEATHER SERVICE MISSOULA MT
543 PM MST MON APR 20 2015

Montana AWOS Reports

LAUREL      |K6S8 210035Z AUTO 00000KT 40SM 16/M04 A2986 RMK AO1 T01561043
TWIN BRIDGES|K7S1 210035Z AUTO 35005KT 40SM 19/M06 A2987 RMK AO1 T01891055
MALTA       |KM75 210035Z AUTO 22007KT 40SM 16/M04 A2978 RMK AO1 T01611038
ROUNDUP     |KRPX 210035Z AUTO 00000KT 40SM 15/M07 A2979 RMK AO1 T01501066






000
SXUS55 KMSO 210023
OSOMSO
MONTANA AWOS SUMMARY
NATIONAL WEATHER SERVICE MISSOULA MT
523 PM MST MON APR 20 2015

Montana AWOS Reports

LAUREL      |K6S8 210015Z AUTO 34008KT 40SM 17/M06 A2986 RMK AO1 T01671055
ROUNDUP     |KRPX 210015Z AUTO 34006KT 40SM 15/M07 A2979 RMK AO1 T01501071
MALTA       |KM75 210015Z AUTO 23010G16KT 40SM 16/M04 A2979 RMK AO1 T01611043






000
SXUS55 KMSO 210023
OSOMSO
MONTANA AWOS SUMMARY
NATIONAL WEATHER SERVICE MISSOULA MT
523 PM MST MON APR 20 2015

Montana AWOS Reports

LAUREL      |K6S8 210015Z AUTO 34008KT 40SM 17/M06 A2986 RMK AO1 T01671055
ROUNDUP     |KRPX 210015Z AUTO 34006KT 40SM 15/M07 A2979 RMK AO1 T01501071
MALTA       |KM75 210015Z AUTO 23010G16KT 40SM 16/M04 A2979 RMK AO1 T01611043






000
SXUS55 KMSO 210013
OSOMSO
MONTANA AWOS SUMMARY
NATIONAL WEATHER SERVICE MISSOULA MT
513 PM MST MON APR 20 2015

Montana AWOS Reports

SCOBEY      |K9S2 202355Z AUTO 31010G14KT 40SM 12/M09 A2983 RMK AO1 T01171088
EKALAKA     |K97M 202355Z AUTO 33016G21KT 40SM 09/M09 A2985 RMK AO1 T00891093






000
SXUS55 KMSO 210013
OSOMSO
MONTANA AWOS SUMMARY
NATIONAL WEATHER SERVICE MISSOULA MT
513 PM MST MON APR 20 2015

Montana AWOS Reports

SCOBEY      |K9S2 202355Z AUTO 31010G14KT 40SM 12/M09 A2983 RMK AO1 T01171088
EKALAKA     |K97M 202355Z AUTO 33016G21KT 40SM 09/M09 A2985 RMK AO1 T00891093






000
SXUS55 KMSO 210003
OSOMSO
MONTANA AWOS SUMMARY
NATIONAL WEATHER SERVICE MISSOULA MT
503 PM MST MON APR 20 2015

Montana AWOS Reports

TWIN BRIDGES|K7S1 202355Z AUTO 34005KT 40SM 18/M06 A2987 RMK AO1 T01831060
LAUREL      |K6S8 202355Z AUTO 35007KT 40SM 17/M05 A2986 RMK AO1 T01721049
MALTA       |KM75 202355Z AUTO 23009G13KT 40SM 16/M04 A2980 RMK AO1 T01611043
ROUNDUP     |KRPX 202355Z AUTO 36005KT 40SM 16/M07 A2979 RMK AO1 T01561066






000
SXUS55 KMSO 202343
OSOMSO
MONTANA AWOS SUMMARY
NATIONAL WEATHER SERVICE MISSOULA MT
443 PM MST MON APR 20 2015

Montana AWOS Reports

TWIN BRIDGES|K7S1 202335Z AUTO 05005KT 40SM 18/M05 A2988 RMK AO1 T01831049
LAUREL      |K6S8 202335Z AUTO 28008KT 40SM 17/M04 A2986 RMK AO1 T01721043
MALTA       |KM75 202335Z AUTO 00000KT 40SM 16/M04 A2980 RMK AO1 T01561043
ROUNDUP     |KRPX 202335Z AUTO 34004KT 40SM 17/M07 A2979 RMK AO1 T01671071






000
SXUS55 KMSO 202343
OSOMSO
MONTANA AWOS SUMMARY
NATIONAL WEATHER SERVICE MISSOULA MT
443 PM MST MON APR 20 2015

Montana AWOS Reports

TWIN BRIDGES|K7S1 202335Z AUTO 05005KT 40SM 18/M05 A2988 RMK AO1 T01831049
LAUREL      |K6S8 202335Z AUTO 28008KT 40SM 17/M04 A2986 RMK AO1 T01721043
MALTA       |KM75 202335Z AUTO 00000KT 40SM 16/M04 A2980 RMK AO1 T01561043
ROUNDUP     |KRPX 202335Z AUTO 34004KT 40SM 17/M07 A2979 RMK AO1 T01671071






000
SXUS55 KMSO 202324
OSOMSO
MONTANA AWOS SUMMARY
NATIONAL WEATHER SERVICE MISSOULA MT
423 PM MST MON APR 20 2015

Montana AWOS Reports

LAUREL      |K6S8 202315Z AUTO 29008KT 40SM 17/M04 A2986 RMK AO1 T01671043
MALTA       |KM75 202315Z AUTO 27009G14KT 40SM 17/M04 A2981 RMK AO1 T01671043
ROUNDUP     |KRPX 202315Z AUTO 34012G16KT 40SM 16/M08 A2979 RMK AO1 T01561077






000
SXUS55 KMSO 202324
OSOMSO
MONTANA AWOS SUMMARY
NATIONAL WEATHER SERVICE MISSOULA MT
423 PM MST MON APR 20 2015

Montana AWOS Reports

LAUREL      |K6S8 202315Z AUTO 29008KT 40SM 17/M04 A2986 RMK AO1 T01671043
MALTA       |KM75 202315Z AUTO 27009G14KT 40SM 17/M04 A2981 RMK AO1 T01671043
ROUNDUP     |KRPX 202315Z AUTO 34012G16KT 40SM 16/M08 A2979 RMK AO1 T01561077






000
SXUS55 KMSO 202303
OSOMSO
MONTANA AWOS SUMMARY
NATIONAL WEATHER SERVICE MISSOULA MT
403 PM MST MON APR 20 2015

Montana AWOS Reports

SCOBEY      |K9S2 202255Z AUTO 29012KT 40SM 12/M08 A2984 RMK AO1 T01171082
LAUREL      |K6S8 202255Z AUTO 29004KT 40SM 17/M04 A2986 RMK AO1 T01671043
ROUNDUP     |KRPX 202255Z AUTO 32005KT 40SM 15/M08 A2979 RMK AO1 T01501077
MALTA       |KM75 202255Z AUTO 28004KT 40SM 16/M04 A2981 RMK AO1 T01611043
EKALAKA     |K97M 202255Z AUTO 32015G20KT 40SM 10/M09 A2984 RMK AO1 T01001088
TWIN BRIDGES|K7S1 202255Z AUTO 00000KT 40SM 17/M06 A2988 RMK AO1 T01721055






000
SXUS55 KMSO 202303
OSOMSO
MONTANA AWOS SUMMARY
NATIONAL WEATHER SERVICE MISSOULA MT
403 PM MST MON APR 20 2015

Montana AWOS Reports

SCOBEY      |K9S2 202255Z AUTO 29012KT 40SM 12/M08 A2984 RMK AO1 T01171082
LAUREL      |K6S8 202255Z AUTO 29004KT 40SM 17/M04 A2986 RMK AO1 T01671043
ROUNDUP     |KRPX 202255Z AUTO 32005KT 40SM 15/M08 A2979 RMK AO1 T01501077
MALTA       |KM75 202255Z AUTO 28004KT 40SM 16/M04 A2981 RMK AO1 T01611043
EKALAKA     |K97M 202255Z AUTO 32015G20KT 40SM 10/M09 A2984 RMK AO1 T01001088
TWIN BRIDGES|K7S1 202255Z AUTO 00000KT 40SM 17/M06 A2988 RMK AO1 T01721055






000
SXUS55 KMSO 202244
OSOMSO
MONTANA AWOS SUMMARY
NATIONAL WEATHER SERVICE MISSOULA MT
343 PM MST MON APR 20 2015

Montana AWOS Reports

TWIN BRIDGES|K7S1 202235Z AUTO 17004KT 40SM 18/M05 A2989 RMK AO1 T01781049
LAUREL      |K6S8 202235Z AUTO 00000KT 40SM 16/M04 A2986 RMK AO1 T01611043
MALTA       |KM75 202235Z AUTO 28004KT 40SM 16/M04 A2982 RMK AO1 T01611043
ROUNDUP     |KRPX 202235Z AUTO 00000KT 40SM 16/M08 A2979 RMK AO1 T01561082






000
SXUS55 KMSO 202244
OSOMSO
MONTANA AWOS SUMMARY
NATIONAL WEATHER SERVICE MISSOULA MT
343 PM MST MON APR 20 2015

Montana AWOS Reports

TWIN BRIDGES|K7S1 202235Z AUTO 17004KT 40SM 18/M05 A2989 RMK AO1 T01781049
LAUREL      |K6S8 202235Z AUTO 00000KT 40SM 16/M04 A2986 RMK AO1 T01611043
MALTA       |KM75 202235Z AUTO 28004KT 40SM 16/M04 A2982 RMK AO1 T01611043
ROUNDUP     |KRPX 202235Z AUTO 00000KT 40SM 16/M08 A2979 RMK AO1 T01561082






000
SXUS55 KMSO 202223
OSOMSO
MONTANA AWOS SUMMARY
NATIONAL WEATHER SERVICE MISSOULA MT
323 PM MST MON APR 20 2015

Montana AWOS Reports

LAUREL      |K6S8 202215Z AUTO 29008KT 40SM 16/M04 A2987 RMK AO1 T01611043
TWIN BRIDGES|K7S1 202215Z AUTO 28006KT 40SM 18/M05 A2989 RMK AO1 T01781049
MALTA       |KM75 202215Z AUTO 27006KT 40SM 16/M04 A2982 RMK AO1 T01611043
ROUNDUP     |KRPX 202215Z AUTO 00000KT 40SM 15/M06 A2979 RMK AO1 T01501060






000
SXUS55 KMSO 202203
OSOMSO
MONTANA AWOS SUMMARY
NATIONAL WEATHER SERVICE MISSOULA MT
302 PM MST MON APR 20 2015

Montana AWOS Reports

TWIN BRIDGES|K7S1 202155Z AUTO 00000KT 40SM 17/M06 A2990 RMK AO1 T01671060
SCOBEY      |K9S2 202155Z AUTO 34016G20KT 40SM 12/M08 A2985 RMK AO1 T01221082
EKALAKA     |K97M 202155Z AUTO 32013G19KT 40SM 09/M09 A2985 RMK AO1 T00941088
LAUREL      |K6S8 202155Z AUTO 00000KT 40SM 17/M05 A2987 RMK AO1 T01721049
ROUNDUP     |KRPX 202155Z AUTO 00000KT 40SM 16/M07 A2980 RMK AO1 T01561066
MALTA       |KM75 202155Z AUTO 22009G16KT 40SM 16/M04 A2983 RMK AO1 T01611043






000
SXUS55 KMSO 202143
OSOMSO
MONTANA AWOS SUMMARY
NATIONAL WEATHER SERVICE MISSOULA MT
243 PM MST MON APR 20 2015

Montana AWOS Reports

TWIN BRIDGES|K7S1 202135Z AUTO 00000KT 40SM 17/M06 A2991 RMK AO1 T01721055
LAUREL      |K6S8 202135Z AUTO 32005KT 5SM 17/M06 A2988 RMK AO1 T01671055
ROUNDUP     |KRPX 202135Z AUTO 00000KT 40SM 15/M07 A2980 RMK AO1 T01501071
MALTA       |KM75 202135Z AUTO 27005KT 40SM 16/M05 A2984 RMK AO1 T01561049






000
SXUS55 KMSO 202123
OSOMSO
MONTANA AWOS SUMMARY
NATIONAL WEATHER SERVICE MISSOULA MT
223 PM MST MON APR 20 2015

Montana AWOS Reports

TWIN BRIDGES|K7S1 202115Z AUTO 18006KT 40SM 17/M06 A2991 RMK AO1 T01671055
LAUREL      |K6S8 202115Z AUTO 31006KT 3/4SM 16/M04 A2989 RMK AO1 T01611043
MALTA       |KM75 202115Z AUTO 29010G16KT 40SM 16/M06 A2984 RMK AO1 T01611055
ROUNDUP     |KRPX 202115Z AUTO 40SM 14/M07 A2981 RMK AO1 T01441071






000
SXUS55 KMSO 202103
OSOMSO
MONTANA AWOS SUMMARY
NATIONAL WEATHER SERVICE MISSOULA MT
203 PM MST MON APR 20 2015

Montana AWOS Reports

LAUREL      |K6S8 202055Z AUTO 28010G15KT 40SM 16/M06 A2990 RMK AO1 T01611055
TWIN BRIDGES|K7S1 202055Z AUTO 00000KT 40SM 16/M06 A2992 RMK AO1 T01611055
ROUNDUP     |KRPX 202055Z AUTO 00000KT 40SM 15/M07 A2982 RMK AO1 T01501071
MALTA       |KM75 202055Z AUTO 01004KT 40SM 16/M05 A2985 RMK AO1 T01561049
SCOBEY      |K9S2 202055Z AUTO 31014G22KT 40SM 12/M07 A2987 RMK AO1 T01221071
EKALAKA     |K97M 202055Z AUTO 32015G19KT 40SM 09/M09 A2986 RMK AO1 T00891093






000
SXUS55 KMSO 202044
OSOMSO
MONTANA AWOS SUMMARY
NATIONAL WEATHER SERVICE MISSOULA MT
143 PM MST MON APR 20 2015

Montana AWOS Reports

LAUREL      |K6S8 202035Z AUTO 30006KT 40SM 16/M05 A2990 RMK AO1 T01561049
TWIN BRIDGES|K7S1 202035Z AUTO 00000KT 40SM 16/M05 A2992 RMK AO1 T01561049
ROUNDUP     |KRPX 202035Z AUTO 00000KT 40SM 15/M07 A2982 RMK AO1 T01501071
MALTA       |KM75 202035Z AUTO 30006KT 40SM 16/M05 A2986 RMK AO1 T01561049






000
SXUS55 KMSO 202044
OSOMSO
MONTANA AWOS SUMMARY
NATIONAL WEATHER SERVICE MISSOULA MT
143 PM MST MON APR 20 2015

Montana AWOS Reports

LAUREL      |K6S8 202035Z AUTO 30006KT 40SM 16/M05 A2990 RMK AO1 T01561049
TWIN BRIDGES|K7S1 202035Z AUTO 00000KT 40SM 16/M05 A2992 RMK AO1 T01561049
ROUNDUP     |KRPX 202035Z AUTO 00000KT 40SM 15/M07 A2982 RMK AO1 T01501071
MALTA       |KM75 202035Z AUTO 30006KT 40SM 16/M05 A2986 RMK AO1 T01561049






000
SXUS55 KMSO 202023
OSOMSO
MONTANA AWOS SUMMARY
NATIONAL WEATHER SERVICE MISSOULA MT
123 PM MST MON APR 20 2015

Montana AWOS Reports

TWIN BRIDGES|K7S1 202015Z AUTO 00000KT 40SM 16/M05 A2993 RMK AO1 T01561049
LAUREL      |K6S8 202015Z AUTO 28010G15KT 40SM 16/M07 A2991 RMK AO1 T01561066
ROUNDUP     |KRPX 202015Z AUTO 00000KT 40SM 14/M08 A2983 RMK AO1 T01441077
MALTA       |KM75 202015Z AUTO 34009G14KT 40SM 15/M06 A2986 RMK AO1 T01501055






000
SXUS55 KMSO 202013
OSOMSO
MONTANA AWOS SUMMARY
NATIONAL WEATHER SERVICE MISSOULA MT
113 PM MST MON APR 20 2015

Montana AWOS Reports

SCOBEY      |K9S2 201955Z AUTO 33014G21KT 40SM 10/M09 A2988 RMK AO1 T01001093






000
SXUS55 KMSO 202003
OSOMSO
MONTANA AWOS SUMMARY
NATIONAL WEATHER SERVICE MISSOULA MT
103 PM MST MON APR 20 2015

Montana AWOS Reports

LAUREL      |K6S8 201955Z AUTO 32009KT 40SM 15/M06 A2992 RMK AO1 T01501055
TWIN BRIDGES|K7S1 201955Z AUTO 00000KT 40SM 15/M05 A2994 RMK AO1 T01501049
EKALAKA     |K97M 201955Z AUTO 31012G23KT 40SM 09/M08 A2987 RMK AO1 T00891082
ROUNDUP     |KRPX 201955Z AUTO 21005KT 40SM 14/M07 A2984 RMK AO1 T01391071
MALTA       |KM75 201955Z AUTO 28006KT 40SM 14/M06 A2987 RMK AO1 T01441060






000
SXUS55 KMSO 202003
OSOMSO
MONTANA AWOS SUMMARY
NATIONAL WEATHER SERVICE MISSOULA MT
103 PM MST MON APR 20 2015

Montana AWOS Reports

LAUREL      |K6S8 201955Z AUTO 32009KT 40SM 15/M06 A2992 RMK AO1 T01501055
TWIN BRIDGES|K7S1 201955Z AUTO 00000KT 40SM 15/M05 A2994 RMK AO1 T01501049
EKALAKA     |K97M 201955Z AUTO 31012G23KT 40SM 09/M08 A2987 RMK AO1 T00891082
ROUNDUP     |KRPX 201955Z AUTO 21005KT 40SM 14/M07 A2984 RMK AO1 T01391071
MALTA       |KM75 201955Z AUTO 28006KT 40SM 14/M06 A2987 RMK AO1 T01441060






000
SXUS55 KMSO 201944
OSOMSO
MONTANA AWOS SUMMARY
NATIONAL WEATHER SERVICE MISSOULA MT
1243 PM MST MON APR 20 2015

Montana AWOS Reports

LAUREL      |K6S8 201935Z AUTO 30006KT 40SM 14/M06 A2992 RMK AO1 T01441055
TWIN BRIDGES|K7S1 201935Z AUTO 00000KT 40SM 14/M05 A2994 RMK AO1 T01441049
ROUNDUP     |KRPX 201935Z AUTO 00000KT 40SM 13/M09 A2984 RMK AO1 T01331088
MALTA       |KM75 201935Z AUTO 34005KT 40SM 14/M06 A2988 RMK AO1 T01441060






000
SXUS55 KMSO 201923
OSOMSO
MONTANA AWOS SUMMARY
NATIONAL WEATHER SERVICE MISSOULA MT
1223 PM MST MON APR 20 2015

Montana AWOS Reports

LAUREL      |K6S8 201915Z AUTO 33008KT 40SM 14/M07 A2993 RMK AO1 T01391066
TWIN BRIDGES|K7S1 201915Z AUTO 24004KT 40SM 14/M06 A2995 RMK AO1 T01391055
MALTA       |KM75 201915Z AUTO 31010G19KT 40SM 14/M06 A2988 RMK AO1 T01441055
ROUNDUP     |KRPX 201915Z AUTO 00000KT 40SM 13/M08 A2985 RMK AO1 T01331082






000
SXUS55 KMSO 201923
OSOMSO
MONTANA AWOS SUMMARY
NATIONAL WEATHER SERVICE MISSOULA MT
1223 PM MST MON APR 20 2015

Montana AWOS Reports

LAUREL      |K6S8 201915Z AUTO 33008KT 40SM 14/M07 A2993 RMK AO1 T01391066
TWIN BRIDGES|K7S1 201915Z AUTO 24004KT 40SM 14/M06 A2995 RMK AO1 T01391055
MALTA       |KM75 201915Z AUTO 31010G19KT 40SM 14/M06 A2988 RMK AO1 T01441055
ROUNDUP     |KRPX 201915Z AUTO 00000KT 40SM 13/M08 A2985 RMK AO1 T01331082






000
SXUS55 KMSO 201903
OSOMSO
MONTANA AWOS SUMMARY
NATIONAL WEATHER SERVICE MISSOULA MT
1203 PM MST MON APR 20 2015

Montana AWOS Reports

LAUREL      |K6S8 201855Z AUTO VRB04KT 40SM 14/M05 A2994 RMK AO1 T01391049
TWIN BRIDGES|K7S1 201855Z AUTO 00000KT 40SM 13/M05 A2996 RMK AO1 T01331049
SCOBEY      |K9S2 201855Z AUTO 28016G22KT 40SM 11/M09 A2988 RMK AO1 T01061088
ROUNDUP     |KRPX 201855Z AUTO 00000KT 40SM 13/M08 A2986 RMK AO1 T01331077
MALTA       |KM75 201855Z AUTO 00000KT 40SM 14/M06 A2989 RMK AO1 T01391055
EKALAKA     |K97M 201855Z AUTO 31014G20KT 40SM 08/M07 A2988 RMK AO1 T00831071






000
SXUS55 KMSO 201843
OSOMSO
MONTANA AWOS SUMMARY
NATIONAL WEATHER SERVICE MISSOULA MT
1143 AM MST MON APR 20 2015

Montana AWOS Reports

ROUNDUP     |KRPX 201835Z AUTO 34005KT 40SM 13/M09 A2986 RMK AO1 T01281088
MALTA       |KM75 201835Z AUTO 31007KT 40SM 14/M07 A2990 RMK AO1 T01391066






000
SXUS55 KMSO 201843
OSOMSO
MONTANA AWOS SUMMARY
NATIONAL WEATHER SERVICE MISSOULA MT
1143 AM MST MON APR 20 2015

Montana AWOS Reports

ROUNDUP     |KRPX 201835Z AUTO 34005KT 40SM 13/M09 A2986 RMK AO1 T01281088
MALTA       |KM75 201835Z AUTO 31007KT 40SM 14/M07 A2990 RMK AO1 T01391066






000
SXUS55 KMSO 201823
OSOMSO
MONTANA AWOS SUMMARY
NATIONAL WEATHER SERVICE MISSOULA MT
1123 AM MST MON APR 20 2015

Montana AWOS Reports

TWIN BRIDGES|K7S1 201815Z AUTO 00000KT 40SM 12/M06 A2997 RMK AO1 T01221060
LAUREL      |K6S8 201815Z AUTO 00000KT 40SM 12/M06 A2995 RMK AO1 T01221055
ROUNDUP     |KRPX 201815Z AUTO 34005KT 40SM 13/M09 A2987 RMK AO1 T01281088
MALTA       |KM75 201815Z AUTO 31009G14KT 40SM 13/M06 A2990 RMK AO1 T01331055






000
SXUS55 KMSO 201823
OSOMSO
MONTANA AWOS SUMMARY
NATIONAL WEATHER SERVICE MISSOULA MT
1123 AM MST MON APR 20 2015

Montana AWOS Reports

TWIN BRIDGES|K7S1 201815Z AUTO 00000KT 40SM 12/M06 A2997 RMK AO1 T01221060
LAUREL      |K6S8 201815Z AUTO 00000KT 40SM 12/M06 A2995 RMK AO1 T01221055
ROUNDUP     |KRPX 201815Z AUTO 34005KT 40SM 13/M09 A2987 RMK AO1 T01281088
MALTA       |KM75 201815Z AUTO 31009G14KT 40SM 13/M06 A2990 RMK AO1 T01331055






000
SXUS55 KMSO 201814
OSOMSO
MONTANA AWOS SUMMARY
NATIONAL WEATHER SERVICE MISSOULA MT
1113 AM MST MON APR 20 2015

Montana AWOS Reports

EKALAKA     |K97M 201755Z AUTO 31018G22KT 40SM 08/M11 A2990 RMK AO1 T00781105
SCOBEY      |K9S2 201755Z AUTO 32015G22KT 40SM 09/M08 A2990 RMK AO1 T00941082






000
SXUS55 KMSO 201803
OSOMSO
MONTANA AWOS SUMMARY
NATIONAL WEATHER SERVICE MISSOULA MT
1103 AM MST MON APR 20 2015

Montana AWOS Reports

LAUREL      |K6S8 201755Z AUTO 00000KT 40SM 12/M06 A2996 RMK AO1 T01221060
ROUNDUP     |KRPX 201755Z AUTO 00000KT 40SM 12/M09 A2988 RMK AO1 T01221093
MALTA       |KM75 201755Z AUTO 34010G15KT 40SM 13/M06 A2991 RMK AO1 T01331055






000
SXUS55 KMSO 201803
OSOMSO
MONTANA AWOS SUMMARY
NATIONAL WEATHER SERVICE MISSOULA MT
1103 AM MST MON APR 20 2015

Montana AWOS Reports

LAUREL      |K6S8 201755Z AUTO 00000KT 40SM 12/M06 A2996 RMK AO1 T01221060
ROUNDUP     |KRPX 201755Z AUTO 00000KT 40SM 12/M09 A2988 RMK AO1 T01221093
MALTA       |KM75 201755Z AUTO 34010G15KT 40SM 13/M06 A2991 RMK AO1 T01331055






000
SXUS55 KMSO 201743
OSOMSO
MONTANA AWOS SUMMARY
NATIONAL WEATHER SERVICE MISSOULA MT
1043 AM MST MON APR 20 2015

Montana AWOS Reports

LAUREL      |K6S8 201735Z AUTO 01006KT 40SM 12/M05 A2996 RMK AO1 T01171049
TWIN BRIDGES|K7S1 201735Z AUTO 14004KT 40SM 11/M04 A2998 RMK AO1 T01111038
ROUNDUP     |KRPX 201735Z AUTO 00000KT 40SM 12/M08 A2988 RMK AO1 T01221082
MALTA       |KM75 201735Z AUTO 32009G14KT 40SM 12/M07 A2991 RMK AO1 T01221066






000
SXUS55 KMSO 201743
OSOMSO
MONTANA AWOS SUMMARY
NATIONAL WEATHER SERVICE MISSOULA MT
1043 AM MST MON APR 20 2015

Montana AWOS Reports

LAUREL      |K6S8 201735Z AUTO 01006KT 40SM 12/M05 A2996 RMK AO1 T01171049
TWIN BRIDGES|K7S1 201735Z AUTO 14004KT 40SM 11/M04 A2998 RMK AO1 T01111038
ROUNDUP     |KRPX 201735Z AUTO 00000KT 40SM 12/M08 A2988 RMK AO1 T01221082
MALTA       |KM75 201735Z AUTO 32009G14KT 40SM 12/M07 A2991 RMK AO1 T01221066






000
SXUS55 KMSO 201723
OSOMSO
MONTANA AWOS SUMMARY
NATIONAL WEATHER SERVICE MISSOULA MT
1022 AM MST MON APR 20 2015

Montana AWOS Reports

LAUREL      |K6S8 201715Z AUTO 00000KT 40SM 11/M07 A2997 RMK AO1 T01111066
ROUNDUP     |KRPX 201715Z AUTO 00000KT 40SM 11/M07 A2989 RMK AO1 T01111071
MALTA       |KM75 201715Z AUTO 33006KT 40SM 12/M06 A2992 RMK AO1 T01221060






000
SXUS55 KMSO 201723
OSOMSO
MONTANA AWOS SUMMARY
NATIONAL WEATHER SERVICE MISSOULA MT
1022 AM MST MON APR 20 2015

Montana AWOS Reports

LAUREL      |K6S8 201715Z AUTO 00000KT 40SM 11/M07 A2997 RMK AO1 T01111066
ROUNDUP     |KRPX 201715Z AUTO 00000KT 40SM 11/M07 A2989 RMK AO1 T01111071
MALTA       |KM75 201715Z AUTO 33006KT 40SM 12/M06 A2992 RMK AO1 T01221060






000
SXUS55 KMSO 201713
OSOMSO
MONTANA AWOS SUMMARY
NATIONAL WEATHER SERVICE MISSOULA MT
1013 AM MST MON APR 20 2015

Montana AWOS Reports

SCOBEY      |K9S2 201655Z AUTO 34010G18KT 40SM 09/M08 A2991 RMK AO1 T00891077






000
SXUS55 KMSO 201713
OSOMSO
MONTANA AWOS SUMMARY
NATIONAL WEATHER SERVICE MISSOULA MT
1013 AM MST MON APR 20 2015

Montana AWOS Reports

SCOBEY      |K9S2 201655Z AUTO 34010G18KT 40SM 09/M08 A2991 RMK AO1 T00891077






000
SXUS55 KMSO 201703
OSOMSO
MONTANA AWOS SUMMARY
NATIONAL WEATHER SERVICE MISSOULA MT
1003 AM MST MON APR 20 2015

Montana AWOS Reports

LAUREL      |K6S8 201655Z AUTO 00000KT 40SM 10/M04 A2997 RMK AO1 T01001043
TWIN BRIDGES|K7S1 201655Z AUTO 10004KT 40SM 09/M04 A3000 RMK AO1 T00941038
MALTA       |KM75 201655Z AUTO 00000KT 40SM 11/M03 A2992 RMK AO1 T01061032
ROUNDUP     |KRPX 201655Z AUTO 00000KT 40SM 10/M07 A2989 RMK AO1 T01001071






000
SXUS55 KMSO 201703
OSOMSO
MONTANA AWOS SUMMARY
NATIONAL WEATHER SERVICE MISSOULA MT
1003 AM MST MON APR 20 2015

Montana AWOS Reports

LAUREL      |K6S8 201655Z AUTO 00000KT 40SM 10/M04 A2997 RMK AO1 T01001043
TWIN BRIDGES|K7S1 201655Z AUTO 10004KT 40SM 09/M04 A3000 RMK AO1 T00941038
MALTA       |KM75 201655Z AUTO 00000KT 40SM 11/M03 A2992 RMK AO1 T01061032
ROUNDUP     |KRPX 201655Z AUTO 00000KT 40SM 10/M07 A2989 RMK AO1 T01001071






000
SXUS55 KMSO 201643
OSOMSO
MONTANA AWOS SUMMARY
NATIONAL WEATHER SERVICE MISSOULA MT
943 AM MST MON APR 20 2015

Montana AWOS Reports

LAUREL      |K6S8 201635Z AUTO 00000KT 40SM 09/M04 A2997 RMK AO1 T00941038
TWIN BRIDGES|K7S1 201635Z AUTO 00000KT 40SM 08/M04 A3000 RMK AO1 T00831038
MALTA       |KM75 201635Z AUTO 00000KT 40SM 09/M03 A2993 RMK AO1 T00941032
ROUNDUP     |KRPX 201635Z AUTO 00000KT 40SM 09/M06 A2989 RMK AO1 T00891055






000
SXUS55 KMSO 201623
OSOMSO
MONTANA AWOS SUMMARY
NATIONAL WEATHER SERVICE MISSOULA MT
923 AM MST MON APR 20 2015

Montana AWOS Reports

TWIN BRIDGES|K7S1 201615Z AUTO 00000KT 40SM 08/M04 A3000 RMK AO1 T00781043
LAUREL      |K6S8 201615Z AUTO 00000KT 40SM 08/M04 A2998 RMK AO1 T00831038
ROUNDUP     |KRPX 201615Z AUTO 20004KT 40SM 08/M06 A2990 RMK AO1 T00781060
MALTA       |KM75 201615Z AUTO 00000KT 40SM 07/M03 A2994 RMK AO1 T00721032






000
SXUS55 KMSO 201613
OSOMSO
MONTANA AWOS SUMMARY
NATIONAL WEATHER SERVICE MISSOULA MT
913 AM MST MON APR 20 2015

Montana AWOS Reports

SCOBEY      |K9S2 201555Z AUTO 33005KT 25SM 06/M07 A2993 RMK AO1 T00561071






000
SXUS55 KMSO 201613
OSOMSO
MONTANA AWOS SUMMARY
NATIONAL WEATHER SERVICE MISSOULA MT
913 AM MST MON APR 20 2015

Montana AWOS Reports

SCOBEY      |K9S2 201555Z AUTO 33005KT 25SM 06/M07 A2993 RMK AO1 T00561071






000
SXUS55 KMSO 201603
OSOMSO
MONTANA AWOS SUMMARY
NATIONAL WEATHER SERVICE MISSOULA MT
902 AM MST MON APR 20 2015

Montana AWOS Reports

LAUREL      |K6S8 201555Z AUTO 00000KT 40SM 07/M04 A2998 RMK AO1 T00721038
TWIN BRIDGES|K7S1 201555Z AUTO 00000KT 40SM 07/M03 A3001 RMK AO1 T00671032
MALTA       |KM75 201555Z AUTO 00000KT 40SM 06/M04 A2994 RMK AO1 T00561043
ROUNDUP     |KRPX 201555Z AUTO 00000KT 40SM 06/M07 A2990 RMK AO1 T00611066
EKALAKA     |K97M 201555Z AUTO 28013G17KT 40SM 07/M07 A2992 RMK AO1 T00671066






000
SXUS55 KMSO 201603
OSOMSO
MONTANA AWOS SUMMARY
NATIONAL WEATHER SERVICE MISSOULA MT
902 AM MST MON APR 20 2015

Montana AWOS Reports

LAUREL      |K6S8 201555Z AUTO 00000KT 40SM 07/M04 A2998 RMK AO1 T00721038
TWIN BRIDGES|K7S1 201555Z AUTO 00000KT 40SM 07/M03 A3001 RMK AO1 T00671032
MALTA       |KM75 201555Z AUTO 00000KT 40SM 06/M04 A2994 RMK AO1 T00561043
ROUNDUP     |KRPX 201555Z AUTO 00000KT 40SM 06/M07 A2990 RMK AO1 T00611066
EKALAKA     |K97M 201555Z AUTO 28013G17KT 40SM 07/M07 A2992 RMK AO1 T00671066






000
SXUS55 KMSO 201543
OSOMSO
MONTANA AWOS SUMMARY
NATIONAL WEATHER SERVICE MISSOULA MT
843 AM MST MON APR 20 2015

Montana AWOS Reports

LAUREL      |K6S8 201535Z AUTO 00000KT 40SM 06/M05 A2999 RMK AO1 T00611049
TWIN BRIDGES|K7S1 201535Z AUTO 15004KT 40SM 06/M04 A3001 RMK AO1 T00561043
MALTA       |KM75 201535Z AUTO 00000KT 40SM 04/M05 A2995 RMK AO1 T00441049
ROUNDUP     |KRPX 201535Z AUTO 20005KT 40SM 05/M07 A2991 RMK AO1 T00501066






000
SXUS55 KMSO 201523
OSOMSO
MONTANA AWOS SUMMARY
NATIONAL WEATHER SERVICE MISSOULA MT
822 AM MST MON APR 20 2015

Montana AWOS Reports

LAUREL      |K6S8 201515Z AUTO 00000KT 40SM 05/M06 A2998 RMK AO1 T00501055
TWIN BRIDGES|K7S1 201515Z AUTO 15004KT 40SM 05/M04 A3001 RMK AO1 T00501038
ROUNDUP     |KRPX 201515Z AUTO 20004KT 40SM 03/M07 A2991 RMK AO1 T00331071
MALTA       |KM75 201515Z AUTO 00000KT 40SM 03/M06 A2996 RMK AO1 T00281055






000
SXUS55 KMSO 201513
OSOMSO
MONTANA AWOS SUMMARY
NATIONAL WEATHER SERVICE MISSOULA MT
813 AM MST MON APR 20 2015

Montana AWOS Reports

EKALAKA     |K97M 201455Z AUTO 31010G15KT 40SM 04/M06 A2992 RMK AO1 T00441060






000
SXUS55 KMSO 201503
OSOMSO
MONTANA AWOS SUMMARY
NATIONAL WEATHER SERVICE MISSOULA MT
802 AM MST MON APR 20 2015

Montana AWOS Reports

LAUREL      |K6S8 201455Z AUTO 00000KT 40SM 04/M06 A2998 RMK AO1 T00441055
TWIN BRIDGES|K7S1 201455Z AUTO 15004KT 40SM 04/M04 A3001 RMK AO1 T00391043
MALTA       |KM75 201455Z AUTO 00000KT 40SM 02/M06 A2996 RMK AO1 T00171060
ROUNDUP     |KRPX 201455Z AUTO 20005KT 40SM 02/M07 A2991 RMK AO1 T00221071
SCOBEY      |K9S2 201455Z AUTO 00000KT 40SM 01/M07 A2993 RMK AO1 T00111071






000
SXUS55 KMSO 201443
OSOMSO
MONTANA AWOS SUMMARY
NATIONAL WEATHER SERVICE MISSOULA MT
743 AM MST MON APR 20 2015

Montana AWOS Reports

LAUREL      |K6S8 201435Z AUTO 20004KT 40SM 03/M06 A2999 RMK AO1 T00331060
TWIN BRIDGES|K7S1 201435Z AUTO 12006KT 40SM 03/M04 A3001 RMK AO1 T00331043
MALTA       |KM75 201435Z AUTO 00000KT 40SM 00/M07 A2996 RMK AO1 T00001066
ROUNDUP     |KRPX 201435Z AUTO 20005KT 40SM 01/M08 A2992 RMK AO1 T00061077






000
SXUS55 KMSO 201424
OSOMSO
MONTANA AWOS SUMMARY
NATIONAL WEATHER SERVICE MISSOULA MT
723 AM MST MON APR 20 2015

Montana AWOS Reports

LAUREL      |K6S8 201415Z AUTO 00000KT 40SM 02/M07 A2999 RMK AO1 T00221066
TWIN BRIDGES|K7S1 201415Z AUTO 12006KT 40SM 02/M05 A3002 RMK AO1 T00171049
MALTA       |KM75 201415Z AUTO 00000KT 40SM M01/M07 A2997 RMK AO1 T10101071
ROUNDUP     |KRPX 201415Z AUTO 00000KT 40SM M01/M08 A2992 RMK AO1 T10051082






000
SXUS55 KMSO 201424
OSOMSO
MONTANA AWOS SUMMARY
NATIONAL WEATHER SERVICE MISSOULA MT
723 AM MST MON APR 20 2015

Montana AWOS Reports

LAUREL      |K6S8 201415Z AUTO 00000KT 40SM 02/M07 A2999 RMK AO1 T00221066
TWIN BRIDGES|K7S1 201415Z AUTO 12006KT 40SM 02/M05 A3002 RMK AO1 T00171049
MALTA       |KM75 201415Z AUTO 00000KT 40SM M01/M07 A2997 RMK AO1 T10101071
ROUNDUP     |KRPX 201415Z AUTO 00000KT 40SM M01/M08 A2992 RMK AO1 T10051082






000
SXUS55 KMSO 201403
OSOMSO
MONTANA AWOS SUMMARY
NATIONAL WEATHER SERVICE MISSOULA MT
703 AM MST MON APR 20 2015

Montana AWOS Reports

LAUREL      |K6S8 201355Z AUTO 00000KT 40SM 02/M07 A2999 RMK AO1 T00171066
TWIN BRIDGES|K7S1 201355Z AUTO 12004KT 40SM M01/M06 A3002 RMK AO1 T10051055
MALTA       |KM75 201355Z AUTO 32005KT 40SM M02/M07 A2997 RMK AO1 T10211071
ROUNDUP     |KRPX 201355Z AUTO 21007KT 40SM M02/M08 A2992 RMK AO1 T10161082
SCOBEY      |K9S2 201355Z AUTO 00000KT 40SM M03/M09 A2995 RMK AO1 T10321088
EKALAKA     |K97M 201355Z AUTO 27007KT 40SM 02/M07 A2993 RMK AO1 T00171066






000
SXUS55 KMSO 201343
OSOMSO
MONTANA AWOS SUMMARY
NATIONAL WEATHER SERVICE MISSOULA MT
643 AM MST MON APR 20 2015

Montana AWOS Reports

LAUREL      |K6S8 201335Z AUTO 00000KT 40SM 01/M07 A2999 RMK AO1 T00061066
TWIN BRIDGES|K7S1 201335Z AUTO 00000KT 40SM M03/M08 A3002 RMK AO1 T10321077
MALTA       |KM75 201335Z AUTO 00000KT 40SM M03/M08 A2997 RMK AO1 T10321077
ROUNDUP     |KRPX 201335Z AUTO 20011KT 40SM M02/M09 A2992 RMK AO1 T10211088






000
SXUS55 KMSO 201343
OSOMSO
MONTANA AWOS SUMMARY
NATIONAL WEATHER SERVICE MISSOULA MT
643 AM MST MON APR 20 2015

Montana AWOS Reports

LAUREL      |K6S8 201335Z AUTO 00000KT 40SM 01/M07 A2999 RMK AO1 T00061066
TWIN BRIDGES|K7S1 201335Z AUTO 00000KT 40SM M03/M08 A3002 RMK AO1 T10321077
MALTA       |KM75 201335Z AUTO 00000KT 40SM M03/M08 A2997 RMK AO1 T10321077
ROUNDUP     |KRPX 201335Z AUTO 20011KT 40SM M02/M09 A2992 RMK AO1 T10211088






000
SXUS55 KMSO 201323
OSOMSO
MONTANA AWOS SUMMARY
NATIONAL WEATHER SERVICE MISSOULA MT
623 AM MST MON APR 20 2015

Montana AWOS Reports

LAUREL      |K6S8 201315Z AUTO 00000KT 40SM M01/M08 A2999 RMK AO1 T10101077
TWIN BRIDGES|K7S1 201315Z AUTO 00000KT 5SM M02/M08 A3002 RMK AO1 T10211077
MALTA       |KM75 201315Z AUTO 00000KT 40SM M05/M09 A2997 RMK AO1 T10491093
ROUNDUP     |KRPX 201315Z AUTO 21008KT 40SM M03/M09 A2992 RMK AO1 T10321093






000
SXUS55 KMSO 201303
OSOMSO
MONTANA AWOS SUMMARY
NATIONAL WEATHER SERVICE MISSOULA MT
603 AM MST MON APR 20 2015

Montana AWOS Reports

TWIN BRIDGES|K7S1 201255Z AUTO 00000KT 40SM M02/M07 A3002 RMK AO1 T10161066
LAUREL      |K6S8 201255Z AUTO 00000KT 40SM M02/M09 A2999 RMK AO1 T10211088
MALTA       |KM75 201255Z AUTO 00000KT 25SM M06/M11 A2997 RMK AO1 T10601105
SCOBEY      |K9S2 201255Z AUTO 00000KT 15SM M08/M13 A2995 RMK AO1 T10771127
EKALAKA     |K97M 201255Z AUTO 30004KT 40SM M02/M08 A2993 RMK AO1 T10211082
ROUNDUP     |KRPX 201255Z AUTO 20005KT 40SM M04/M09 A2993 RMK AO1 T10381093






000
SXUS55 KMSO 201303
OSOMSO
MONTANA AWOS SUMMARY
NATIONAL WEATHER SERVICE MISSOULA MT
603 AM MST MON APR 20 2015

Montana AWOS Reports

TWIN BRIDGES|K7S1 201255Z AUTO 00000KT 40SM M02/M07 A3002 RMK AO1 T10161066
LAUREL      |K6S8 201255Z AUTO 00000KT 40SM M02/M09 A2999 RMK AO1 T10211088
MALTA       |KM75 201255Z AUTO 00000KT 25SM M06/M11 A2997 RMK AO1 T10601105
SCOBEY      |K9S2 201255Z AUTO 00000KT 15SM M08/M13 A2995 RMK AO1 T10771127
EKALAKA     |K97M 201255Z AUTO 30004KT 40SM M02/M08 A2993 RMK AO1 T10211082
ROUNDUP     |KRPX 201255Z AUTO 20005KT 40SM M04/M09 A2993 RMK AO1 T10381093






000
SXUS55 KMSO 201244
OSOMSO
MONTANA AWOS SUMMARY
NATIONAL WEATHER SERVICE MISSOULA MT
543 AM MST MON APR 20 2015

Montana AWOS Reports

TWIN BRIDGES|K7S1 201235Z AUTO 04004KT 40SM M02/M07 A3002 RMK AO1 T10211071
LAUREL      |K6S8 201235Z AUTO 00000KT 40SM M02/M08 A2999 RMK AO1 T10211077
MALTA       |KM75 201235Z AUTO 00000KT 40SM M06/M11 A2997 RMK AO1 T10601105
ROUNDUP     |KRPX 201235Z AUTO 20010KT 40SM M03/M09 A2992 RMK AO1 T10321093






000
SXUS55 KMSO 201244
OSOMSO
MONTANA AWOS SUMMARY
NATIONAL WEATHER SERVICE MISSOULA MT
543 AM MST MON APR 20 2015

Montana AWOS Reports

TWIN BRIDGES|K7S1 201235Z AUTO 04004KT 40SM M02/M07 A3002 RMK AO1 T10211071
LAUREL      |K6S8 201235Z AUTO 00000KT 40SM M02/M08 A2999 RMK AO1 T10211077
MALTA       |KM75 201235Z AUTO 00000KT 40SM M06/M11 A2997 RMK AO1 T10601105
ROUNDUP     |KRPX 201235Z AUTO 20010KT 40SM M03/M09 A2992 RMK AO1 T10321093






000
SXUS55 KMSO 201223
OSOMSO
MONTANA AWOS SUMMARY
NATIONAL WEATHER SERVICE MISSOULA MT
523 AM MST MON APR 20 2015

Montana AWOS Reports

TWIN BRIDGES|K7S1 201215Z AUTO 00000KT 40SM M02/M07 A3002 RMK AO1 T10161071
LAUREL      |K6S8 201215Z AUTO 00000KT 40SM M02/M06 A2998 RMK AO1 T10161060
MALTA       |KM75 201215Z AUTO 00000KT 40SM M06/M11 A2997 RMK AO1 T10601105
ROUNDUP     |KRPX 201215Z AUTO 21008KT 40SM M03/M09 A2992 RMK AO1 T10271088






000
SXUS55 KMSO 201203
OSOMSO
MONTANA AWOS SUMMARY
NATIONAL WEATHER SERVICE MISSOULA MT
503 AM MST MON APR 20 2015

Montana AWOS Reports

TWIN BRIDGES|K7S1 201155Z AUTO 00000KT 40SM M01/M07 A3002 RMK AO1 T10101071
LAUREL      |K6S8 201155Z AUTO 00000KT 40SM M02/M07 A2998 RMK AO1 T10161066
ROUNDUP     |KRPX 201155Z AUTO 21010KT 40SM M03/M09 A2992 RMK AO1 T10271088
MALTA       |KM75 201155Z AUTO 00000KT 40SM M06/M11 A2997 RMK AO1 T10601105
EKALAKA     |K97M 201155Z AUTO 00000KT 40SM M03/M09 A2992 RMK AO1 T10321093
SCOBEY      |K9S2 201155Z AUTO 00000KT 40SM M08/M14 A2995 RMK AO1 T10821138






000
SXUS55 KMSO 201143
OSOMSO
MONTANA AWOS SUMMARY
NATIONAL WEATHER SERVICE MISSOULA MT
443 AM MST MON APR 20 2015

Montana AWOS Reports

LAUREL      |K6S8 201135Z AUTO 00000KT 40SM M01/M06 A2999 RMK AO1 T10101060
MALTA       |KM75 201135Z AUTO 00000KT 40SM M06/M11 A2997 RMK AO1 T10601105
ROUNDUP     |KRPX 201135Z AUTO 21009KT 40SM M03/M09 A2992 RMK AO1 T10321093






000
SXUS55 KMSO 201143
OSOMSO
MONTANA AWOS SUMMARY
NATIONAL WEATHER SERVICE MISSOULA MT
443 AM MST MON APR 20 2015

Montana AWOS Reports

LAUREL      |K6S8 201135Z AUTO 00000KT 40SM M01/M06 A2999 RMK AO1 T10101060
MALTA       |KM75 201135Z AUTO 00000KT 40SM M06/M11 A2997 RMK AO1 T10601105
ROUNDUP     |KRPX 201135Z AUTO 21009KT 40SM M03/M09 A2992 RMK AO1 T10321093






000
SXUS55 KMSO 201123
OSOMSO
MONTANA AWOS SUMMARY
NATIONAL WEATHER SERVICE MISSOULA MT
422 AM MST MON APR 20 2015

Montana AWOS Reports

TWIN BRIDGES|K7S1 201115Z AUTO 00000KT 40SM 01/M06 A3002 RMK AO1 T00061060
LAUREL      |K6S8 201115Z AUTO 00000KT 40SM M01/M06 A2999 RMK AO1 T10051060
MALTA       |KM75 201115Z AUTO 00000KT 40SM M06/M09 A2997 RMK AO1 T10551093
ROUNDUP     |KRPX 201115Z AUTO 21011KT 40SM M03/M09 A2993 RMK AO1 T10271088






000
SXUS55 KMSO 201103
OSOMSO
MONTANA AWOS SUMMARY
NATIONAL WEATHER SERVICE MISSOULA MT
403 AM MST MON APR 20 2015

Montana AWOS Reports

LAUREL      |K6S8 201055Z AUTO 00000KT 40SM M01/M06 A2999 RMK AO1 T10051060
TWIN BRIDGES|K7S1 201055Z AUTO 00000KT 40SM 01/M06 A3002 RMK AO1 T00061060
SCOBEY      |K9S2 201055Z AUTO 00000KT 40SM M08/M13 A2995 RMK AO1 T10771132
ROUNDUP     |KRPX 201055Z AUTO 21008KT 40SM M03/M09 A2993 RMK AO1 T10271093
MALTA       |KM75 201055Z AUTO 00000KT 40SM M05/M09 A2998 RMK AO1 T10491088
EKALAKA     |K97M 201055Z AUTO 00000KT 40SM M03/M10 A2993 RMK AO1 T10321099






000
SXUS55 KMSO 201103
OSOMSO
MONTANA AWOS SUMMARY
NATIONAL WEATHER SERVICE MISSOULA MT
403 AM MST MON APR 20 2015

Montana AWOS Reports

LAUREL      |K6S8 201055Z AUTO 00000KT 40SM M01/M06 A2999 RMK AO1 T10051060
TWIN BRIDGES|K7S1 201055Z AUTO 00000KT 40SM 01/M06 A3002 RMK AO1 T00061060
SCOBEY      |K9S2 201055Z AUTO 00000KT 40SM M08/M13 A2995 RMK AO1 T10771132
ROUNDUP     |KRPX 201055Z AUTO 21008KT 40SM M03/M09 A2993 RMK AO1 T10271093
MALTA       |KM75 201055Z AUTO 00000KT 40SM M05/M09 A2998 RMK AO1 T10491088
EKALAKA     |K97M 201055Z AUTO 00000KT 40SM M03/M10 A2993 RMK AO1 T10321099






000
SXUS55 KMSO 201043
OSOMSO
MONTANA AWOS SUMMARY
NATIONAL WEATHER SERVICE MISSOULA MT
343 AM MST MON APR 20 2015

Montana AWOS Reports

LAUREL      |K6S8 201035Z AUTO 00000KT 40SM M01/M06 A3000 RMK AO1 T10051060
TWIN BRIDGES|K7S1 201035Z AUTO 00000KT 25SM 02/M06 A3003 RMK AO1 T00171060
ROUNDUP     |KRPX 201035Z AUTO 21008KT 40SM M03/M09 A2993 RMK AO1 T10271093
MALTA       |KM75 201035Z AUTO 00000KT 40SM M06/M09 A2998 RMK AO1 T10551093






000
SXUS55 KMSO 201023
OSOMSO
MONTANA AWOS SUMMARY
NATIONAL WEATHER SERVICE MISSOULA MT
323 AM MST MON APR 20 2015

Montana AWOS Reports

TWIN BRIDGES|K7S1 201015Z AUTO 00000KT 15SM 04/M06 A3002 RMK AO1 T00391055
LAUREL      |K6S8 201015Z AUTO 00000KT 40SM 00/M08 A3000 RMK AO1 T00001077
ROUNDUP     |KRPX 201015Z AUTO 22005KT 40SM M03/M09 A2994 RMK AO1 T10271093
MALTA       |KM75 201015Z AUTO 00000KT 40SM M05/M09 A2998 RMK AO1 T10491088






000
SXUS55 KMSO 201013
OSOMSO
MONTANA AWOS SUMMARY
NATIONAL WEATHER SERVICE MISSOULA MT
312 AM MST MON APR 20 2015

Montana AWOS Reports

EKALAKA     |K97M 200955Z AUTO 00000KT 40SM M03/M10 A2994 RMK AO1 T10321099






000
SXUS55 KMSO 201003
OSOMSO
MONTANA AWOS SUMMARY
NATIONAL WEATHER SERVICE MISSOULA MT
303 AM MST MON APR 20 2015

Montana AWOS Reports

LAUREL      |K6S8 200955Z AUTO 00000KT 40SM 00/M08 A3000 RMK AO1 T00001082
TWIN BRIDGES|K7S1 200955Z AUTO 01006KT 40SM 04/M06 A3002 RMK AO1 T00391055
SCOBEY      |K9S2 200955Z AUTO 00000KT 40SM M07/M13 A2996 RMK AO1 T10661127
ROUNDUP     |KRPX 200955Z AUTO 22006KT 40SM M03/M10 A2994 RMK AO1 T10271099
MALTA       |KM75 200955Z AUTO 32004KT 40SM M05/M09 A2998 RMK AO1 T10491088
MALTA       |KM75 200955Z AUTO 32004KT 40SM M05/M09 A2998 RMK AO1 T10491088






000
SXUS55 KMSO 200943
OSOMSO
MONTANA AWOS SUMMARY
NATIONAL WEATHER SERVICE MISSOULA MT
243 AM MST MON APR 20 2015

Montana AWOS Reports

LAUREL      |K6S8 200935Z AUTO 00000KT 40SM 01/M08 A3000 RMK AO1 T00111077
TWIN BRIDGES|K7S1 200935Z AUTO 00000KT 40SM 04/M06 A3002 RMK AO1 T00391060
ROUNDUP     |KRPX 200935Z AUTO 22006KT 40SM M02/M10 A2994 RMK AO1 T10211099
MALTA       |KM75 200935Z AUTO 00000KT 40SM M06/M09 A2999 RMK AO1 T10551093






000
SXUS55 KMSO 200924
OSOMSO
MONTANA AWOS SUMMARY
NATIONAL WEATHER SERVICE MISSOULA MT
223 AM MST MON APR 20 2015

Montana AWOS Reports

LAUREL      |K6S8 200915Z AUTO 00000KT 40SM 02/M08 A3001 RMK AO1 T00171077
TWIN BRIDGES|K7S1 200915Z AUTO 01005KT 40SM 04/M06 A3002 RMK AO1 T00441055
ROUNDUP     |KRPX 200915Z AUTO 00000KT 40SM M02/M10 A2995 RMK AO1 T10211099
MALTA       |KM75 200915Z AUTO 00000KT 40SM M05/M09 A2999 RMK AO1 T10491093






000
SXUS55 KMSO 200924
OSOMSO
MONTANA AWOS SUMMARY
NATIONAL WEATHER SERVICE MISSOULA MT
223 AM MST MON APR 20 2015

Montana AWOS Reports

LAUREL      |K6S8 200915Z AUTO 00000KT 40SM 02/M08 A3001 RMK AO1 T00171077
TWIN BRIDGES|K7S1 200915Z AUTO 01005KT 40SM 04/M06 A3002 RMK AO1 T00441055
ROUNDUP     |KRPX 200915Z AUTO 00000KT 40SM M02/M10 A2995 RMK AO1 T10211099
MALTA       |KM75 200915Z AUTO 00000KT 40SM M05/M09 A2999 RMK AO1 T10491093






000
SXUS55 KMSO 200913
OSOMSO
MONTANA AWOS SUMMARY
NATIONAL WEATHER SERVICE MISSOULA MT
213 AM MST MON APR 20 2015

Montana AWOS Reports

EKALAKA     |K97M 200855Z AUTO 00000KT 40SM M02/M09 A2995 RMK AO1 T10161093






000
SXUS55 KMSO 200913
OSOMSO
MONTANA AWOS SUMMARY
NATIONAL WEATHER SERVICE MISSOULA MT
213 AM MST MON APR 20 2015

Montana AWOS Reports

EKALAKA     |K97M 200855Z AUTO 00000KT 40SM M02/M09 A2995 RMK AO1 T10161093






000
SXUS55 KMSO 200903
OSOMSO
MONTANA AWOS SUMMARY
NATIONAL WEATHER SERVICE MISSOULA MT
203 AM MST MON APR 20 2015

Montana AWOS Reports

LAUREL      |K6S8 200855Z AUTO 30004KT 40SM 01/M08 A3001 RMK AO1 T00061077
TWIN BRIDGES|K7S1 200855Z AUTO 34009G14KT 40SM 05/M06 A3002 RMK AO1 T00501055
MALTA       |KM75 200855Z AUTO 00000KT 40SM M05/M09 A3000 RMK AO1 T10491093
ROUNDUP     |KRPX 200855Z AUTO 00000KT 40SM M01/M11 A2995 RMK AO1 T10101105






000
SXUS55 KMSO 200853
OSOMSO
MONTANA AWOS SUMMARY
NATIONAL WEATHER SERVICE MISSOULA MT
152 AM MST MON APR 20 2015

Montana AWOS Reports

ROUNDUP     |KRPX 200835Z AUTO 00000KT 40SM M01/M10 A2995 RMK AO1 T10051099
MALTA       |KM75 200835Z AUTO 00000KT 40SM M04/M09 A3000 RMK AO1 T10381088






000
SXUS55 KMSO 200843
OSOMSO
MONTANA AWOS SUMMARY
NATIONAL WEATHER SERVICE MISSOULA MT
143 AM MST MON APR 20 2015

Montana AWOS Reports

LAUREL      |K6S8 200835Z AUTO 30005KT 40SM 00/M08 A3002 RMK AO1 T00001077
TWIN BRIDGES|K7S1 200835Z AUTO 34009KT 40SM 04/M06 A3002 RMK AO1 T00441055






000
SXUS55 KMSO 200843
OSOMSO
MONTANA AWOS SUMMARY
NATIONAL WEATHER SERVICE MISSOULA MT
143 AM MST MON APR 20 2015

Montana AWOS Reports

LAUREL      |K6S8 200835Z AUTO 30005KT 40SM 00/M08 A3002 RMK AO1 T00001077
TWIN BRIDGES|K7S1 200835Z AUTO 34009KT 40SM 04/M06 A3002 RMK AO1 T00441055






000
SXUS55 KMSO 200823
OSOMSO
MONTANA AWOS SUMMARY
NATIONAL WEATHER SERVICE MISSOULA MT
123 AM MST MON APR 20 2015

Montana AWOS Reports

LAUREL      |K6S8 200815Z AUTO 30004KT 40SM 02/M07 A3002 RMK AO1 T00171066
TWIN BRIDGES|K7S1 200815Z AUTO 36010KT 40SM 04/M06 A3002 RMK AO1 T00441060
ROUNDUP     |KRPX 200815Z AUTO 00000KT 40SM M01/M10 A2996 RMK AO1 T10101099
MALTA       |KM75 200815Z AUTO 00000KT 40SM M03/M08 A3000 RMK AO1 T10271077






000
SXUS55 KMSO 200823
OSOMSO
MONTANA AWOS SUMMARY
NATIONAL WEATHER SERVICE MISSOULA MT
123 AM MST MON APR 20 2015

Montana AWOS Reports

LAUREL      |K6S8 200815Z AUTO 30004KT 40SM 02/M07 A3002 RMK AO1 T00171066
TWIN BRIDGES|K7S1 200815Z AUTO 36010KT 40SM 04/M06 A3002 RMK AO1 T00441060
ROUNDUP     |KRPX 200815Z AUTO 00000KT 40SM M01/M10 A2996 RMK AO1 T10101099
MALTA       |KM75 200815Z AUTO 00000KT 40SM M03/M08 A3000 RMK AO1 T10271077






000
SXUS55 KMSO 200813
OSOMSO
MONTANA AWOS SUMMARY
NATIONAL WEATHER SERVICE MISSOULA MT
112 AM MST MON APR 20 2015

Montana AWOS Reports

SCOBEY      |K9S2 200755Z AUTO 00000KT 40SM M03/M11 A2997 RMK AO1 T10321105
MALTA       |KM75 200755Z AUTO 00000KT 40SM M03/M07 A3001 RMK AO1 T10271071
EKALAKA     |K97M 200755Z AUTO 28004KT 40SM M02/M10 A2996 RMK AO1 T10161099






000
SXUS55 KMSO 200804
OSOMSO
MONTANA AWOS SUMMARY
NATIONAL WEATHER SERVICE MISSOULA MT
103 AM MST MON APR 20 2015

Montana AWOS Reports

TWIN BRIDGES|K7S1 200755Z AUTO 36009KT 40SM 04/M06 A3002 RMK AO1 T00441060
LAUREL      |K6S8 200755Z AUTO 30004KT 40SM 02/M07 A3003 RMK AO1 T00171071
ROUNDUP     |KRPX 200755Z AUTO 00000KT 40SM 00/M10 A2996 RMK AO1 T00001099






000
SXUS55 KMSO 200743
OSOMSO
MONTANA AWOS SUMMARY
NATIONAL WEATHER SERVICE MISSOULA MT
1243 AM MST MON APR 20 2015

Montana AWOS Reports

LAUREL      |K6S8 200735Z AUTO 00000KT 40SM 05/M08 A3003 RMK AO1 T00501077
TWIN BRIDGES|K7S1 200735Z AUTO 36010KT 40SM 05/M06 A3002 RMK AO1 T00501055
MALTA       |KM75 200735Z AUTO 00000KT 40SM M03/M08 A3001 RMK AO1 T10321082
ROUNDUP     |KRPX 200735Z AUTO 24004KT 40SM 00/M10 A2997 RMK AO1 T00001099






000
SXUS55 KMSO 200743
OSOMSO
MONTANA AWOS SUMMARY
NATIONAL WEATHER SERVICE MISSOULA MT
1243 AM MST MON APR 20 2015

Montana AWOS Reports

LAUREL      |K6S8 200735Z AUTO 00000KT 40SM 05/M08 A3003 RMK AO1 T00501077
TWIN BRIDGES|K7S1 200735Z AUTO 36010KT 40SM 05/M06 A3002 RMK AO1 T00501055
MALTA       |KM75 200735Z AUTO 00000KT 40SM M03/M08 A3001 RMK AO1 T10321082
ROUNDUP     |KRPX 200735Z AUTO 24004KT 40SM 00/M10 A2997 RMK AO1 T00001099






000
SXUS55 KMSO 200724
OSOMSO
MONTANA AWOS SUMMARY
NATIONAL WEATHER SERVICE MISSOULA MT
1223 AM MST MON APR 20 2015

Montana AWOS Reports

LAUREL      |K6S8 200715Z AUTO 00000KT 40SM 06/M08 A3004 RMK AO1 T00561077
TWIN BRIDGES|K7S1 200715Z AUTO 36009G13KT 40SM 05/M06 A3002 RMK AO1 T00501055
ROUNDUP     |KRPX 200715Z AUTO 23004KT 40SM 00/M09 A2997 RMK AO1 T00001093
MALTA       |KM75 200715Z AUTO 00000KT 40SM M03/M08 A3001 RMK AO1 T10271077






000
SXUS55 KMSO 200724
OSOMSO
MONTANA AWOS SUMMARY
NATIONAL WEATHER SERVICE MISSOULA MT
1223 AM MST MON APR 20 2015

Montana AWOS Reports

LAUREL      |K6S8 200715Z AUTO 00000KT 40SM 06/M08 A3004 RMK AO1 T00561077
TWIN BRIDGES|K7S1 200715Z AUTO 36009G13KT 40SM 05/M06 A3002 RMK AO1 T00501055
ROUNDUP     |KRPX 200715Z AUTO 23004KT 40SM 00/M09 A2997 RMK AO1 T00001093
MALTA       |KM75 200715Z AUTO 00000KT 40SM M03/M08 A3001 RMK AO1 T10271077






000
SXUS55 KMSO 200713
OSOMSO
MONTANA AWOS SUMMARY
NATIONAL WEATHER SERVICE MISSOULA MT
1213 AM MST MON APR 20 2015

Montana AWOS Reports

SCOBEY      |K9S2 200655Z AUTO 00000KT 40SM M03/M12 A2998 RMK AO1 T10321116
MALTA       |KM75 200655Z AUTO 00000KT 40SM M03/M08 A3001 RMK AO1 T10271082
EKALAKA     |K97M 200655Z AUTO 00000KT 40SM M01/M09 A2997 RMK AO1 T10101093






000
SXUS55 KMSO 200703
OSOMSO
MONTANA AWOS SUMMARY
NATIONAL WEATHER SERVICE MISSOULA MT
1203 AM MST MON APR 20 2015

Montana AWOS Reports

ROUNDUP     |KRPX 200655Z AUTO 00000KT 40SM 00/M10 A2997 RMK AO1 T00001099
LAUREL      |K6S8 200655Z AUTO 00000KT 40SM 06/M08 A3004 RMK AO1 T00561077
TWIN BRIDGES|K7S1 200655Z AUTO 01009KT 40SM 05/M06 A3002 RMK AO1 T00501055






000
SXUS55 KMSO 200644
OSOMSO
MONTANA AWOS SUMMARY
NATIONAL WEATHER SERVICE MISSOULA MT
1143 PM MST SUN APR 19 2015

Montana AWOS Reports

LAUREL      |K6S8 200635Z AUTO 00000KT 40SM 06/M07 A3005 RMK AO1 T00561066
MALTA       |KM75 200635Z AUTO 00000KT 40SM M01/M08 A3001 RMK AO1 T10101077
TWIN BRIDGES|K7S1 200635Z AUTO 36009KT 40SM 06/M06 A3002 RMK AO1 T00561060
ROUNDUP     |KRPX 200635Z AUTO 27004KT 40SM 00/M11 A2998 RMK AO1 T00001105






000
SXUS55 KMSO 200623
OSOMSO
MONTANA AWOS SUMMARY
NATIONAL WEATHER SERVICE MISSOULA MT
1123 PM MST SUN APR 19 2015

Montana AWOS Reports

MALTA       |KM75 200615Z AUTO 00000KT 40SM M01/M07 A3002 RMK AO1 T10051071
LAUREL      |K6S8 200615Z AUTO 00000KT 40SM 06/M07 A3005 RMK AO1 T00561066
TWIN BRIDGES|K7S1 200615Z AUTO 36008KT 40SM 06/M06 A3002 RMK AO1 T00561060
ROUNDUP     |KRPX 200615Z AUTO 00000KT 40SM 01/M09 A2998 RMK AO1 T00061093






000
SXUS55 KMSO 200623
OSOMSO
MONTANA AWOS SUMMARY
NATIONAL WEATHER SERVICE MISSOULA MT
1123 PM MST SUN APR 19 2015

Montana AWOS Reports

MALTA       |KM75 200615Z AUTO 00000KT 40SM M01/M07 A3002 RMK AO1 T10051071
LAUREL      |K6S8 200615Z AUTO 00000KT 40SM 06/M07 A3005 RMK AO1 T00561066
TWIN BRIDGES|K7S1 200615Z AUTO 36008KT 40SM 06/M06 A3002 RMK AO1 T00561060
ROUNDUP     |KRPX 200615Z AUTO 00000KT 40SM 01/M09 A2998 RMK AO1 T00061093






000
SXUS55 KMSO 200613
OSOMSO
MONTANA AWOS SUMMARY
NATIONAL WEATHER SERVICE MISSOULA MT
1112 PM MST SUN APR 19 2015

Montana AWOS Reports

EKALAKA     |K97M 200555Z AUTO 25005KT 40SM 01/M09 A2998 RMK AO1 T00061093
SCOBEY      |K9S2 200555Z AUTO 00000KT 40SM M03/M12 A2999 RMK AO1 T10271121






000
SXUS55 KMSO 200613
OSOMSO
MONTANA AWOS SUMMARY
NATIONAL WEATHER SERVICE MISSOULA MT
1112 PM MST SUN APR 19 2015

Montana AWOS Reports

EKALAKA     |K97M 200555Z AUTO 25005KT 40SM 01/M09 A2998 RMK AO1 T00061093
SCOBEY      |K9S2 200555Z AUTO 00000KT 40SM M03/M12 A2999 RMK AO1 T10271121






000
SXUS55 KMSO 200603
OSOMSO
MONTANA AWOS SUMMARY
NATIONAL WEATHER SERVICE MISSOULA MT
1103 PM MST SUN APR 19 2015

Montana AWOS Reports

LAUREL      |K6S8 200555Z AUTO 00000KT 40SM 06/M07 A3005 RMK AO1 T00561066
TWIN BRIDGES|K7S1 200555Z AUTO 01008KT 40SM 06/M06 A3002 RMK AO1 T00561060
ROUNDUP     |KRPX 200555Z AUTO 00000KT 40SM 00/M10 A2998 RMK AO1 T00001099
MALTA       |KM75 200555Z AUTO 00000KT 40SM 01/M07 A3002 RMK AO1 T00061066






000
SXUS55 KMSO 200603
OSOMSO
MONTANA AWOS SUMMARY
NATIONAL WEATHER SERVICE MISSOULA MT
1103 PM MST SUN APR 19 2015

Montana AWOS Reports

LAUREL      |K6S8 200555Z AUTO 00000KT 40SM 06/M07 A3005 RMK AO1 T00561066
TWIN BRIDGES|K7S1 200555Z AUTO 01008KT 40SM 06/M06 A3002 RMK AO1 T00561060
ROUNDUP     |KRPX 200555Z AUTO 00000KT 40SM 00/M10 A2998 RMK AO1 T00001099
MALTA       |KM75 200555Z AUTO 00000KT 40SM 01/M07 A3002 RMK AO1 T00061066






000
SXUS55 KMSO 200543
OSOMSO
MONTANA AWOS SUMMARY
NATIONAL WEATHER SERVICE MISSOULA MT
1043 PM MST SUN APR 19 2015

Montana AWOS Reports

LAUREL      |K6S8 200535Z AUTO 00000KT 40SM 06/M07 A3005 RMK AO1 T00561066
TWIN BRIDGES|K7S1 200535Z AUTO 01007KT 40SM 06/M06 A3002 RMK AO1 T00561060
ROUNDUP     |KRPX 200535Z AUTO 00000KT 40SM 01/M10 A2998 RMK AO1 T00061099
MALTA       |KM75 200535Z AUTO 00000KT 40SM 01/M07 A3002 RMK AO1 T00111071






000
SXUS55 KMSO 200523
OSOMSO
MONTANA AWOS SUMMARY
NATIONAL WEATHER SERVICE MISSOULA MT
1022 PM MST SUN APR 19 2015

Montana AWOS Reports

LAUREL      |K6S8 200515Z AUTO 00000KT 40SM 06/M07 A3006 RMK AO1 T00611071
TWIN BRIDGES|K7S1 200515Z AUTO 01008KT 40SM 06/M06 A3002 RMK AO1 T00611055
ROUNDUP     |KRPX 200515Z AUTO 00000KT 40SM 02/M10 A2999 RMK AO1 T00171099
MALTA       |KM75 200515Z AUTO 00000KT 40SM 02/M07 A3003 RMK AO1 T00221066






000
SXUS55 KMSO 200523
OSOMSO
MONTANA AWOS SUMMARY
NATIONAL WEATHER SERVICE MISSOULA MT
1022 PM MST SUN APR 19 2015

Montana AWOS Reports

LAUREL      |K6S8 200515Z AUTO 00000KT 40SM 06/M07 A3006 RMK AO1 T00611071
TWIN BRIDGES|K7S1 200515Z AUTO 01008KT 40SM 06/M06 A3002 RMK AO1 T00611055
ROUNDUP     |KRPX 200515Z AUTO 00000KT 40SM 02/M10 A2999 RMK AO1 T00171099
MALTA       |KM75 200515Z AUTO 00000KT 40SM 02/M07 A3003 RMK AO1 T00221066






000
SXUS55 KMSO 200513
OSOMSO
MONTANA AWOS SUMMARY
NATIONAL WEATHER SERVICE MISSOULA MT
1013 PM MST SUN APR 19 2015

Montana AWOS Reports

SCOBEY      |K9S2 200455Z AUTO 00000KT 40SM M01/M12 A2999 RMK AO1 T10051116






000
SXUS55 KMSO 200513
OSOMSO
MONTANA AWOS SUMMARY
NATIONAL WEATHER SERVICE MISSOULA MT
1013 PM MST SUN APR 19 2015

Montana AWOS Reports

SCOBEY      |K9S2 200455Z AUTO 00000KT 40SM M01/M12 A2999 RMK AO1 T10051116






000
SXUS55 KMSO 200503
OSOMSO
MONTANA AWOS SUMMARY
NATIONAL WEATHER SERVICE MISSOULA MT
1003 PM MST SUN APR 19 2015

Montana AWOS Reports

MALTA       |KM75 200455Z AUTO 00000KT 40SM 02/M07 A3003 RMK AO1 T00221071
LAUREL      |K6S8 200455Z AUTO 00000KT 40SM 07/M07 A3006 RMK AO1 T00671071
TWIN BRIDGES|K7S1 200455Z AUTO 36010KT 40SM 06/M06 A3002 RMK AO1 T00611060
ROUNDUP     |KRPX 200455Z AUTO 00000KT 40SM 01/M11 A2999 RMK AO1 T00111105
EKALAKA     |K97M 200455Z AUTO 26005KT 40SM 01/M09 A2999 RMK AO1 T00061093






000
SXUS55 KMSO 200503
OSOMSO
MONTANA AWOS SUMMARY
NATIONAL WEATHER SERVICE MISSOULA MT
1003 PM MST SUN APR 19 2015

Montana AWOS Reports

MALTA       |KM75 200455Z AUTO 00000KT 40SM 02/M07 A3003 RMK AO1 T00221071
LAUREL      |K6S8 200455Z AUTO 00000KT 40SM 07/M07 A3006 RMK AO1 T00671071
TWIN BRIDGES|K7S1 200455Z AUTO 36010KT 40SM 06/M06 A3002 RMK AO1 T00611060
ROUNDUP     |KRPX 200455Z AUTO 00000KT 40SM 01/M11 A2999 RMK AO1 T00111105
EKALAKA     |K97M 200455Z AUTO 26005KT 40SM 01/M09 A2999 RMK AO1 T00061093






000
SXUS55 KMSO 200444
OSOMSO
MONTANA AWOS SUMMARY
NATIONAL WEATHER SERVICE MISSOULA MT
943 PM MST SUN APR 19 2015

Montana AWOS Reports

LAUREL      |K6S8 200435Z AUTO 00000KT 40SM 07/M08 A3007 RMK AO1 T00671082
TWIN BRIDGES|K7S1 200435Z AUTO 01008KT 40SM 07/M06 A3002 RMK AO1 T00721055
ROUNDUP     |KRPX 200435Z AUTO 00000KT 40SM 04/M11 A2999 RMK AO1 T00441105
MALTA       |KM75 200435Z AUTO 32005KT 40SM 04/M06 A3003 RMK AO1 T00441060






000
SXUS55 KMSO 200433
OSOMSO
MONTANA AWOS SUMMARY
NATIONAL WEATHER SERVICE MISSOULA MT
933 PM MST SUN APR 19 2015

Montana AWOS Reports

SCOBEY      |K9S2 200355Z AUTO 00000KT 40SM 00/M12 A3000 RMK AO1 T00001121






000
SXUS55 KMSO 200423
OSOMSO
MONTANA AWOS SUMMARY
NATIONAL WEATHER SERVICE MISSOULA MT
923 PM MST SUN APR 19 2015

Montana AWOS Reports

LAUREL      |K6S8 200415Z AUTO 00000KT 40SM 08/M08 A3007 RMK AO1 T00781077
TWIN BRIDGES|K7S1 200415Z AUTO 01010G18KT 40SM 07/M06 A3002 RMK AO1 T00721060
ROUNDUP     |KRPX 200415Z AUTO 40SM 06/M10 A3000 RMK AO1 T00561099
MALTA       |KM75 200415Z AUTO 32006KT 40SM 04/M07 A3003 RMK AO1 T00441066






000
SXUS55 KMSO 200423
OSOMSO
MONTANA AWOS SUMMARY
NATIONAL WEATHER SERVICE MISSOULA MT
923 PM MST SUN APR 19 2015

Montana AWOS Reports

LAUREL      |K6S8 200415Z AUTO 00000KT 40SM 08/M08 A3007 RMK AO1 T00781077
TWIN BRIDGES|K7S1 200415Z AUTO 01010G18KT 40SM 07/M06 A3002 RMK AO1 T00721060
ROUNDUP     |KRPX 200415Z AUTO 40SM 06/M10 A3000 RMK AO1 T00561099
MALTA       |KM75 200415Z AUTO 32006KT 40SM 04/M07 A3003 RMK AO1 T00441066






000
SXUS55 KMSO 200413
OSOMSO
MONTANA AWOS SUMMARY
NATIONAL WEATHER SERVICE MISSOULA MT
912 PM MST SUN APR 19 2015

Montana AWOS Reports

LAUREL      |K6S8 200355Z AUTO 00000KT 40SM 07/M08 A3007 RMK AO1 T00721082
TWIN BRIDGES|K7S1 200355Z AUTO 36008KT 40SM 07/M06 A3001 RMK AO1 T00721055
ROUNDUP     |KRPX 200355Z AUTO 40SM 06/M11 A3000 RMK AO1 T00561105






000
SXUS55 KMSO 200403
OSOMSO
MONTANA AWOS SUMMARY
NATIONAL WEATHER SERVICE MISSOULA MT
902 PM MST SUN APR 19 2015

Montana AWOS Reports

MALTA       |KM75 200355Z AUTO 32005KT 40SM 05/M07 A3004 RMK AO1 T00501066






000
SXUS55 KMSO 200343
OSOMSO
MONTANA AWOS SUMMARY
NATIONAL WEATHER SERVICE MISSOULA MT
843 PM MST SUN APR 19 2015

Montana AWOS Reports

LAUREL      |K6S8 200335Z AUTO 00000KT 40SM 08/M08 A3007 RMK AO1 T00781077
TWIN BRIDGES|K7S1 200335Z AUTO 33009KT 15SM 08/M06 A3001 RMK AO1 T00781055
ROUNDUP     |KRPX 200335Z AUTO 40SM 05/M11 A3000 RMK AO1 T00501105
MALTA       |KM75 200335Z AUTO 32007KT 40SM 05/M07 A3004 RMK AO1 T00501066






000
SXUS55 KMSO 200323
OSOMSO
MONTANA AWOS SUMMARY
NATIONAL WEATHER SERVICE MISSOULA MT
823 PM MST SUN APR 19 2015

Montana AWOS Reports

LAUREL      |K6S8 200315Z AUTO 00000KT 40SM 07/M08 A3007 RMK AO1 T00721082
TWIN BRIDGES|K7S1 200315Z AUTO 34009KT 25SM 08/M06 A3001 RMK AO1 T00781060
ROUNDUP     |KRPX 200315Z AUTO 40SM 05/M11 A3000 RMK AO1 T00501105
MALTA       |KM75 200315Z AUTO 32005KT 40SM 06/M07 A3004 RMK AO1 T00561066






000
SXUS55 KMSO 200313
OSOMSO
MONTANA AWOS SUMMARY
NATIONAL WEATHER SERVICE MISSOULA MT
813 PM MST SUN APR 19 2015

Montana AWOS Reports

EKALAKA     |K97M 200255Z AUTO 29007KT 40SM 03/M09 A3000 RMK AO1 T00281093






000
SXUS55 KMSO 200303
OSOMSO
MONTANA AWOS SUMMARY
NATIONAL WEATHER SERVICE MISSOULA MT
803 PM MST SUN APR 19 2015

Montana AWOS Reports

MALTA       |KM75 200255Z AUTO 32004KT 40SM 06/M07 A3005 RMK AO1 T00611071
SCOBEY      |K9S2 200255Z AUTO 00000KT 25SM 02/M12 A3001 RMK AO1 T00221121
LAUREL      |K6S8 200255Z AUTO 00000KT 40SM 07/M08 A3007 RMK AO1 T00721082
TWIN BRIDGES|K7S1 200255Z AUTO 34008KT 10SM 09/M06 A3001 RMK AO1 T00891055
ROUNDUP     |KRPX 200255Z AUTO 40SM 06/M11 A3000 RMK AO1 T00561105






000
SXUS55 KMSO 200303
OSOMSO
MONTANA AWOS SUMMARY
NATIONAL WEATHER SERVICE MISSOULA MT
803 PM MST SUN APR 19 2015

Montana AWOS Reports

MALTA       |KM75 200255Z AUTO 32004KT 40SM 06/M07 A3005 RMK AO1 T00611071
SCOBEY      |K9S2 200255Z AUTO 00000KT 25SM 02/M12 A3001 RMK AO1 T00221121
LAUREL      |K6S8 200255Z AUTO 00000KT 40SM 07/M08 A3007 RMK AO1 T00721082
TWIN BRIDGES|K7S1 200255Z AUTO 34008KT 10SM 09/M06 A3001 RMK AO1 T00891055
ROUNDUP     |KRPX 200255Z AUTO 40SM 06/M11 A3000 RMK AO1 T00561105






000
SXUS55 KMSO 200244
OSOMSO
MONTANA AWOS SUMMARY
NATIONAL WEATHER SERVICE MISSOULA MT
743 PM MST SUN APR 19 2015

Montana AWOS Reports

TWIN BRIDGES|K7S1 200235Z AUTO 32008KT 2SM 09/M06 A3000 RMK AO1 T00941060
MALTA       |KM75 200235Z AUTO 00000KT 40SM 07/M07 A3004 RMK AO1 T00721066
LAUREL      |K6S8 200235Z AUTO 00000KT 40SM 07/M08 A3006 RMK AO1 T00721077
ROUNDUP     |KRPX 200235Z AUTO 40SM 06/M11 A3000 RMK AO1 T00611110






000
SXUS55 KMSO 200223
OSOMSO
MONTANA AWOS SUMMARY
NATIONAL WEATHER SERVICE MISSOULA MT
723 PM MST SUN APR 19 2015

Montana AWOS Reports

LAUREL      |K6S8 200215Z AUTO 00000KT 40SM 08/M08 A3006 RMK AO1 T00781077
TWIN BRIDGES|K7S1 200215Z AUTO 33010G15KT 5SM 10/M07 A2999 RMK AO1 T01001066
ROUNDUP     |KRPX 200215Z AUTO 40SM 07/M11 A3000 RMK AO1 T00671110
MALTA       |KM75 200215Z AUTO 00000KT 40SM 08/M07 A3004 RMK AO1 T00781066






000
SXUS55 KMSO 200223
OSOMSO
MONTANA AWOS SUMMARY
NATIONAL WEATHER SERVICE MISSOULA MT
723 PM MST SUN APR 19 2015

Montana AWOS Reports

LAUREL      |K6S8 200215Z AUTO 00000KT 40SM 08/M08 A3006 RMK AO1 T00781077
TWIN BRIDGES|K7S1 200215Z AUTO 33010G15KT 5SM 10/M07 A2999 RMK AO1 T01001066
ROUNDUP     |KRPX 200215Z AUTO 40SM 07/M11 A3000 RMK AO1 T00671110
MALTA       |KM75 200215Z AUTO 00000KT 40SM 08/M07 A3004 RMK AO1 T00781066






000
SXUS55 KMSO 200213
OSOMSO
MONTANA AWOS SUMMARY
NATIONAL WEATHER SERVICE MISSOULA MT
712 PM MST SUN APR 19 2015

Montana AWOS Reports

SCOBEY      |K9S2 200155Z AUTO 34006KT 25SM 06/M12 A3001 RMK AO1 T00611116
EKALAKA     |K97M 200155Z AUTO 29011KT 40SM 05/M10 A3000 RMK AO1 T00501099






000
SXUS55 KMSO 200204
OSOMSO
MONTANA AWOS SUMMARY
NATIONAL WEATHER SERVICE MISSOULA MT
703 PM MST SUN APR 19 2015

Montana AWOS Reports

LAUREL      |K6S8 200155Z AUTO 00000KT 40SM 08/M08 A3006 RMK AO1 T00831082
TWIN BRIDGES|K7S1 200155Z AUTO 33012G16KT 5SM 11/M07 A2999 RMK AO1 T01111071
ROUNDUP     |KRPX 200155Z AUTO 00000KT 40SM 08/M10 A3000 RMK AO1 T00831099
MALTA       |KM75 200155Z AUTO 31004KT 40SM 09/M07 A3005 RMK AO1 T00891066






000
SXUS55 KMSO 200153
OSOMSO
MONTANA AWOS SUMMARY
NATIONAL WEATHER SERVICE MISSOULA MT
653 PM MST SUN APR 19 2015

Montana AWOS Reports

TWIN BRIDGES|K7S1 200135Z AUTO 34010G15KT 5SM 11/M07 A3000 RMK AO1 T01111071






000
SXUS55 KMSO 200143
OSOMSO
MONTANA AWOS SUMMARY
NATIONAL WEATHER SERVICE MISSOULA MT
643 PM MST SUN APR 19 2015

Montana AWOS Reports

LAUREL      |K6S8 200135Z AUTO 03005KT 40SM 09/M09 A3006 RMK AO1 T00891088
ROUNDUP     |KRPX 200135Z AUTO 34008KT 40SM 09/M11 A3000 RMK AO1 T00891110
MALTA       |KM75 200135Z AUTO 30005KT 40SM 09/M07 A3005 RMK AO1 T00941066






000
SXUS55 KMSO 200124
OSOMSO
MONTANA AWOS SUMMARY
NATIONAL WEATHER SERVICE MISSOULA MT
623 PM MST SUN APR 19 2015

Montana AWOS Reports

LAUREL      |K6S8 200115Z AUTO 01005KT 40SM 10/M08 A3006 RMK AO1 T01001082
TWIN BRIDGES|K7S1 200115Z AUTO 33013G18KT 7SM 12/M07 A3000 RMK AO1 T01221066
ROUNDUP     |KRPX 200115Z AUTO 34007KT 40SM 09/M11 A3000 RMK AO1 T00941105
MALTA       |KM75 200115Z AUTO 29008KT 40SM 11/M07 A3005 RMK AO1 T01061071






000
SXUS55 KMSO 200113
OSOMSO
MONTANA AWOS SUMMARY
NATIONAL WEATHER SERVICE MISSOULA MT
613 PM MST SUN APR 19 2015

Montana AWOS Reports

SCOBEY      |K9S2 200055Z AUTO 34014G20KT 40SM 09/M12 A3001 RMK AO1 T00891121






000
SXUS55 KMSO 200113
OSOMSO
MONTANA AWOS SUMMARY
NATIONAL WEATHER SERVICE MISSOULA MT
613 PM MST SUN APR 19 2015

Montana AWOS Reports

SCOBEY      |K9S2 200055Z AUTO 34014G20KT 40SM 09/M12 A3001 RMK AO1 T00891121






000
SXUS55 KMSO 200103
OSOMSO
MONTANA AWOS SUMMARY
NATIONAL WEATHER SERVICE MISSOULA MT
603 PM MST SUN APR 19 2015

Montana AWOS Reports

LAUREL      |K6S8 200055Z AUTO 00000KT 40SM 10/M08 A3007 RMK AO1 T01001082
TWIN BRIDGES|K7S1 200055Z AUTO 34012G17KT 5SM 12/M07 A3000 RMK AO1 T01221066
ROUNDUP     |KRPX 200055Z AUTO 34009G14KT 40SM 11/M09 A2999 RMK AO1 T01061093
MALTA       |KM75 200055Z AUTO 30008KT 40SM 11/M07 A3005 RMK AO1 T01111071
EKALAKA     |K97M 200055Z AUTO 30014G19KT 40SM 07/M11 A3000 RMK AO1 T00671105






000
SXUS55 KMSO 200044
OSOMSO
MONTANA AWOS SUMMARY
NATIONAL WEATHER SERVICE MISSOULA MT
543 PM MST SUN APR 19 2015

Montana AWOS Reports

MALTA       |KM75 200035Z AUTO 33008KT 40SM 11/M07 A3005 RMK AO1 T01111071
LAUREL      |K6S8 200035Z AUTO 00000KT 40SM 11/M09 A3007 RMK AO1 T01061093
TWIN BRIDGES|K7S1 200035Z AUTO 34010G15KT 5SM 13/M06 A3000 RMK AO1 T01331060
ROUNDUP     |KRPX 200035Z AUTO 33006KT 40SM 11/M09 A3000 RMK AO1 T01061093






000
SXUS55 KMSO 200044
OSOMSO
MONTANA AWOS SUMMARY
NATIONAL WEATHER SERVICE MISSOULA MT
543 PM MST SUN APR 19 2015

Montana AWOS Reports

MALTA       |KM75 200035Z AUTO 33008KT 40SM 11/M07 A3005 RMK AO1 T01111071
LAUREL      |K6S8 200035Z AUTO 00000KT 40SM 11/M09 A3007 RMK AO1 T01061093
TWIN BRIDGES|K7S1 200035Z AUTO 34010G15KT 5SM 13/M06 A3000 RMK AO1 T01331060
ROUNDUP     |KRPX 200035Z AUTO 33006KT 40SM 11/M09 A3000 RMK AO1 T01061093






000
SXUS55 KMSO 200023
OSOMSO
MONTANA AWOS SUMMARY
NATIONAL WEATHER SERVICE MISSOULA MT
523 PM MST SUN APR 19 2015

Montana AWOS Reports

LAUREL      |K6S8 200015Z AUTO 00000KT 40SM 11/M09 A3007 RMK AO1 T01061093
TWIN BRIDGES|K7S1 200015Z AUTO 34012G16KT 15SM 14/M07 A3000 RMK AO1 T01391066
ROUNDUP     |KRPX 200015Z AUTO 34009G15KT 40SM 11/M10 A3000 RMK AO1 T01061099
MALTA       |KM75 200015Z AUTO 32010G15KT 40SM 12/M07 A3005 RMK AO1 T01171071






000
SXUS55 KMSO 200014
OSOMSO
MONTANA AWOS SUMMARY
NATIONAL WEATHER SERVICE MISSOULA MT
513 PM MST SUN APR 19 2015

Montana AWOS Reports

SCOBEY      |K9S2 192355Z AUTO 32022G29KT 40SM 10/M12 A3002 RMK AO1 T01001116






000
SXUS55 KMSO 200003
OSOMSO
MONTANA AWOS SUMMARY
NATIONAL WEATHER SERVICE MISSOULA MT
503 PM MST SUN APR 19 2015

Montana AWOS Reports

MALTA       |KM75 192355Z AUTO 29011KT 40SM 12/M07 A3006 RMK AO1 T01171071
LAUREL      |K6S8 192355Z AUTO 32006KT 40SM 11/M09 A3007 RMK AO1 T01111088
TWIN BRIDGES|K7S1 192355Z AUTO 34012G17KT 7SM 14/M07 A3000 RMK AO1 T01391066
ROUNDUP     |KRPX 192355Z AUTO 35009G16KT 40SM 11/M10 A3000 RMK AO1 T01061099






000
SXUS55 KMSO 200003
OSOMSO
MONTANA AWOS SUMMARY
NATIONAL WEATHER SERVICE MISSOULA MT
503 PM MST SUN APR 19 2015

Montana AWOS Reports

MALTA       |KM75 192355Z AUTO 29011KT 40SM 12/M07 A3006 RMK AO1 T01171071
LAUREL      |K6S8 192355Z AUTO 32006KT 40SM 11/M09 A3007 RMK AO1 T01111088
TWIN BRIDGES|K7S1 192355Z AUTO 34012G17KT 7SM 14/M07 A3000 RMK AO1 T01391066
ROUNDUP     |KRPX 192355Z AUTO 35009G16KT 40SM 11/M10 A3000 RMK AO1 T01061099






000
SXUS55 KMSO 192343
OSOMSO
MONTANA AWOS SUMMARY
NATIONAL WEATHER SERVICE MISSOULA MT
442 PM MST SUN APR 19 2015

Montana AWOS Reports

MALTA       |KM75 192335Z AUTO 30008KT 40SM 11/M07 A3007 RMK AO1 T01111071
LAUREL      |K6S8 192335Z AUTO 01004KT 40SM 12/M08 A3008 RMK AO1 T01171082
TWIN BRIDGES|K7S1 192335Z AUTO 34007KT 15SM 15/M06 A3001 RMK AO1 T01501055
ROUNDUP     |KRPX 192335Z AUTO 33007KT 260V040 40SM 11/M09 A3001 RMK AO1 T01111088






000
SXUS55 KMSO 192323
OSOMSO
MONTANA AWOS SUMMARY
NATIONAL WEATHER SERVICE MISSOULA MT
423 PM MST SUN APR 19 2015

Montana AWOS Reports

LAUREL      |K6S8 192315Z AUTO 00000KT 40SM 11/M09 A3008 RMK AO1 T01111088
TWIN BRIDGES|K7S1 192315Z AUTO 34005KT 15SM 14/M06 A3001 RMK AO1 T01441060
ROUNDUP     |KRPX 192315Z AUTO 34010G16KT 40SM 11/M09 A3001 RMK AO1 T01111093
MALTA       |KM75 192315Z AUTO 29009G15KT 40SM 11/M07 A3007 RMK AO1 T01111071






000
SXUS55 KMSO 192313
OSOMSO
MONTANA AWOS SUMMARY
NATIONAL WEATHER SERVICE MISSOULA MT
412 PM MST SUN APR 19 2015

Montana AWOS Reports

SCOBEY      |K9S2 192255Z AUTO 31020G26KT 40SM 11/M11 A3001 RMK AO1 T01061110
EKALAKA     |K97M 192255Z AUTO 30016G21KT 40SM 08/M11 A3000 RMK AO1 T00781105






000
SXUS55 KMSO 192313
OSOMSO
MONTANA AWOS SUMMARY
NATIONAL WEATHER SERVICE MISSOULA MT
412 PM MST SUN APR 19 2015

Montana AWOS Reports

SCOBEY      |K9S2 192255Z AUTO 31020G26KT 40SM 11/M11 A3001 RMK AO1 T01061110
EKALAKA     |K97M 192255Z AUTO 30016G21KT 40SM 08/M11 A3000 RMK AO1 T00781105






000
SXUS55 KMSO 192303
OSOMSO
MONTANA AWOS SUMMARY
NATIONAL WEATHER SERVICE MISSOULA MT
403 PM MST SUN APR 19 2015

Montana AWOS Reports

TWIN BRIDGES|K7S1 192255Z AUTO 35009G16KT 40SM 15/M06 A3001 RMK AO1 T01501055
ROUNDUP     |KRPX 192255Z AUTO 34009G17KT 40SM 11/M10 A3001 RMK AO1 T01111099
MALTA       |KM75 192255Z AUTO 34010G15KT 40SM 12/M07 A3007 RMK AO1 T01221066
LAUREL      |K6S8 192255Z AUTO 35004KT 40SM 11/M10 A3008 RMK AO1 T01111099






000
SXUS55 KMSO 192243
OSOMSO
MONTANA AWOS SUMMARY
NATIONAL WEATHER SERVICE MISSOULA MT
343 PM MST SUN APR 19 2015

Montana AWOS Reports

MALTA       |KM75 192235Z AUTO 34010KT 40SM 11/M07 A3007 RMK AO1 T01111071
LAUREL      |K6S8 192235Z AUTO 29004KT 40SM 12/M09 A3008 RMK AO1 T01171088
TWIN BRIDGES|K7S1 192235Z AUTO 33008KT 40SM 14/M06 A3002 RMK AO1 T01441060
ROUNDUP     |KRPX 192235Z AUTO 33013G20KT 40SM 11/M11 A3002 RMK AO1 T01111105






000
SXUS55 KMSO 192223
OSOMSO
MONTANA AWOS SUMMARY
NATIONAL WEATHER SERVICE MISSOULA MT
323 PM MST SUN APR 19 2015

Montana AWOS Reports

MALTA       |KM75 192215Z AUTO 31012G16KT 40SM 12/M07 A3008 RMK AO1 T01171071
LAUREL      |K6S8 192215Z AUTO 33009G13KT 40SM 12/M08 A3008 RMK AO1 T01221082
TWIN BRIDGES|K7S1 192215Z AUTO 35009G16KT 40SM 15/M06 A3002 RMK AO1 T01501055
ROUNDUP     |KRPX 192215Z AUTO 34010G18KT 40SM 12/M10 A3002 RMK AO1 T01171099






000
SXUS55 KMSO 192203
OSOMSO
MONTANA AWOS SUMMARY
NATIONAL WEATHER SERVICE MISSOULA MT
303 PM MST SUN APR 19 2015

Montana AWOS Reports

SCOBEY      |K9S2 192155Z AUTO 35023G31KT 40SM 11/M11 A3001 RMK AO1 T01061110
TWIN BRIDGES|K7S1 192155Z AUTO 28004KT 40SM 14/M06 A3003 RMK AO1 T01441060
ROUNDUP     |KRPX 192155Z AUTO 34009G18KT 40SM 12/M10 A3002 RMK AO1 T01171099
MALTA       |KM75 192155Z AUTO 34010G16KT 40SM 11/M07 A3008 RMK AO1 T01111071
LAUREL      |K6S8 192155Z AUTO 00000KT 40SM 11/M09 A3009 RMK AO1 T01111088
EKALAKA     |K97M 192155Z AUTO 31018G22KT 40SM 08/M08 A3000 RMK AO1 T00831082






000
SXUS55 KMSO 192203
OSOMSO
MONTANA AWOS SUMMARY
NATIONAL WEATHER SERVICE MISSOULA MT
303 PM MST SUN APR 19 2015

Montana AWOS Reports

SCOBEY      |K9S2 192155Z AUTO 35023G31KT 40SM 11/M11 A3001 RMK AO1 T01061110
TWIN BRIDGES|K7S1 192155Z AUTO 28004KT 40SM 14/M06 A3003 RMK AO1 T01441060
ROUNDUP     |KRPX 192155Z AUTO 34009G18KT 40SM 12/M10 A3002 RMK AO1 T01171099
MALTA       |KM75 192155Z AUTO 34010G16KT 40SM 11/M07 A3008 RMK AO1 T01111071
LAUREL      |K6S8 192155Z AUTO 00000KT 40SM 11/M09 A3009 RMK AO1 T01111088
EKALAKA     |K97M 192155Z AUTO 31018G22KT 40SM 08/M08 A3000 RMK AO1 T00831082






000
SXUS55 KMSO 192144
OSOMSO
MONTANA AWOS SUMMARY
NATIONAL WEATHER SERVICE MISSOULA MT
243 PM MST SUN APR 19 2015

Montana AWOS Reports

MALTA       |KM75 192135Z AUTO 33010G15KT 40SM 11/M07 A3009 RMK AO1 T01111071
LAUREL      |K6S8 192135Z AUTO 00000KT 40SM 11/M09 A3009 RMK AO1 T01061093
TWIN BRIDGES|K7S1 192135Z AUTO 04008KT 40SM 14/M05 A3003 RMK AO1 T01441049
ROUNDUP     |KRPX 192135Z AUTO 32012G18KT 40SM 11/M11 A3003 RMK AO1 T01111105






000
SXUS55 KMSO 192124
OSOMSO
MONTANA AWOS SUMMARY
NATIONAL WEATHER SERVICE MISSOULA MT
223 PM MST SUN APR 19 2015

Montana AWOS Reports

MALTA       |KM75 192115Z AUTO 31009G17KT 40SM 11/M07 A3010 RMK AO1 T01111071
LAUREL      |K6S8 192115Z AUTO 00000KT 40SM 11/M09 A3010 RMK AO1 T01111088
TWIN BRIDGES|K7S1 192115Z AUTO 33008KT 40SM 14/M05 A3004 RMK AO1 T01441049
ROUNDUP     |KRPX 192115Z AUTO 33015G19KT 40SM 12/M10 A3003 RMK AO1 T01171099






000
SXUS55 KMSO 192124
OSOMSO
MONTANA AWOS SUMMARY
NATIONAL WEATHER SERVICE MISSOULA MT
223 PM MST SUN APR 19 2015

Montana AWOS Reports

MALTA       |KM75 192115Z AUTO 31009G17KT 40SM 11/M07 A3010 RMK AO1 T01111071
LAUREL      |K6S8 192115Z AUTO 00000KT 40SM 11/M09 A3010 RMK AO1 T01111088
TWIN BRIDGES|K7S1 192115Z AUTO 33008KT 40SM 14/M05 A3004 RMK AO1 T01441049
ROUNDUP     |KRPX 192115Z AUTO 33015G19KT 40SM 12/M10 A3003 RMK AO1 T01171099






000
SXUS55 KMSO 192104
OSOMSO
MONTANA AWOS SUMMARY
NATIONAL WEATHER SERVICE MISSOULA MT
203 PM MST SUN APR 19 2015

Montana AWOS Reports

LAUREL      |K6S8 192055Z AUTO 01004KT 40SM 11/M09 A3011 RMK AO1 T01111088
TWIN BRIDGES|K7S1 192055Z AUTO 29004KT 40SM 13/M06 A3005 RMK AO1 T01331055
ROUNDUP     |KRPX 192055Z AUTO 34012G19KT 40SM 11/M09 A3004 RMK AO1 T01111093
MALTA       |KM75 192055Z AUTO 33010G14KT 40SM 11/M07 A3010 RMK AO1 T01111071






000
SXUS55 KMSO 192104
OSOMSO
MONTANA AWOS SUMMARY
NATIONAL WEATHER SERVICE MISSOULA MT
203 PM MST SUN APR 19 2015

Montana AWOS Reports

LAUREL      |K6S8 192055Z AUTO 01004KT 40SM 11/M09 A3011 RMK AO1 T01111088
TWIN BRIDGES|K7S1 192055Z AUTO 29004KT 40SM 13/M06 A3005 RMK AO1 T01331055
ROUNDUP     |KRPX 192055Z AUTO 34012G19KT 40SM 11/M09 A3004 RMK AO1 T01111093
MALTA       |KM75 192055Z AUTO 33010G14KT 40SM 11/M07 A3010 RMK AO1 T01111071






000
SXUS55 KMSO 192043
OSOMSO
MONTANA AWOS SUMMARY
NATIONAL WEATHER SERVICE MISSOULA MT
142 PM MST SUN APR 19 2015

Montana AWOS Reports

MALTA       |KM75 192035Z AUTO 33010KT 40SM 11/M07 A3010 RMK AO1 T01061066
LAUREL      |K6S8 192035Z AUTO 36009G13KT 40SM 11/M09 A3011 RMK AO1 T01061093
ROUNDUP     |KRPX 192035Z AUTO 32011G22KT 40SM 11/M11 A3005 RMK AO1 T01061105






000
SXUS55 KMSO 192023
OSOMSO
MONTANA AWOS SUMMARY
NATIONAL WEATHER SERVICE MISSOULA MT
123 PM MST SUN APR 19 2015

Montana AWOS Reports

MALTA       |KM75 192015Z AUTO 33009G18KT 40SM 12/M06 A3011 RMK AO1 T01171060
LAUREL      |K6S8 192015Z AUTO 02006KT 40SM 11/M08 A3012 RMK AO1 T01111082
TWIN BRIDGES|K7S1 192015Z AUTO 00000KT 40SM 12/M06 A3006 RMK AO1 T01221055
ROUNDUP     |KRPX 192015Z AUTO 34015G19KT 40SM 11/M10 A3006 RMK AO1 T01061099






000
SXUS55 KMSO 192023
OSOMSO
MONTANA AWOS SUMMARY
NATIONAL WEATHER SERVICE MISSOULA MT
123 PM MST SUN APR 19 2015

Montana AWOS Reports

MALTA       |KM75 192015Z AUTO 33009G18KT 40SM 12/M06 A3011 RMK AO1 T01171060
LAUREL      |K6S8 192015Z AUTO 02006KT 40SM 11/M08 A3012 RMK AO1 T01111082
TWIN BRIDGES|K7S1 192015Z AUTO 00000KT 40SM 12/M06 A3006 RMK AO1 T01221055
ROUNDUP     |KRPX 192015Z AUTO 34015G19KT 40SM 11/M10 A3006 RMK AO1 T01061099






000
SXUS55 KMSO 192003
OSOMSO
MONTANA AWOS SUMMARY
NATIONAL WEATHER SERVICE MISSOULA MT
103 PM MST SUN APR 19 2015

Montana AWOS Reports

LAUREL      |K6S8 191955Z AUTO 33010G14KT 40SM 11/M08 A3012 RMK AO1 T01111077
TWIN BRIDGES|K7S1 191955Z AUTO 00000KT 40SM 12/M04 A3007 RMK AO1 T01171043
ROUNDUP     |KRPX 191955Z AUTO 33010G18KT 40SM 10/M11 A3006 RMK AO1 T01001105
MALTA       |KM75 191955Z AUTO 34012G18KT 40SM 11/M07 A3011 RMK AO1 T01111066
SCOBEY      |K9S2 191955Z AUTO 33023G34KT 40SM 09/M10 A3003 RMK AO1 T00941099
EKALAKA     |K97M 191955Z AUTO 32020G27KT 40SM 08/M07 A3002 RMK AO1 T00781066






000
SXUS55 KMSO 192003
OSOMSO
MONTANA AWOS SUMMARY
NATIONAL WEATHER SERVICE MISSOULA MT
103 PM MST SUN APR 19 2015

Montana AWOS Reports

LAUREL      |K6S8 191955Z AUTO 33010G14KT 40SM 11/M08 A3012 RMK AO1 T01111077
TWIN BRIDGES|K7S1 191955Z AUTO 00000KT 40SM 12/M04 A3007 RMK AO1 T01171043
ROUNDUP     |KRPX 191955Z AUTO 33010G18KT 40SM 10/M11 A3006 RMK AO1 T01001105
MALTA       |KM75 191955Z AUTO 34012G18KT 40SM 11/M07 A3011 RMK AO1 T01111066
SCOBEY      |K9S2 191955Z AUTO 33023G34KT 40SM 09/M10 A3003 RMK AO1 T00941099
EKALAKA     |K97M 191955Z AUTO 32020G27KT 40SM 08/M07 A3002 RMK AO1 T00781066






000
SXUS55 KMSO 191933
OSOMSO
MONTANA AWOS SUMMARY
NATIONAL WEATHER SERVICE MISSOULA MT
1233 PM MST SUN APR 19 2015

Montana AWOS Reports

SCOBEY      |K9S2 191855Z AUTO 33021G34KT 40SM 09/M07 A3004 RMK AO1 T00891066






000
SXUS55 KMSO 191923
OSOMSO
MONTANA AWOS SUMMARY
NATIONAL WEATHER SERVICE MISSOULA MT
1223 PM MST SUN APR 19 2015

Montana AWOS Reports

MALTA       |KM75 191915Z AUTO 33008KT 40SM 11/M07 A3012 RMK AO1 T01111066
LAUREL      |K6S8 191915Z AUTO 30008KT 40SM 11/M09 A3014 RMK AO1 T01061093
TWIN BRIDGES|K7S1 191915Z AUTO 00000KT 25SM 11/M05 A3009 RMK AO1 T01061049
ROUNDUP     |KRPX 191915Z AUTO 31008KT 40SM 09/M11 A3008 RMK AO1 T00891110






000
SXUS55 KMSO 191923
OSOMSO
MONTANA AWOS SUMMARY
NATIONAL WEATHER SERVICE MISSOULA MT
1223 PM MST SUN APR 19 2015

Montana AWOS Reports

MALTA       |KM75 191915Z AUTO 33008KT 40SM 11/M07 A3012 RMK AO1 T01111066
LAUREL      |K6S8 191915Z AUTO 30008KT 40SM 11/M09 A3014 RMK AO1 T01061093
TWIN BRIDGES|K7S1 191915Z AUTO 00000KT 25SM 11/M05 A3009 RMK AO1 T01061049
ROUNDUP     |KRPX 191915Z AUTO 31008KT 40SM 09/M11 A3008 RMK AO1 T00891110






000
SXUS55 KMSO 191913
OSOMSO
MONTANA AWOS SUMMARY
NATIONAL WEATHER SERVICE MISSOULA MT
1213 PM MST SUN APR 19 2015

Montana AWOS Reports

EKALAKA     |K97M 191855Z AUTO 32015G22KT 40SM 07/M04 A3003 RMK AO1 T00671038






000
SXUS55 KMSO 191903
OSOMSO
MONTANA AWOS SUMMARY
NATIONAL WEATHER SERVICE MISSOULA MT
1203 PM MST SUN APR 19 2015

Montana AWOS Reports

LAUREL      |K6S8 191855Z AUTO 00000KT 40SM 11/M09 A3015 RMK AO1 T01111088
TWIN BRIDGES|K7S1 191855Z AUTO 14004KT 40SM 09/M04 A3010 RMK AO1 T00941043
ROUNDUP     |KRPX 191855Z AUTO 34014G21KT 40SM 09/M11 A3008 RMK AO1 T00941105
MALTA       |KM75 191855Z AUTO 34014G19KT 40SM 11/M07 A3012 RMK AO1 T01061066






000
SXUS55 KMSO 191903
OSOMSO
MONTANA AWOS SUMMARY
NATIONAL WEATHER SERVICE MISSOULA MT
1203 PM MST SUN APR 19 2015

Montana AWOS Reports

LAUREL      |K6S8 191855Z AUTO 00000KT 40SM 11/M09 A3015 RMK AO1 T01111088
TWIN BRIDGES|K7S1 191855Z AUTO 14004KT 40SM 09/M04 A3010 RMK AO1 T00941043
ROUNDUP     |KRPX 191855Z AUTO 34014G21KT 40SM 09/M11 A3008 RMK AO1 T00941105
MALTA       |KM75 191855Z AUTO 34014G19KT 40SM 11/M07 A3012 RMK AO1 T01061066






000
SXUS55 KMSO 191843
OSOMSO
MONTANA AWOS SUMMARY
NATIONAL WEATHER SERVICE MISSOULA MT
1143 AM MST SUN APR 19 2015

Montana AWOS Reports

ROUNDUP     |KRPX 191835Z AUTO 32011G18KT 40SM 09/M11 A3009 RMK AO1 T00891105
MALTA       |KM75 191835Z AUTO 34011G17KT 40SM 11/M07 A3013 RMK AO1 T01061066
LAUREL      |K6S8 191835Z AUTO 32007KT 40SM 11/M08 A3015 RMK AO1 T01061082
TWIN BRIDGES|K7S1 191835Z AUTO 00000KT 40SM 09/M04 A3011 RMK AO1 T00941043






000
SXUS55 KMSO 191843
OSOMSO
MONTANA AWOS SUMMARY
NATIONAL WEATHER SERVICE MISSOULA MT
1143 AM MST SUN APR 19 2015

Montana AWOS Reports

ROUNDUP     |KRPX 191835Z AUTO 32011G18KT 40SM 09/M11 A3009 RMK AO1 T00891105
MALTA       |KM75 191835Z AUTO 34011G17KT 40SM 11/M07 A3013 RMK AO1 T01061066
LAUREL      |K6S8 191835Z AUTO 32007KT 40SM 11/M08 A3015 RMK AO1 T01061082
TWIN BRIDGES|K7S1 191835Z AUTO 00000KT 40SM 09/M04 A3011 RMK AO1 T00941043






000
SXUS55 KMSO 191833
OSOMSO
MONTANA AWOS SUMMARY
NATIONAL WEATHER SERVICE MISSOULA MT
1132 AM MST SUN APR 19 2015

Montana AWOS Reports

LAUREL      |K6S8 191815Z AUTO 00000KT 40SM 10/M09 A3016 RMK AO1 T01001093
TWIN BRIDGES|K7S1 191815Z AUTO 00000KT 40SM 08/M04 A3012 RMK AO1 T00831043
ROUNDUP     |KRPX 191815Z AUTO 33014KT 40SM 09/M11 A3009 RMK AO1 T00941105






000
SXUS55 KMSO 191833
OSOMSO
MONTANA AWOS SUMMARY
NATIONAL WEATHER SERVICE MISSOULA MT
1132 AM MST SUN APR 19 2015

Montana AWOS Reports

LAUREL      |K6S8 191815Z AUTO 00000KT 40SM 10/M09 A3016 RMK AO1 T01001093
TWIN BRIDGES|K7S1 191815Z AUTO 00000KT 40SM 08/M04 A3012 RMK AO1 T00831043
ROUNDUP     |KRPX 191815Z AUTO 33014KT 40SM 09/M11 A3009 RMK AO1 T00941105






000
SXUS55 KMSO 191823
OSOMSO
MONTANA AWOS SUMMARY
NATIONAL WEATHER SERVICE MISSOULA MT
1122 AM MST SUN APR 19 2015

Montana AWOS Reports

EKALAKA     |K97M 191755Z AUTO 30022G32KT 40SM 06/M06 A3004 RMK AO1 T00561060
MALTA       |KM75 191815Z AUTO 30015G20KT 40SM 11/M05 A3014 RMK AO1 T01061049






000
SXUS55 KMSO 191814
OSOMSO
MONTANA AWOS SUMMARY
NATIONAL WEATHER SERVICE MISSOULA MT
1113 AM MST SUN APR 19 2015

Montana AWOS Reports

SCOBEY      |K9S2 191755Z AUTO 33024G32KT 40SM 07/M06 A3006 RMK AO1 T00721055
PLAINS      |KS34 191755Z AUTO 00000KT 40SM 15/M02 A3014 RMK AO1 T01501016






000
SXUS55 KMSO 191803
OSOMSO
MONTANA AWOS SUMMARY
NATIONAL WEATHER SERVICE MISSOULA MT
1103 AM MST SUN APR 19 2015

Montana AWOS Reports

LAUREL      |K6S8 191755Z AUTO 33006KT 40SM 10/M08 A3017 RMK AO1 T01001082
TWIN BRIDGES|K7S1 191755Z AUTO 10004KT 40SM 08/M04 A3014 RMK AO1 T00831043
ROUNDUP     |KRPX 191755Z AUTO 34011G19KT 40SM 09/M11 A3010 RMK AO1 T00941105
MALTA       |KM75 191755Z AUTO 32011G19KT 40SM 10/M04 A3015 RMK AO1 T01001043






000
SXUS55 KMSO 191743
OSOMSO
MONTANA AWOS SUMMARY
NATIONAL WEATHER SERVICE MISSOULA MT
1043 AM MST SUN APR 19 2015

Montana AWOS Reports

LAUREL      |K6S8 191735Z AUTO 32009G13KT 40SM 10/M08 A3017 RMK AO1 T01001082
ROUNDUP     |KRPX 191735Z AUTO 31011G18KT 40SM 08/M10 A3011 RMK AO1 T00831099
MALTA       |KM75 191735Z AUTO 33014G20KT 40SM 10/M03 A3016 RMK AO1 T01001032
TWIN BRIDGES|K7S1 191735Z AUTO 00000KT 40SM 07/M04 A3015 RMK AO1 T00721043






000
SXUS55 KMSO 191733
OSOMSO
MONTANA AWOS SUMMARY
NATIONAL WEATHER SERVICE MISSOULA MT
1032 AM MST SUN APR 19 2015

Montana AWOS Reports

LAUREL      |K6S8 191715Z AUTO 33011KT 40SM 10/M08 A3017 RMK AO1 T01001082
TWIN BRIDGES|K7S1 191715Z AUTO 00000KT 40SM 06/M05 A3015 RMK AO1 T00611049






000
SXUS55 KMSO 191733
OSOMSO
MONTANA AWOS SUMMARY
NATIONAL WEATHER SERVICE MISSOULA MT
1032 AM MST SUN APR 19 2015

Montana AWOS Reports

LAUREL      |K6S8 191715Z AUTO 33011KT 40SM 10/M08 A3017 RMK AO1 T01001082
TWIN BRIDGES|K7S1 191715Z AUTO 00000KT 40SM 06/M05 A3015 RMK AO1 T00611049






000
SXUS55 KMSO 191724
OSOMSO
MONTANA AWOS SUMMARY
NATIONAL WEATHER SERVICE MISSOULA MT
1023 AM MST SUN APR 19 2015

Montana AWOS Reports

ROUNDUP     |KRPX 191715Z AUTO 33013G19KT 40SM 09/M10 A3011 RMK AO1 T00891099
MALTA       |KM75 191715Z AUTO 33010G17KT 40SM 09/M03 A3016 RMK AO1 T00891032






000
SXUS55 KMSO 191703
OSOMSO
MONTANA AWOS SUMMARY
NATIONAL WEATHER SERVICE MISSOULA MT
1002 AM MST SUN APR 19 2015

Montana AWOS Reports

LAUREL      |K6S8 191655Z AUTO 29008KT 40SM 09/M08 A3018 RMK AO1 T00941077
TWIN BRIDGES|K7S1 191655Z AUTO 00000KT 40SM 06/M04 A3016 RMK AO1 T00611043
ROUNDUP     |KRPX 191655Z AUTO 33012G17KT 40SM 08/M11 A3011 RMK AO1 T00781105
MALTA       |KM75 191655Z AUTO 30010G20KT 40SM 08/M02 A3017 RMK AO1 T00831021
SCOBEY      |K9S2 191655Z AUTO 32023G32KT 40SM 05/M04 A3007 RMK AO1 T00501043






000
SXUS55 KMSO 191703
OSOMSO
MONTANA AWOS SUMMARY
NATIONAL WEATHER SERVICE MISSOULA MT
1002 AM MST SUN APR 19 2015

Montana AWOS Reports

LAUREL      |K6S8 191655Z AUTO 29008KT 40SM 09/M08 A3018 RMK AO1 T00941077
TWIN BRIDGES|K7S1 191655Z AUTO 00000KT 40SM 06/M04 A3016 RMK AO1 T00611043
ROUNDUP     |KRPX 191655Z AUTO 33012G17KT 40SM 08/M11 A3011 RMK AO1 T00781105
MALTA       |KM75 191655Z AUTO 30010G20KT 40SM 08/M02 A3017 RMK AO1 T00831021
SCOBEY      |K9S2 191655Z AUTO 32023G32KT 40SM 05/M04 A3007 RMK AO1 T00501043






000
SXUS55 KMSO 191643
OSOMSO
MONTANA AWOS SUMMARY
NATIONAL WEATHER SERVICE MISSOULA MT
943 AM MST SUN APR 19 2015

Montana AWOS Reports

LAUREL      |K6S8 191635Z AUTO 34004KT 40SM 09/M05 A3018 RMK AO1 T00891049
TWIN BRIDGES|K7S1 191635Z AUTO 00000KT 40SM 05/M04 A3016 RMK AO1 T00501043
ROUNDUP     |KRPX 191635Z AUTO 30013G18KT 40SM 07/M11 A3011 RMK AO1 T00721105
MALTA       |KM75 191635Z AUTO 31011G15KT 40SM 08/M02 A3017 RMK AO1 T00781021






000
SXUS55 KMSO 191624
OSOMSO
MONTANA AWOS SUMMARY
NATIONAL WEATHER SERVICE MISSOULA MT
923 AM MST SUN APR 19 2015

Montana AWOS Reports

LAUREL      |K6S8 191615Z AUTO 00000KT 40SM 08/M04 A3019 RMK AO1 T00831043
TWIN BRIDGES|K7S1 191615Z AUTO 00000KT 40SM 04/M04 A3017 RMK AO1 T00441043
ROUNDUP     |KRPX 191615Z AUTO 32012G19KT 40SM 08/M09 A3012 RMK AO1 T00831093
MALTA       |KM75 191615Z AUTO 34014G19KT 40SM 07/M02 A3017 RMK AO1 T00721021






000
SXUS55 KMSO 191613
OSOMSO
MONTANA AWOS SUMMARY
NATIONAL WEATHER SERVICE MISSOULA MT
912 AM MST SUN APR 19 2015

Montana AWOS Reports

EKALAKA     |K97M 191555Z AUTO 29021G28KT 40SM 04/M06 A3006 RMK AO1 T00441055






000
SXUS55 KMSO 191603
OSOMSO
MONTANA AWOS SUMMARY
NATIONAL WEATHER SERVICE MISSOULA MT
903 AM MST SUN APR 19 2015

Montana AWOS Reports

SCOBEY      |K9S2 191555Z AUTO 32024G31KT 40SM 04/M03 A3006 RMK AO1 T00391027
PLAINS      |KS34 191555Z AUTO 00000KT 25SM 08/M01 A3018 RMK AO1 T00781010
LAUREL      |K6S8 191555Z AUTO 31008KT 40SM 08/M05 A3019 RMK AO1 T00781049
TWIN BRIDGES|K7S1 191555Z AUTO 11004KT 40SM 04/M05 A3018 RMK AO1 T00391049
ROUNDUP     |KRPX 191555Z AUTO 32017G21KT 40SM 08/M10 A3012 RMK AO1 T00781099
MALTA       |KM75 191555Z AUTO 34010G16KT 40SM 07/M02 A3017 RMK AO1 T00671021






000
SXUS55 KMSO 191543
OSOMSO
MONTANA AWOS SUMMARY
NATIONAL WEATHER SERVICE MISSOULA MT
842 AM MST SUN APR 19 2015

Montana AWOS Reports

LAUREL      |K6S8 191535Z AUTO 00000KT 40SM 06/M03 A3019 RMK AO1 T00611032
TWIN BRIDGES|K7S1 191535Z AUTO 00000KT 40SM 03/M04 A3019 RMK AO1 T00331043
ROUNDUP     |KRPX 191535Z AUTO 32015G21KT 40SM 07/M10 A3012 RMK AO1 T00721099
MALTA       |KM75 191535Z AUTO 32013G17KT 40SM 07/M02 A3018 RMK AO1 T00671016






000
SXUS55 KMSO 191523
OSOMSO
MONTANA AWOS SUMMARY
NATIONAL WEATHER SERVICE MISSOULA MT
823 AM MST SUN APR 19 2015

Montana AWOS Reports

LAUREL      |K6S8 191515Z AUTO 00000KT 40SM 05/M03 A3020 RMK AO1 T00501027
TWIN BRIDGES|K7S1 191515Z AUTO 00000KT 40SM 02/M04 A3019 RMK AO1 T00221043
ROUNDUP     |KRPX 191515Z AUTO 30014KT 40SM 07/M09 A3013 RMK AO1 T00721088
MALTA       |KM75 191515Z AUTO 31010G17KT 40SM 06/M02 A3018 RMK AO1 T00561021






000
SXUS55 KMSO 191523
OSOMSO
MONTANA AWOS SUMMARY
NATIONAL WEATHER SERVICE MISSOULA MT
823 AM MST SUN APR 19 2015

Montana AWOS Reports

LAUREL      |K6S8 191515Z AUTO 00000KT 40SM 05/M03 A3020 RMK AO1 T00501027
TWIN BRIDGES|K7S1 191515Z AUTO 00000KT 40SM 02/M04 A3019 RMK AO1 T00221043
ROUNDUP     |KRPX 191515Z AUTO 30014KT 40SM 07/M09 A3013 RMK AO1 T00721088
MALTA       |KM75 191515Z AUTO 31010G17KT 40SM 06/M02 A3018 RMK AO1 T00561021






000
SXUS55 KMSO 191504
OSOMSO
MONTANA AWOS SUMMARY
NATIONAL WEATHER SERVICE MISSOULA MT
803 AM MST SUN APR 19 2015

Montana AWOS Reports

EKALAKA     |K97M 191455Z AUTO 30019G28KT 40SM 04/M04 A3007 RMK AO1 T00441043
MALTA       |KM75 191455Z AUTO 29012G16KT 40SM 06/M02 A3018 RMK AO1 T00561021
SCOBEY      |K9S2 191455Z AUTO 33017G23KT 25SM 03/M02 A3007 RMK AO1 T00331016
LAUREL      |K6S8 191455Z AUTO 00000KT 40SM 04/M03 A3020 RMK AO1 T00391032
TWIN BRIDGES|K7S1 191455Z AUTO 18004KT 40SM 01/M05 A3020 RMK AO1 T00111049
ROUNDUP     |KRPX 191455Z AUTO 28011G16KT 40SM 06/M08 A3013 RMK AO1 T00611082






000
SXUS55 KMSO 191443
OSOMSO
MONTANA AWOS SUMMARY
NATIONAL WEATHER SERVICE MISSOULA MT
743 AM MST SUN APR 19 2015

Montana AWOS Reports

LAUREL      |K6S8 191435Z AUTO 00000KT 40SM 03/M03 A3021 RMK AO1 T00281032
TWIN BRIDGES|K7S1 191435Z AUTO 00000KT 40SM 00/M06 A3020 RMK AO1 T00001055
ROUNDUP     |KRPX 191435Z AUTO 27008KT 40SM 04/M07 A3013 RMK AO1 T00441066
MALTA       |KM75 191435Z AUTO 27011G15KT 40SM 04/M03 A3018 RMK AO1 T00391027






000
SXUS55 KMSO 191443
OSOMSO
MONTANA AWOS SUMMARY
NATIONAL WEATHER SERVICE MISSOULA MT
743 AM MST SUN APR 19 2015

Montana AWOS Reports

LAUREL      |K6S8 191435Z AUTO 00000KT 40SM 03/M03 A3021 RMK AO1 T00281032
TWIN BRIDGES|K7S1 191435Z AUTO 00000KT 40SM 00/M06 A3020 RMK AO1 T00001055
ROUNDUP     |KRPX 191435Z AUTO 27008KT 40SM 04/M07 A3013 RMK AO1 T00441066
MALTA       |KM75 191435Z AUTO 27011G15KT 40SM 04/M03 A3018 RMK AO1 T00391027






000
SXUS55 KMSO 191424
OSOMSO
MONTANA AWOS SUMMARY
NATIONAL WEATHER SERVICE MISSOULA MT
723 AM MST SUN APR 19 2015

Montana AWOS Reports

LAUREL      |K6S8 191415Z AUTO 00000KT 40SM 02/M03 A3021 RMK AO1 T00221032
TWIN BRIDGES|K7S1 191415Z AUTO 16004KT 40SM M01/M06 A3020 RMK AO1 T10051055
ROUNDUP     |KRPX 191415Z AUTO 00000KT 40SM 02/M07 A3013 RMK AO1 T00221066
MALTA       |KM75 191415Z AUTO 23009KT 40SM 01/M05 A3018 RMK AO1 T00061049






000
SXUS55 KMSO 191424
OSOMSO
MONTANA AWOS SUMMARY
NATIONAL WEATHER SERVICE MISSOULA MT
723 AM MST SUN APR 19 2015

Montana AWOS Reports

LAUREL      |K6S8 191415Z AUTO 00000KT 40SM 02/M03 A3021 RMK AO1 T00221032
TWIN BRIDGES|K7S1 191415Z AUTO 16004KT 40SM M01/M06 A3020 RMK AO1 T10051055
ROUNDUP     |KRPX 191415Z AUTO 00000KT 40SM 02/M07 A3013 RMK AO1 T00221066
MALTA       |KM75 191415Z AUTO 23009KT 40SM 01/M05 A3018 RMK AO1 T00061049






000
SXUS55 KMSO 191403
OSOMSO
MONTANA AWOS SUMMARY
NATIONAL WEATHER SERVICE MISSOULA MT
703 AM MST SUN APR 19 2015

Montana AWOS Reports

MALTA       |KM75 191355Z AUTO 23008KT 40SM M01/M06 A3019 RMK AO1 T10101060
SCOBEY      |K9S2 191355Z AUTO 31016G24KT 40SM 03/M02 A3006 RMK AO1 T00331016
EKALAKA     |K97M 191355Z AUTO 29015G19KT 40SM 02/M06 A3007 RMK AO1 T00221055
LAUREL      |K6S8 191355Z AUTO 00000KT 40SM 01/M04 A3020 RMK AO1 T00111038
TWIN BRIDGES|K7S1 191355Z AUTO 13004KT 40SM M01/M06 A3020 RMK AO1 T10101060
ROUNDUP     |KRPX 191355Z AUTO 00000KT 40SM 02/M07 A3014 RMK AO1 T00171066






000
SXUS55 KMSO 191343
OSOMSO
MONTANA AWOS SUMMARY
NATIONAL WEATHER SERVICE MISSOULA MT
643 AM MST SUN APR 19 2015

Montana AWOS Reports

LAUREL      |K6S8 191335Z AUTO 00000KT 40SM 00/M04 A3020 RMK AO1 T00001043
TWIN BRIDGES|K7S1 191335Z AUTO 11004KT 40SM M02/M07 A3021 RMK AO1 T10211066
ROUNDUP     |KRPX 191335Z AUTO 21008KT 40SM M01/M06 A3014 RMK AO1 T10101060
MALTA       |KM75 191335Z AUTO 23009KT 40SM M01/M07 A3019 RMK AO1 T10101066






000
SXUS55 KMSO 191323
OSOMSO
MONTANA AWOS SUMMARY
NATIONAL WEATHER SERVICE MISSOULA MT
623 AM MST SUN APR 19 2015

Montana AWOS Reports

LAUREL      |K6S8 191315Z AUTO 00000KT 40SM M01/M05 A3020 RMK AO1 T10051049
TWIN BRIDGES|K7S1 191315Z AUTO 00000KT 40SM M03/M08 A3020 RMK AO1 T10271077
ROUNDUP     |KRPX 191315Z AUTO 21007KT 40SM M02/M07 A3014 RMK AO1 T10211066
MALTA       |KM75 191315Z AUTO 23008KT 40SM M02/M07 A3019 RMK AO1 T10161066






000
SXUS55 KMSO 191304
OSOMSO
MONTANA AWOS SUMMARY
NATIONAL WEATHER SERVICE MISSOULA MT
603 AM MST SUN APR 19 2015

Montana AWOS Reports

MALTA       |KM75 191255Z AUTO 23008KT 40SM M02/M07 A3018 RMK AO1 T10211071
SCOBEY      |K9S2 191255Z AUTO 31017G23KT 40SM 03/M02 A3006 RMK AO1 T00281021
EKALAKA     |K97M 191255Z AUTO 27010G15KT 40SM M01/M07 A3006 RMK AO1 T10051071
LAUREL      |K6S8 191255Z AUTO 00000KT 40SM M02/M06 A3020 RMK AO1 T10161060
ROUNDUP     |KRPX 191255Z AUTO 21005KT 40SM M03/M08 A3014 RMK AO1 T10271077
TWIN BRIDGES|K7S1 191255Z AUTO 00000KT 40SM 00/M07 A3020 RMK AO1 T00001066






000
SXUS55 KMSO 191304
OSOMSO
MONTANA AWOS SUMMARY
NATIONAL WEATHER SERVICE MISSOULA MT
603 AM MST SUN APR 19 2015

Montana AWOS Reports

MALTA       |KM75 191255Z AUTO 23008KT 40SM M02/M07 A3018 RMK AO1 T10211071
SCOBEY      |K9S2 191255Z AUTO 31017G23KT 40SM 03/M02 A3006 RMK AO1 T00281021
EKALAKA     |K97M 191255Z AUTO 27010G15KT 40SM M01/M07 A3006 RMK AO1 T10051071
LAUREL      |K6S8 191255Z AUTO 00000KT 40SM M02/M06 A3020 RMK AO1 T10161060
ROUNDUP     |KRPX 191255Z AUTO 21005KT 40SM M03/M08 A3014 RMK AO1 T10271077
TWIN BRIDGES|K7S1 191255Z AUTO 00000KT 40SM 00/M07 A3020 RMK AO1 T00001066






000
SXUS55 KMSO 191243
OSOMSO
MONTANA AWOS SUMMARY
NATIONAL WEATHER SERVICE MISSOULA MT
543 AM MST SUN APR 19 2015

Montana AWOS Reports

LAUREL      |K6S8 191235Z AUTO 00000KT 40SM M02/M07 A3021 RMK AO1 T10161066
TWIN BRIDGES|K7S1 191235Z AUTO 02006KT 40SM 00/M07 A3019 RMK AO1 T00001066
ROUNDUP     |KRPX 191235Z AUTO 40SM M03/M08 A3013 RMK AO1 T10271077
MALTA       |KM75 191235Z AUTO 23006KT 40SM M03/M08 A3018 RMK AO1 T10271077






000
SXUS55 KMSO 191243
OSOMSO
MONTANA AWOS SUMMARY
NATIONAL WEATHER SERVICE MISSOULA MT
543 AM MST SUN APR 19 2015

Montana AWOS Reports

LAUREL      |K6S8 191235Z AUTO 00000KT 40SM M02/M07 A3021 RMK AO1 T10161066
TWIN BRIDGES|K7S1 191235Z AUTO 02006KT 40SM 00/M07 A3019 RMK AO1 T00001066
ROUNDUP     |KRPX 191235Z AUTO 40SM M03/M08 A3013 RMK AO1 T10271077
MALTA       |KM75 191235Z AUTO 23006KT 40SM M03/M08 A3018 RMK AO1 T10271077






000
SXUS55 KMSO 191223
OSOMSO
MONTANA AWOS SUMMARY
NATIONAL WEATHER SERVICE MISSOULA MT
523 AM MST SUN APR 19 2015

Montana AWOS Reports

LAUREL      |K6S8 191215Z AUTO 00000KT 40SM M01/M07 A3020 RMK AO1 T10051066
TWIN BRIDGES|K7S1 191215Z AUTO 02007KT 40SM 01/M07 A3019 RMK AO1 T00061066
ROUNDUP     |KRPX 191215Z AUTO 26005KT 40SM M02/M09 A3013 RMK AO1 T10161088
MALTA       |KM75 191215Z AUTO 23004KT 40SM M02/M07 A3017 RMK AO1 T10211071






000
SXUS55 KMSO 191213
OSOMSO
MONTANA AWOS SUMMARY
NATIONAL WEATHER SERVICE MISSOULA MT
512 AM MST SUN APR 19 2015

Montana AWOS Reports

EKALAKA     |K97M 191155Z AUTO 27009G13KT 40SM M01/M07 A3006 RMK AO1 T10101071






000
SXUS55 KMSO 191213
OSOMSO
MONTANA AWOS SUMMARY
NATIONAL WEATHER SERVICE MISSOULA MT
512 AM MST SUN APR 19 2015

Montana AWOS Reports

EKALAKA     |K97M 191155Z AUTO 27009G13KT 40SM M01/M07 A3006 RMK AO1 T10101071






000
SXUS55 KMSO 191203
OSOMSO
MONTANA AWOS SUMMARY
NATIONAL WEATHER SERVICE MISSOULA MT
503 AM MST SUN APR 19 2015

Montana AWOS Reports

LAUREL      |K6S8 191155Z AUTO 29005KT 40SM 00/M06 A3020 RMK AO1 T00001060
TWIN BRIDGES|K7S1 191155Z AUTO 03008KT 40SM 01/M06 A3019 RMK AO1 T00061060
ROUNDUP     |KRPX 191155Z AUTO 27009G13KT 40SM M02/M09 A3013 RMK AO1 T10161088






000
SXUS55 KMSO 191203
OSOMSO
MONTANA AWOS SUMMARY
NATIONAL WEATHER SERVICE MISSOULA MT
503 AM MST SUN APR 19 2015

Montana AWOS Reports

LAUREL      |K6S8 191155Z AUTO 29005KT 40SM 00/M06 A3020 RMK AO1 T00001060
TWIN BRIDGES|K7S1 191155Z AUTO 03008KT 40SM 01/M06 A3019 RMK AO1 T00061060
ROUNDUP     |KRPX 191155Z AUTO 27009G13KT 40SM M02/M09 A3013 RMK AO1 T10161088






000
SXUS55 KMSO 191144
OSOMSO
MONTANA AWOS SUMMARY
NATIONAL WEATHER SERVICE MISSOULA MT
443 AM MST SUN APR 19 2015

Montana AWOS Reports

MALTA       |KM75 191135Z AUTO 23005KT 40SM M02/M08 A3016 RMK AO1 T10211077
LAUREL      |K6S8 191135Z AUTO 29007KT 40SM 01/M06 A3020 RMK AO1 T00061055
TWIN BRIDGES|K7S1 191135Z AUTO 02009KT 40SM 00/M06 A3019 RMK AO1 T00001060
ROUNDUP     |KRPX 191135Z AUTO 26008KT 40SM M01/M08 A3013 RMK AO1 T10101082






000
SXUS55 KMSO 191144
OSOMSO
MONTANA AWOS SUMMARY
NATIONAL WEATHER SERVICE MISSOULA MT
443 AM MST SUN APR 19 2015

Montana AWOS Reports

MALTA       |KM75 191135Z AUTO 23005KT 40SM M02/M08 A3016 RMK AO1 T10211077
LAUREL      |K6S8 191135Z AUTO 29007KT 40SM 01/M06 A3020 RMK AO1 T00061055
TWIN BRIDGES|K7S1 191135Z AUTO 02009KT 40SM 00/M06 A3019 RMK AO1 T00001060
ROUNDUP     |KRPX 191135Z AUTO 26008KT 40SM M01/M08 A3013 RMK AO1 T10101082






000
SXUS55 KMSO 191123
OSOMSO
MONTANA AWOS SUMMARY
NATIONAL WEATHER SERVICE MISSOULA MT
423 AM MST SUN APR 19 2015

Montana AWOS Reports

MALTA       |KM75 191115Z AUTO 23007KT 40SM M02/M07 A3015 RMK AO1 T10161071
LAUREL      |K6S8 191115Z AUTO 27004KT 40SM 01/M06 A3020 RMK AO1 T00061055
TWIN BRIDGES|K7S1 191115Z AUTO 01009KT 40SM 01/M06 A3019 RMK AO1 T00061060
ROUNDUP     |KRPX 191115Z AUTO 26007KT 40SM M02/M08 A3013 RMK AO1 T10161082






000
SXUS55 KMSO 191123
OSOMSO
MONTANA AWOS SUMMARY
NATIONAL WEATHER SERVICE MISSOULA MT
423 AM MST SUN APR 19 2015

Montana AWOS Reports

MALTA       |KM75 191115Z AUTO 23007KT 40SM M02/M07 A3015 RMK AO1 T10161071
LAUREL      |K6S8 191115Z AUTO 27004KT 40SM 01/M06 A3020 RMK AO1 T00061055
TWIN BRIDGES|K7S1 191115Z AUTO 01009KT 40SM 01/M06 A3019 RMK AO1 T00061060
ROUNDUP     |KRPX 191115Z AUTO 26007KT 40SM M02/M08 A3013 RMK AO1 T10161082






000
SXUS55 KMSO 191113
OSOMSO
MONTANA AWOS SUMMARY
NATIONAL WEATHER SERVICE MISSOULA MT
413 AM MST SUN APR 19 2015

Montana AWOS Reports

SCOBEY      |K9S2 191055Z AUTO 30014G24KT 25SM 03/M02 A3003 RMK AO1 T00331016
MALTA       |KM75 191055Z AUTO 23008KT 40SM M02/M07 A3015 RMK AO1 T10161071
EKALAKA     |K97M 191055Z AUTO 28008KT 40SM M01/M07 A3005 RMK AO1 T10051071






000
SXUS55 KMSO 191104
OSOMSO
MONTANA AWOS SUMMARY
NATIONAL WEATHER SERVICE MISSOULA MT
403 AM MST SUN APR 19 2015

Montana AWOS Reports

MALTA       |KM75 191055Z AUTO 23008KT 40SM M02/M07 A3015 RMK AO1 T10161071
LAUREL      |K6S8 191055Z AUTO 00000KT 40SM 01/M05 A3020 RMK AO1 T00061049
TWIN BRIDGES|K7S1 191055Z AUTO 01010G14KT 40SM 01/M06 A3019 RMK AO1 T00111055
ROUNDUP     |KRPX 191055Z AUTO 26008KT 40SM M01/M07 A3013 RMK AO1 T10101071






000
SXUS55 KMSO 191104
OSOMSO
MONTANA AWOS SUMMARY
NATIONAL WEATHER SERVICE MISSOULA MT
403 AM MST SUN APR 19 2015

Montana AWOS Reports

MALTA       |KM75 191055Z AUTO 23008KT 40SM M02/M07 A3015 RMK AO1 T10161071
LAUREL      |K6S8 191055Z AUTO 00000KT 40SM 01/M05 A3020 RMK AO1 T00061049
TWIN BRIDGES|K7S1 191055Z AUTO 01010G14KT 40SM 01/M06 A3019 RMK AO1 T00111055
ROUNDUP     |KRPX 191055Z AUTO 26008KT 40SM M01/M07 A3013 RMK AO1 T10101071






000
SXUS55 KMSO 191043
OSOMSO
MONTANA AWOS SUMMARY
NATIONAL WEATHER SERVICE MISSOULA MT
343 AM MST SUN APR 19 2015

Montana AWOS Reports

MALTA       |KM75 191035Z AUTO 23008KT 40SM M02/M08 A3015 RMK AO1 T10211077
LAUREL      |K6S8 191035Z AUTO 00000KT 40SM 01/M05 A3020 RMK AO1 T00061049
TWIN BRIDGES|K7S1 191035Z AUTO 01009G13KT 40SM 01/M06 A3019 RMK AO1 T00111055
ROUNDUP     |KRPX 191035Z AUTO 26007KT 40SM M01/M07 A3012 RMK AO1 T10101071






000
SXUS55 KMSO 191043
OSOMSO
MONTANA AWOS SUMMARY
NATIONAL WEATHER SERVICE MISSOULA MT
343 AM MST SUN APR 19 2015

Montana AWOS Reports

MALTA       |KM75 191035Z AUTO 23008KT 40SM M02/M08 A3015 RMK AO1 T10211077
LAUREL      |K6S8 191035Z AUTO 00000KT 40SM 01/M05 A3020 RMK AO1 T00061049
TWIN BRIDGES|K7S1 191035Z AUTO 01009G13KT 40SM 01/M06 A3019 RMK AO1 T00111055
ROUNDUP     |KRPX 191035Z AUTO 26007KT 40SM M01/M07 A3012 RMK AO1 T10101071






000
SXUS55 KMSO 191023
OSOMSO
MONTANA AWOS SUMMARY
NATIONAL WEATHER SERVICE MISSOULA MT
323 AM MST SUN APR 19 2015

Montana AWOS Reports

LAUREL      |K6S8 191015Z AUTO 00000KT 40SM 00/M05 A3020 RMK AO1 T00001049
TWIN BRIDGES|K7S1 191015Z AUTO 35010G15KT 40SM 01/M06 A3019 RMK AO1 T00111055
ROUNDUP     |KRPX 191015Z AUTO 26007KT 40SM M01/M07 A3013 RMK AO1 T10051071






000
SXUS55 KMSO 191023
OSOMSO
MONTANA AWOS SUMMARY
NATIONAL WEATHER SERVICE MISSOULA MT
323 AM MST SUN APR 19 2015

Montana AWOS Reports

LAUREL      |K6S8 191015Z AUTO 00000KT 40SM 00/M05 A3020 RMK AO1 T00001049
TWIN BRIDGES|K7S1 191015Z AUTO 35010G15KT 40SM 01/M06 A3019 RMK AO1 T00111055
ROUNDUP     |KRPX 191015Z AUTO 26007KT 40SM M01/M07 A3013 RMK AO1 T10051071






000
SXUS55 KMSO 191013
OSOMSO
MONTANA AWOS SUMMARY
NATIONAL WEATHER SERVICE MISSOULA MT
312 AM MST SUN APR 19 2015

Montana AWOS Reports

SCOBEY      |K9S2 190955Z AUTO 29017G22KT 40SM 04/M02 A3002 RMK AO1 T00391021
EKALAKA     |K97M 190955Z AUTO 28008KT 40SM M01/M08 A3005 RMK AO1 T10051077
MALTA       |KM75 190955Z AUTO 23008KT 40SM M01/M07 A3014 RMK AO1 T10101071






000
SXUS55 KMSO 191003
OSOMSO
MONTANA AWOS SUMMARY
NATIONAL WEATHER SERVICE MISSOULA MT
303 AM MST SUN APR 19 2015

Montana AWOS Reports

TWIN BRIDGES|K7S1 190955Z AUTO 36009G15KT 40SM 01/M06 A3018 RMK AO1 T00061055
ROUNDUP     |KRPX 190955Z AUTO 26010KT 40SM M01/M07 A3013 RMK AO1 T10101066
LAUREL      |K6S8 190955Z AUTO 00000KT 40SM M01/M06 A3020 RMK AO1 T10101055






000
SXUS55 KMSO 190943
OSOMSO
MONTANA AWOS SUMMARY
NATIONAL WEATHER SERVICE MISSOULA MT
243 AM MST SUN APR 19 2015

Montana AWOS Reports

ROUNDUP     |KRPX 190935Z AUTO 26009G13KT 40SM M01/M07 A3012 RMK AO1 T10051066
MALTA       |KM75 190935Z AUTO 23008KT 40SM M01/M07 A3014 RMK AO1 T10101071
LAUREL      |K6S8 190935Z AUTO 00000KT 40SM 00/M06 A3020 RMK AO1 T00001055
TWIN BRIDGES|K7S1 190935Z AUTO 01011G16KT 40SM 01/M06 A3018 RMK AO1 T00061055






000
SXUS55 KMSO 190923
OSOMSO
MONTANA AWOS SUMMARY
NATIONAL WEATHER SERVICE MISSOULA MT
223 AM MST SUN APR 19 2015

Montana AWOS Reports

MALTA       |KM75 190915Z AUTO 23006KT 40SM M01/M07 A3014 RMK AO1 T10101071
LAUREL      |K6S8 190915Z AUTO 00000KT 40SM 01/M06 A3020 RMK AO1 T00111060
TWIN BRIDGES|K7S1 190915Z AUTO 36013KT 40SM 01/M06 A3018 RMK AO1 T00111055
ROUNDUP     |KRPX 190915Z AUTO 26010KT 40SM M01/M07 A3012 RMK AO1 T10051066






000
SXUS55 KMSO 190903
OSOMSO
MONTANA AWOS SUMMARY
NATIONAL WEATHER SERVICE MISSOULA MT
203 AM MST SUN APR 19 2015

Montana AWOS Reports

SCOBEY      |K9S2 190855Z AUTO 30014KT 40SM 04/M02 A3002 RMK AO1 T00391021
LAUREL      |K6S8 190855Z AUTO 29005KT 40SM 02/M05 A3020 RMK AO1 T00171049
TWIN BRIDGES|K7S1 190855Z AUTO 36013G17KT 40SM 01/M06 A3018 RMK AO1 T00111055
ROUNDUP     |KRPX 190855Z AUTO 27009KT 40SM 00/M06 A3013 RMK AO1 T00001060
EKALAKA     |K97M 190855Z AUTO 28007KT 40SM M01/M07 A3005 RMK AO1 T10051071
MALTA       |KM75 190855Z AUTO 23007KT 40SM M01/M07 A3015 RMK AO1 T10051066






000
SXUS55 KMSO 190843
OSOMSO
MONTANA AWOS SUMMARY
NATIONAL WEATHER SERVICE MISSOULA MT
143 AM MST SUN APR 19 2015

Montana AWOS Reports

TWIN BRIDGES|K7S1 190835Z AUTO 35013G17KT 40SM 01/M06 A3018 RMK AO1 T00111055
ROUNDUP     |KRPX 190835Z AUTO 26006KT 40SM M01/M06 A3013 RMK AO1 T10051060
LAUREL      |K6S8 190835Z AUTO 29005KT 40SM 01/M06 A3020 RMK AO1 T00111055






000
SXUS55 KMSO 190833
OSOMSO
MONTANA AWOS SUMMARY
NATIONAL WEATHER SERVICE MISSOULA MT
132 AM MST SUN APR 19 2015

Montana AWOS Reports

LAUREL      |K6S8 190815Z AUTO 00000KT 40SM 01/M05 A3021 RMK AO1 T00111049
TWIN BRIDGES|K7S1 190815Z AUTO 35013G17KT 40SM 02/M05 A3018 RMK AO1 T00171049
ROUNDUP     |KRPX 190815Z AUTO 26006KT 40SM 01/M05 A3013 RMK AO1 T00061049






000
SXUS55 KMSO 190824
OSOMSO
MONTANA AWOS SUMMARY
NATIONAL WEATHER SERVICE MISSOULA MT
123 AM MST SUN APR 19 2015

Montana AWOS Reports

MALTA       |KM75 190815Z AUTO 23007KT 40SM 00/M07 A3015 RMK AO1 T00001066






000
SXUS55 KMSO 190824
OSOMSO
MONTANA AWOS SUMMARY
NATIONAL WEATHER SERVICE MISSOULA MT
123 AM MST SUN APR 19 2015

Montana AWOS Reports

MALTA       |KM75 190815Z AUTO 23007KT 40SM 00/M07 A3015 RMK AO1 T00001066






000
SXUS55 KMSO 190804
OSOMSO
MONTANA AWOS SUMMARY
NATIONAL WEATHER SERVICE MISSOULA MT
103 AM MST SUN APR 19 2015

Montana AWOS Reports

ROUNDUP     |KRPX 190755Z AUTO 26007KT 40SM 01/M06 A3013 RMK AO1 T00061055
MALTA       |KM75 190755Z AUTO 24009KT 40SM 01/M07 A3015 RMK AO1 T00061066
SCOBEY      |K9S2 190755Z AUTO 29017G21KT 40SM 04/M03 A3004 RMK AO1 T00391027
EKALAKA     |K97M 190755Z AUTO 28006KT 40SM 01/M07 A3006 RMK AO1 T00061071
LAUREL      |K6S8 190755Z AUTO 00000KT 40SM 01/M05 A3021 RMK AO1 T00111049
TWIN BRIDGES|K7S1 190755Z AUTO 35013G19KT 40SM 02/M06 A3018 RMK AO1 T00221055






000
SXUS55 KMSO 190804
OSOMSO
MONTANA AWOS SUMMARY
NATIONAL WEATHER SERVICE MISSOULA MT
103 AM MST SUN APR 19 2015

Montana AWOS Reports

ROUNDUP     |KRPX 190755Z AUTO 26007KT 40SM 01/M06 A3013 RMK AO1 T00061055
MALTA       |KM75 190755Z AUTO 24009KT 40SM 01/M07 A3015 RMK AO1 T00061066
SCOBEY      |K9S2 190755Z AUTO 29017G21KT 40SM 04/M03 A3004 RMK AO1 T00391027
EKALAKA     |K97M 190755Z AUTO 28006KT 40SM 01/M07 A3006 RMK AO1 T00061071
LAUREL      |K6S8 190755Z AUTO 00000KT 40SM 01/M05 A3021 RMK AO1 T00111049
TWIN BRIDGES|K7S1 190755Z AUTO 35013G19KT 40SM 02/M06 A3018 RMK AO1 T00221055






000
SXUS55 KMSO 190743
OSOMSO
MONTANA AWOS SUMMARY
NATIONAL WEATHER SERVICE MISSOULA MT
1243 AM MST SUN APR 19 2015

Montana AWOS Reports

MALTA       |KM75 190735Z AUTO 24010KT 40SM 01/M07 A3015 RMK AO1 T00111066
LAUREL      |K6S8 190735Z AUTO 28005KT 40SM 02/M04 A3021 RMK AO1 T00171043
TWIN BRIDGES|K7S1 190735Z AUTO 34012G18KT 40SM 03/M05 A3018 RMK AO1 T00281049
ROUNDUP     |KRPX 190735Z AUTO 26007KT 40SM 01/M05 A3013 RMK AO1 T00061049






000
SXUS55 KMSO 190743
OSOMSO
MONTANA AWOS SUMMARY
NATIONAL WEATHER SERVICE MISSOULA MT
1243 AM MST SUN APR 19 2015

Montana AWOS Reports

MALTA       |KM75 190735Z AUTO 24010KT 40SM 01/M07 A3015 RMK AO1 T00111066
LAUREL      |K6S8 190735Z AUTO 28005KT 40SM 02/M04 A3021 RMK AO1 T00171043
TWIN BRIDGES|K7S1 190735Z AUTO 34012G18KT 40SM 03/M05 A3018 RMK AO1 T00281049
ROUNDUP     |KRPX 190735Z AUTO 26007KT 40SM 01/M05 A3013 RMK AO1 T00061049






000
SXUS55 KMSO 190724
OSOMSO
MONTANA AWOS SUMMARY
NATIONAL WEATHER SERVICE MISSOULA MT
1223 AM MST SUN APR 19 2015

Montana AWOS Reports

MALTA       |KM75 190715Z AUTO 27006KT 40SM 03/M06 A3015 RMK AO1 T00331060
LAUREL      |K6S8 190715Z AUTO 29005KT 40SM 02/M04 A3021 RMK AO1 T00171043
TWIN BRIDGES|K7S1 190715Z AUTO 34014G20KT 40SM 03/M05 A3017 RMK AO1 T00281049
ROUNDUP     |KRPX 190715Z AUTO 26008KT 40SM 01/M04 A3014 RMK AO1 T00111043






000
SXUS55 KMSO 190704
OSOMSO
MONTANA AWOS SUMMARY
NATIONAL WEATHER SERVICE MISSOULA MT
1203 AM MST SUN APR 19 2015

Montana AWOS Reports

SCOBEY      |K9S2 190655Z AUTO 30012G18KT 40SM 04/M03 A3005 RMK AO1 T00391027
LAUREL      |K6S8 190655Z AUTO 29004KT 40SM 01/M05 A3021 RMK AO1 T00111049
TWIN BRIDGES|K7S1 190655Z AUTO 35013G17KT 40SM 03/M05 A3017 RMK AO1 T00281049
ROUNDUP     |KRPX 190655Z AUTO 26008KT 40SM 01/M04 A3014 RMK AO1 T00111043
EKALAKA     |K97M 190655Z AUTO 29009KT 40SM 03/M07 A3006 RMK AO1 T00281066
MALTA       |KM75 190655Z AUTO 28006KT 40SM 01/M07 A3015 RMK AO1 T00061066






000
SXUS55 KMSO 190653
OSOMSO
MONTANA AWOS SUMMARY
NATIONAL WEATHER SERVICE MISSOULA MT
1153 PM MST SAT APR 18 2015

Montana AWOS Reports

TWIN BRIDGES|K7S1 190635Z AUTO 34014G20KT 40SM 03/M05 A3016 RMK AO1 T00281049
MALTA       |KM75 190635Z AUTO 28005KT 40SM 02/M07 A3014 RMK AO1 T00171066






000
SXUS55 KMSO 190643
OSOMSO
MONTANA AWOS SUMMARY
NATIONAL WEATHER SERVICE MISSOULA MT
1143 PM MST SAT APR 18 2015

Montana AWOS Reports

LAUREL      |K6S8 190635Z AUTO 29005KT 40SM 02/M04 A3021 RMK AO1 T00171043
ROUNDUP     |KRPX 190635Z AUTO 27007KT 40SM 01/M04 A3013 RMK AO1 T00111043






000
SXUS55 KMSO 190643
OSOMSO
MONTANA AWOS SUMMARY
NATIONAL WEATHER SERVICE MISSOULA MT
1143 PM MST SAT APR 18 2015

Montana AWOS Reports

LAUREL      |K6S8 190635Z AUTO 29005KT 40SM 02/M04 A3021 RMK AO1 T00171043
ROUNDUP     |KRPX 190635Z AUTO 27007KT 40SM 01/M04 A3013 RMK AO1 T00111043






000
SXUS55 KMSO 190623
OSOMSO
MONTANA AWOS SUMMARY
NATIONAL WEATHER SERVICE MISSOULA MT
1123 PM MST SAT APR 18 2015

Montana AWOS Reports

ROUNDUP     |KRPX 190615Z AUTO 28006KT 40SM 02/M04 A3013 RMK AO1 T00221043
LAUREL      |K6S8 190615Z AUTO 28005KT 40SM 01/M05 A3021 RMK AO1 T00111049
EKALAKA     |K97M 190555Z AUTO 30006KT 40SM 04/M06 A3006 RMK AO1 T00391055
TWIN BRIDGES|K7S1 190615Z AUTO 36015KT 40SM 03/M05 A3017 RMK AO1 T00281049
MALTA       |KM75 190615Z AUTO 28008KT 40SM 04/M06 A3014 RMK AO1 T00441060






000
SXUS55 KMSO 190603
OSOMSO
MONTANA AWOS SUMMARY
NATIONAL WEATHER SERVICE MISSOULA MT
1103 PM MST SAT APR 18 2015

Montana AWOS Reports

ROUNDUP     |KRPX 190555Z AUTO 28007KT 40SM 03/M04 A3013 RMK AO1 T00281043
MALTA       |KM75 190555Z AUTO 29006KT 40SM 04/M07 A3015 RMK AO1 T00441066
LAUREL      |K6S8 190555Z AUTO 28004KT 40SM 01/M06 A3021 RMK AO1 T00061055
TWIN BRIDGES|K7S1 190555Z AUTO 02011G15KT 40SM 03/M04 A3017 RMK AO1 T00281043






000
SXUS55 KMSO 190603
OSOMSO
MONTANA AWOS SUMMARY
NATIONAL WEATHER SERVICE MISSOULA MT
1103 PM MST SAT APR 18 2015

Montana AWOS Reports

ROUNDUP     |KRPX 190555Z AUTO 28007KT 40SM 03/M04 A3013 RMK AO1 T00281043
MALTA       |KM75 190555Z AUTO 29006KT 40SM 04/M07 A3015 RMK AO1 T00441066
LAUREL      |K6S8 190555Z AUTO 28004KT 40SM 01/M06 A3021 RMK AO1 T00061055
TWIN BRIDGES|K7S1 190555Z AUTO 02011G15KT 40SM 03/M04 A3017 RMK AO1 T00281043






000
SXUS55 KMSO 190543
OSOMSO
MONTANA AWOS SUMMARY
NATIONAL WEATHER SERVICE MISSOULA MT
1043 PM MST SAT APR 18 2015

Montana AWOS Reports

MALTA       |KM75 190535Z AUTO 30009KT 40SM 04/M07 A3014 RMK AO1 T00441066
LAUREL      |K6S8 190535Z AUTO 28004KT 40SM 00/M04 A3021 RMK AO1 T00001043
TWIN BRIDGES|K7S1 190535Z AUTO 03009KT 40SM 03/M04 A3017 RMK AO1 T00281043
ROUNDUP     |KRPX 190535Z AUTO 27007KT 40SM 03/M04 A3013 RMK AO1 T00281043






000
SXUS55 KMSO 190543
OSOMSO
MONTANA AWOS SUMMARY
NATIONAL WEATHER SERVICE MISSOULA MT
1043 PM MST SAT APR 18 2015

Montana AWOS Reports

MALTA       |KM75 190535Z AUTO 30009KT 40SM 04/M07 A3014 RMK AO1 T00441066
LAUREL      |K6S8 190535Z AUTO 28004KT 40SM 00/M04 A3021 RMK AO1 T00001043
TWIN BRIDGES|K7S1 190535Z AUTO 03009KT 40SM 03/M04 A3017 RMK AO1 T00281043
ROUNDUP     |KRPX 190535Z AUTO 27007KT 40SM 03/M04 A3013 RMK AO1 T00281043






000
SXUS55 KMSO 190523
OSOMSO
MONTANA AWOS SUMMARY
NATIONAL WEATHER SERVICE MISSOULA MT
1023 PM MST SAT APR 18 2015

Montana AWOS Reports

MALTA       |KM75 190515Z AUTO 30007KT 40SM 04/M07 A3014 RMK AO1 T00441066
LAUREL      |K6S8 190515Z AUTO 28005KT 40SM 01/M04 A3021 RMK AO1 T00111043
TWIN BRIDGES|K7S1 190515Z AUTO 35012G17KT 40SM 03/M04 A3016 RMK AO1 T00331043
ROUNDUP     |KRPX 190515Z AUTO 27009KT 40SM 03/M04 A3013 RMK AO1 T00331043






000
SXUS55 KMSO 190514
OSOMSO
MONTANA AWOS SUMMARY
NATIONAL WEATHER SERVICE MISSOULA MT
1013 PM MST SAT APR 18 2015

Montana AWOS Reports

EKALAKA     |K97M 190455Z AUTO 28005KT 40SM 04/M04 A3006 RMK AO1 T00391038






000
SXUS55 KMSO 190514
OSOMSO
MONTANA AWOS SUMMARY
NATIONAL WEATHER SERVICE MISSOULA MT
1013 PM MST SAT APR 18 2015

Montana AWOS Reports

EKALAKA     |K97M 190455Z AUTO 28005KT 40SM 04/M04 A3006 RMK AO1 T00391038






000
SXUS55 KMSO 190503
OSOMSO
MONTANA AWOS SUMMARY
NATIONAL WEATHER SERVICE MISSOULA MT
1002 PM MST SAT APR 18 2015

Montana AWOS Reports

ROUNDUP     |KRPX 190455Z AUTO 26008KT 40SM 04/M05 A3013 RMK AO1 T00391049
MALTA       |KM75 190455Z AUTO 31008KT 40SM 05/M07 A3014 RMK AO1 T00501071
LAUREL      |K6S8 190455Z AUTO 27004KT 40SM 02/M04 A3021 RMK AO1 T00221038
TWIN BRIDGES|K7S1 190455Z AUTO 02010G15KT 40SM 03/M04 A3016 RMK AO1 T00331043






000
SXUS55 KMSO 190443
OSOMSO
MONTANA AWOS SUMMARY
NATIONAL WEATHER SERVICE MISSOULA MT
943 PM MST SAT APR 18 2015

Montana AWOS Reports

ROUNDUP     |KRPX 190435Z AUTO 27008KT 40SM 03/M05 A3013 RMK AO1 T00281049
MALTA       |KM75 190435Z AUTO 30004KT 40SM 05/M07 A3015 RMK AO1 T00501066
LAUREL      |K6S8 190435Z AUTO 29004KT 40SM 02/M04 A3022 RMK AO1 T00221043
TWIN BRIDGES|K7S1 190435Z AUTO 34015G20KT 40SM 04/M04 A3015 RMK AO1 T00391043






000
SXUS55 KMSO 190443
OSOMSO
MONTANA AWOS SUMMARY
NATIONAL WEATHER SERVICE MISSOULA MT
943 PM MST SAT APR 18 2015

Montana AWOS Reports

ROUNDUP     |KRPX 190435Z AUTO 27008KT 40SM 03/M05 A3013 RMK AO1 T00281049
MALTA       |KM75 190435Z AUTO 30004KT 40SM 05/M07 A3015 RMK AO1 T00501066
LAUREL      |K6S8 190435Z AUTO 29004KT 40SM 02/M04 A3022 RMK AO1 T00221043
TWIN BRIDGES|K7S1 190435Z AUTO 34015G20KT 40SM 04/M04 A3015 RMK AO1 T00391043






000
SXUS55 KMSO 190434
OSOMSO
MONTANA AWOS SUMMARY
NATIONAL WEATHER SERVICE MISSOULA MT
933 PM MST SAT APR 18 2015

Montana AWOS Reports

SCOBEY      |K9S2 190355Z AUTO 30005KT 40SM 03/M07 A3006 RMK AO1 T00281071






000
SXUS55 KMSO 190434
OSOMSO
MONTANA AWOS SUMMARY
NATIONAL WEATHER SERVICE MISSOULA MT
933 PM MST SAT APR 18 2015

Montana AWOS Reports

SCOBEY      |K9S2 190355Z AUTO 30005KT 40SM 03/M07 A3006 RMK AO1 T00281071






000
SXUS55 KMSO 190423
OSOMSO
MONTANA AWOS SUMMARY
NATIONAL WEATHER SERVICE MISSOULA MT
923 PM MST SAT APR 18 2015

Montana AWOS Reports

LAUREL      |K6S8 190415Z AUTO 30004KT 40SM 03/M04 A3022 RMK AO1 T00331043
ROUNDUP     |KRPX 190415Z AUTO 26008KT 40SM 04/M04 A3012 RMK AO1 T00441043
MALTA       |KM75 190415Z AUTO 31004KT 40SM 05/M07 A3014 RMK AO1 T00501071






000
SXUS55 KMSO 190403
OSOMSO
MONTANA AWOS SUMMARY
NATIONAL WEATHER SERVICE MISSOULA MT
903 PM MST SAT APR 18 2015

Montana AWOS Reports

MALTA       |KM75 190355Z AUTO 00000KT 40SM 05/M07 A3015 RMK AO1 T00501071
PLAINS      |KS34 190355Z AUTO 00000KT 25SM 09/M07 A3014 RMK AO1 T00891066
LAUREL      |K6S8 190355Z AUTO 00000KT 40SM 04/M04 A3021 RMK AO1 T00391043
TWIN BRIDGES|K7S1 190355Z AUTO 34018G25KT 310V010 40SM 04/M04 A3013 RMK AO1 T00441043
ROUNDUP     |KRPX 190355Z AUTO 28009G14KT 40SM 06/M04 A3012 RMK AO1 T00561043






000
SXUS55 KMSO 190343
OSOMSO
MONTANA AWOS SUMMARY
NATIONAL WEATHER SERVICE MISSOULA MT
842 PM MST SAT APR 18 2015

Montana AWOS Reports

MALTA       |KM75 190335Z AUTO 30005KT 40SM 06/M07 A3014 RMK AO1 T00611071
LAUREL      |K6S8 190335Z AUTO 30004KT 40SM 04/M04 A3020 RMK AO1 T00441043
TWIN BRIDGES|K7S1 190335Z AUTO 36019G24KT 40SM 05/M04 A3013 RMK AO1 T00501043
ROUNDUP     |KRPX 190335Z AUTO 28010G16KT 40SM 06/M04 A3013 RMK AO1 T00561043






000
SXUS55 KMSO 190343
OSOMSO
MONTANA AWOS SUMMARY
NATIONAL WEATHER SERVICE MISSOULA MT
842 PM MST SAT APR 18 2015

Montana AWOS Reports

MALTA       |KM75 190335Z AUTO 30005KT 40SM 06/M07 A3014 RMK AO1 T00611071
LAUREL      |K6S8 190335Z AUTO 30004KT 40SM 04/M04 A3020 RMK AO1 T00441043
TWIN BRIDGES|K7S1 190335Z AUTO 36019G24KT 40SM 05/M04 A3013 RMK AO1 T00501043
ROUNDUP     |KRPX 190335Z AUTO 28010G16KT 40SM 06/M04 A3013 RMK AO1 T00561043






000
SXUS55 KMSO 190323
OSOMSO
MONTANA AWOS SUMMARY
NATIONAL WEATHER SERVICE MISSOULA MT
823 PM MST SAT APR 18 2015

Montana AWOS Reports

LAUREL      |K6S8 190315Z AUTO 34004KT 40SM 04/M04 A3019 RMK AO1 T00391043
TWIN BRIDGES|K7S1 190315Z AUTO 35017G26KT 40SM 06/M04 A3012 RMK AO1 T00561043
ROUNDUP     |KRPX 190315Z AUTO 28006KT 40SM 06/M04 A3013 RMK AO1 T00561038
MALTA       |KM75 190315Z AUTO 31006KT 40SM 07/M07 A3014 RMK AO1 T00721071






000
SXUS55 KMSO 190323
OSOMSO
MONTANA AWOS SUMMARY
NATIONAL WEATHER SERVICE MISSOULA MT
823 PM MST SAT APR 18 2015

Montana AWOS Reports

LAUREL      |K6S8 190315Z AUTO 34004KT 40SM 04/M04 A3019 RMK AO1 T00391043
TWIN BRIDGES|K7S1 190315Z AUTO 35017G26KT 40SM 06/M04 A3012 RMK AO1 T00561043
ROUNDUP     |KRPX 190315Z AUTO 28006KT 40SM 06/M04 A3013 RMK AO1 T00561038
MALTA       |KM75 190315Z AUTO 31006KT 40SM 07/M07 A3014 RMK AO1 T00721071






000
SXUS55 KMSO 190313
OSOMSO
MONTANA AWOS SUMMARY
NATIONAL WEATHER SERVICE MISSOULA MT
812 PM MST SAT APR 18 2015

Montana AWOS Reports

TWIN BRIDGES|K7S1 190255Z AUTO 34020G26KT 40SM 06/M04 A3011 RMK AO1 T00611043
SCOBEY      |K9S2 190255Z AUTO 32005KT 40SM 04/M07 A3005 RMK AO1 T00441066
EKALAKA     |K97M 190255Z AUTO 31015G25KT 40SM 08/M02 A3003 RMK AO1 T00781021
PLAINS      |KS34 190255Z AUTO 00000KT 40SM 13/M06 A3012 RMK AO1 T01331055
TWIN BRIDGES|K7S1 190255Z AUTO 34020G26KT 40SM 06/M04 A3011 RMK AO1 T00611043






000
SXUS55 KMSO 190303
OSOMSO
MONTANA AWOS SUMMARY
NATIONAL WEATHER SERVICE MISSOULA MT
803 PM MST SAT APR 18 2015

Montana AWOS Reports

LAUREL      |K6S8 190255Z AUTO 00000KT 40SM 05/M04 A3019 RMK AO1 T00501043
ROUNDUP     |KRPX 190255Z AUTO 30008KT 40SM 06/M04 A3012 RMK AO1 T00561043
MALTA       |KM75 190255Z AUTO 31008KT 40SM 08/M08 A3014 RMK AO1 T00781082






000
SXUS55 KMSO 190303
OSOMSO
MONTANA AWOS SUMMARY
NATIONAL WEATHER SERVICE MISSOULA MT
803 PM MST SAT APR 18 2015

Montana AWOS Reports

LAUREL      |K6S8 190255Z AUTO 00000KT 40SM 05/M04 A3019 RMK AO1 T00501043
ROUNDUP     |KRPX 190255Z AUTO 30008KT 40SM 06/M04 A3012 RMK AO1 T00561043
MALTA       |KM75 190255Z AUTO 31008KT 40SM 08/M08 A3014 RMK AO1 T00781082






000
SXUS55 KMSO 190243
OSOMSO
MONTANA AWOS SUMMARY
NATIONAL WEATHER SERVICE MISSOULA MT
743 PM MST SAT APR 18 2015

Montana AWOS Reports

ROUNDUP     |KRPX 190235Z AUTO 29007KT 40SM 06/M04 A3012 RMK AO1 T00611043
MALTA       |KM75 190235Z AUTO 31013G17KT 40SM 09/M08 A3013 RMK AO1 T00891082
LAUREL      |K6S8 190235Z AUTO 00000KT 40SM 06/M04 A3019 RMK AO1 T00611043
TWIN BRIDGES|K7S1 190235Z AUTO 34020G26KT 40SM 07/M04 A3010 RMK AO1 T00671043






000
SXUS55 KMSO 190243
OSOMSO
MONTANA AWOS SUMMARY
NATIONAL WEATHER SERVICE MISSOULA MT
743 PM MST SAT APR 18 2015

Montana AWOS Reports

ROUNDUP     |KRPX 190235Z AUTO 29007KT 40SM 06/M04 A3012 RMK AO1 T00611043
MALTA       |KM75 190235Z AUTO 31013G17KT 40SM 09/M08 A3013 RMK AO1 T00891082
LAUREL      |K6S8 190235Z AUTO 00000KT 40SM 06/M04 A3019 RMK AO1 T00611043
TWIN BRIDGES|K7S1 190235Z AUTO 34020G26KT 40SM 07/M04 A3010 RMK AO1 T00671043






000
SXUS55 KMSO 190223
OSOMSO
MONTANA AWOS SUMMARY
NATIONAL WEATHER SERVICE MISSOULA MT
723 PM MST SAT APR 18 2015

Montana AWOS Reports

ROUNDUP     |KRPX 190215Z AUTO 30008KT 40SM 07/M04 A3011 RMK AO1 T00671038
MALTA       |KM75 190215Z AUTO 31013G19KT 40SM 09/M08 A3012 RMK AO1 T00941082
LAUREL      |K6S8 190215Z AUTO 34005KT 40SM 07/M04 A3018 RMK AO1 T00671038
TWIN BRIDGES|K7S1 190215Z AUTO 34021G28KT 40SM 08/M04 A3009 RMK AO1 T00781043






000
SXUS55 KMSO 190213
OSOMSO
MONTANA AWOS SUMMARY
NATIONAL WEATHER SERVICE MISSOULA MT
713 PM MST SAT APR 18 2015

Montana AWOS Reports

SCOBEY      |K9S2 190155Z AUTO 31014G20KT 40SM 09/M06 A3004 RMK AO1 T00891060
EKALAKA     |K97M 190155Z AUTO 32013G18KT 40SM 09/M03 A3001 RMK AO1 T00941027






000
SXUS55 KMSO 190203
OSOMSO
MONTANA AWOS SUMMARY
NATIONAL WEATHER SERVICE MISSOULA MT
702 PM MST SAT APR 18 2015

Montana AWOS Reports

PLAINS      |KS34 190155Z AUTO 25008KT 40SM 18/M10 A3011 RMK AO1 T01831099
ROUNDUP     |KRPX 190155Z AUTO 29006KT 40SM 07/M04 A3010 RMK AO1 T00721038
MALTA       |KM75 190155Z AUTO 31014G18KT 40SM 10/M08 A3011 RMK AO1 T01001082
LAUREL      |K6S8 190155Z AUTO 34010G14KT 40SM 07/M04 A3017 RMK AO1 T00671038
TWIN BRIDGES|K7S1 190155Z AUTO 33018G29KT 40SM 08/M04 A3009 RMK AO1 T00831043






000
SXUS55 KMSO 190143
OSOMSO
MONTANA AWOS SUMMARY
NATIONAL WEATHER SERVICE MISSOULA MT
643 PM MST SAT APR 18 2015

Montana AWOS Reports

MALTA       |KM75 190135Z AUTO 30016G22KT 40SM 11/M08 A3011 RMK AO1 T01061082
LAUREL      |K6S8 190135Z AUTO 35004KT 40SM 08/M03 A3017 RMK AO1 T00781032
TWIN BRIDGES|K7S1 190135Z AUTO 34022G31KT 40SM 09/M04 A3008 RMK AO1 T00941038
ROUNDUP     |KRPX 190135Z AUTO 00000KT 40SM 08/M04 A3010 RMK AO1 T00831038






000
SXUS55 KMSO 190124
OSOMSO
MONTANA AWOS SUMMARY
NATIONAL WEATHER SERVICE MISSOULA MT
623 PM MST SAT APR 18 2015

Montana AWOS Reports

LAUREL      |K6S8 190115Z AUTO 34009G16KT 40SM 08/M03 A3016 RMK AO1 T00831032
ROUNDUP     |KRPX 190115Z AUTO 32016KT 40SM 09/M04 A3010 RMK AO1 T00891038
MALTA       |KM75 190115Z AUTO 31012G19KT 40SM 11/M07 A3011 RMK AO1 T01111071
TWIN BRIDGES|K7S1 190115Z AUTO 34022G32KT 40SM 11/M04 A3007 RMK AO1 T01061038






000
SXUS55 KMSO 190104
OSOMSO
MONTANA AWOS SUMMARY
NATIONAL WEATHER SERVICE MISSOULA MT
603 PM MST SAT APR 18 2015

Montana AWOS Reports

EKALAKA     |K97M 190055Z AUTO 32015G25KT 40SM 11/M01 A2998 RMK AO1 T01061005
MALTA       |KM75 190055Z AUTO 30018G23KT 40SM 12/M08 A3011 RMK AO1 T01221077
PLAINS      |KS34 190055Z AUTO 27008KT 25SM 20/M06 A3011 RMK AO1 T02001060
LAUREL      |K6S8 190055Z AUTO 34011G16KT 40SM 08/M03 A3016 RMK AO1 T00831027
TWIN BRIDGES|K7S1 190055Z AUTO 34023G31KT 40SM 11/M03 A3007 RMK AO1 T01111032
ROUNDUP     |KRPX 190055Z AUTO 31012G20KT 40SM 08/M04 A3009 RMK AO1 T00831038
SCOBEY      |K9S2 190055Z AUTO 31019G25KT 40SM 10/M06 A3003 RMK AO1 T01001060






000
SXUS55 KMSO 190043
OSOMSO
MONTANA AWOS SUMMARY
NATIONAL WEATHER SERVICE MISSOULA MT
543 PM MST SAT APR 18 2015

Montana AWOS Reports

ROUNDUP     |KRPX 190035Z AUTO 31011G23KT 40SM 09/M03 A3009 RMK AO1 T00891032
MALTA       |KM75 190035Z AUTO 30018G27KT 40SM 13/M07 A3010 RMK AO1 T01281071
LAUREL      |K6S8 190035Z AUTO 35015KT 40SM 09/M02 A3015 RMK AO1 T00941021
TWIN BRIDGES|K7S1 190035Z AUTO 34022G29KT 40SM 12/M04 A3007 RMK AO1 T01171038






000
SXUS55 KMSO 190023
OSOMSO
MONTANA AWOS SUMMARY
NATIONAL WEATHER SERVICE MISSOULA MT
523 PM MST SAT APR 18 2015

Montana AWOS Reports

MALTA       |KM75 190015Z AUTO 29019G25KT 40SM 12/M08 A3010 RMK AO1 T01221077
LAUREL      |K6S8 190015Z AUTO 35010G15KT 40SM 09/M02 A3015 RMK AO1 T00941016
TWIN BRIDGES|K7S1 190015Z AUTO 33022G30KT 40SM 12/M04 A3007 RMK AO1 T01221038
ROUNDUP     |KRPX 190015Z AUTO 31015G20KT 40SM 09/M04 A3009 RMK AO1 T00941038






000
SXUS55 KMSO 190023
OSOMSO
MONTANA AWOS SUMMARY
NATIONAL WEATHER SERVICE MISSOULA MT
523 PM MST SAT APR 18 2015

Montana AWOS Reports

MALTA       |KM75 190015Z AUTO 29019G25KT 40SM 12/M08 A3010 RMK AO1 T01221077
LAUREL      |K6S8 190015Z AUTO 35010G15KT 40SM 09/M02 A3015 RMK AO1 T00941016
TWIN BRIDGES|K7S1 190015Z AUTO 33022G30KT 40SM 12/M04 A3007 RMK AO1 T01221038
ROUNDUP     |KRPX 190015Z AUTO 31015G20KT 40SM 09/M04 A3009 RMK AO1 T00941038






000
SXUS55 KMSO 190013
OSOMSO
MONTANA AWOS SUMMARY
NATIONAL WEATHER SERVICE MISSOULA MT
512 PM MST SAT APR 18 2015

Montana AWOS Reports

PLAINS      |KS34 182355Z AUTO 26009G16KT 25SM 21/M06 A3011 RMK AO1 T02061055






000
SXUS55 KMSO 190003
OSOMSO
MONTANA AWOS SUMMARY
NATIONAL WEATHER SERVICE MISSOULA MT
503 PM MST SAT APR 18 2015

Montana AWOS Reports

SCOBEY      |K9S2 182355Z AUTO 30022G28KT 40SM 12/M07 A3002 RMK AO1 T01221066
EKALAKA     |K97M 182355Z AUTO 33018G25KT 40SM 11/03 A2995 RMK AO1 T01110028
ROUNDUP     |KRPX 182355Z AUTO 32017G23KT 40SM 09/M02 A3008 RMK AO1 T00941021
MALTA       |KM75 182355Z AUTO 31017KT 40SM 13/M07 A3010 RMK AO1 T01281066
LAUREL      |K6S8 182355Z AUTO 34012KT 40SM 10/M02 A3015 RMK AO1 T01001016
TWIN BRIDGES|K7S1 182355Z AUTO 33023G31KT 40SM 13/M03 A3006 RMK AO1 T01281032






000
SXUS55 KMSO 182344
OSOMSO
MONTANA AWOS SUMMARY
NATIONAL WEATHER SERVICE MISSOULA MT
443 PM MST SAT APR 18 2015

Montana AWOS Reports

ROUNDUP     |KRPX 182335Z AUTO 33014G22KT 40SM 09/M02 A3008 RMK AO1 T00941021
MALTA       |KM75 182335Z AUTO 29019G25KT 40SM 12/M07 A3010 RMK AO1 T01221066
LAUREL      |K6S8 182335Z AUTO 34010G14KT 40SM 09/M03 A3015 RMK AO1 T00891027
TWIN BRIDGES|K7S1 182335Z AUTO 33021G30KT 40SM 13/M03 A3006 RMK AO1 T01331032






000
SXUS55 KMSO 182323
OSOMSO
MONTANA AWOS SUMMARY
NATIONAL WEATHER SERVICE MISSOULA MT
423 PM MST SAT APR 18 2015

Montana AWOS Reports

LAUREL      |K6S8 182315Z AUTO 34013G17KT 40SM 09/M03 A3015 RMK AO1 T00891027
TWIN BRIDGES|K7S1 182315Z AUTO 34023G29KT 40SM 13/M04 A3006 RMK AO1 T01331038
ROUNDUP     |KRPX 182315Z AUTO 33016G22KT 40SM 09/M02 A3008 RMK AO1 T00891016
MALTA       |KM75 182315Z AUTO 30014G21KT 40SM 12/M07 A3009 RMK AO1 T01221066
MALTA       |KM75 182255Z AUTO 29020G25KT 40SM 13/M06 A3009 RMK AO1 T01281060






000
SXUS55 KMSO 182303
OSOMSO
MONTANA AWOS SUMMARY
NATIONAL WEATHER SERVICE MISSOULA MT
403 PM MST SAT APR 18 2015

Montana AWOS Reports

PLAINS      |KS34 182255Z AUTO 26011G15KT 25SM 21/M07 A3012 RMK AO1 T02061071
ROUNDUP     |KRPX 182255Z AUTO 32017G25KT 40SM 08/M02 A3008 RMK AO1 T00831016
EKALAKA     |K97M 182255Z AUTO 32018G27KT 15SM 11/06 A2994 RMK AO1 T01110056
LAUREL      |K6S8 182255Z AUTO 34014G18KT 40SM 10/M02 A3014 RMK AO1 T01001016
TWIN BRIDGES|K7S1 182255Z AUTO 33023G30KT 300V360 40SM 13/M04 A3006 RMK AO1 T01331038
SCOBEY      |K9S2 182255Z AUTO 29021G25KT 40SM 12/M05 A3002 RMK AO1 T01221049






000
SXUS55 KMSO 182243
OSOMSO
MONTANA AWOS SUMMARY
NATIONAL WEATHER SERVICE MISSOULA MT
343 PM MST SAT APR 18 2015

Montana AWOS Reports

ROUNDUP     |KRPX 182235Z AUTO 34015G22KT 40SM 08/M01 A3008 RMK AO1 T00831010
MALTA       |KM75 182235Z AUTO 29018G24KT 40SM 13/M06 A3009 RMK AO1 T01331055
LAUREL      |K6S8 182235Z AUTO 34014G19KT 40SM 10/M02 A3013 RMK AO1 T01001016
TWIN BRIDGES|K7S1 182235Z AUTO 34025G30KT 40SM 14/M03 A3006 RMK AO1 T01391032






000
SXUS55 KMSO 182223
OSOMSO
MONTANA AWOS SUMMARY
NATIONAL WEATHER SERVICE MISSOULA MT
323 PM MST SAT APR 18 2015

Montana AWOS Reports

LAUREL      |K6S8 182215Z AUTO 35015G21KT 310V030 40SM 10/M01 A3011 RMK AO1 T01001010
TWIN BRIDGES|K7S1 182215Z AUTO 33022G29KT 40SM 14/M03 A3006 RMK AO1 T01391032
ROUNDUP     |KRPX 182215Z AUTO 17014G20KT 080V260 40SM 07/M02 A3008 RMK AO1 T00721016
MALTA       |KM75 182215Z AUTO 28016G29KT 40SM 14/M05 A3008 RMK AO1 T01391049






000
SXUS55 KMSO 182223
OSOMSO
MONTANA AWOS SUMMARY
NATIONAL WEATHER SERVICE MISSOULA MT
323 PM MST SAT APR 18 2015

Montana AWOS Reports

LAUREL      |K6S8 182215Z AUTO 35015G21KT 310V030 40SM 10/M01 A3011 RMK AO1 T01001010
TWIN BRIDGES|K7S1 182215Z AUTO 33022G29KT 40SM 14/M03 A3006 RMK AO1 T01391032
ROUNDUP     |KRPX 182215Z AUTO 17014G20KT 080V260 40SM 07/M02 A3008 RMK AO1 T00721016
MALTA       |KM75 182215Z AUTO 28016G29KT 40SM 14/M05 A3008 RMK AO1 T01391049






000
SXUS55 KMSO 182213
OSOMSO
MONTANA AWOS SUMMARY
NATIONAL WEATHER SERVICE MISSOULA MT
313 PM MST SAT APR 18 2015

Montana AWOS Reports

SCOBEY      |K9S2 182155Z AUTO 30026G32KT 40SM 12/M04 A3003 RMK AO1 T01221038
EKALAKA     |K97M 182155Z AUTO 31018G28KT 40SM 14/04 A2992 RMK AO1 T01390039






000
SXUS55 KMSO 182203
OSOMSO
MONTANA AWOS SUMMARY
NATIONAL WEATHER SERVICE MISSOULA MT
303 PM MST SAT APR 18 2015

Montana AWOS Reports

ROUNDUP     |KRPX 182155Z AUTO 34013G19KT 40SM 08/M02 A3008 RMK AO1 T00781016
MALTA       |KM75 182155Z AUTO 29018G24KT 40SM 14/M06 A3008 RMK AO1 T01441055
PLAINS      |KS34 182155Z AUTO 27006KT 25SM 21/M07 A3014 RMK AO1 T02061071
LAUREL      |K6S8 182155Z AUTO 35014G22KT 310V030 40SM 11/M01 A3010 RMK AO1 T01061010
TWIN BRIDGES|K7S1 182155Z AUTO 34020G27KT 40SM 14/M03 A3006 RMK AO1 T01441027






000
SXUS55 KMSO 182153
OSOMSO
MONTANA AWOS SUMMARY
NATIONAL WEATHER SERVICE MISSOULA MT
252 PM MST SAT APR 18 2015

Montana AWOS Reports

EKALAKA     |K97M 182055Z AUTO 00000KT 40SM 17/03 A2990 RMK AO1 T01720033






000
SXUS55 KMSO 182153
OSOMSO
MONTANA AWOS SUMMARY
NATIONAL WEATHER SERVICE MISSOULA MT
252 PM MST SAT APR 18 2015

Montana AWOS Reports

EKALAKA     |K97M 182055Z AUTO 00000KT 40SM 17/03 A2990 RMK AO1 T01720033






000
SXUS55 KMSO 182143
OSOMSO
MONTANA AWOS SUMMARY
NATIONAL WEATHER SERVICE MISSOULA MT
243 PM MST SAT APR 18 2015

Montana AWOS Reports

ROUNDUP     |KRPX 182135Z AUTO 34017G25KT 40SM 07/M02 A3007 RMK AO1 T00721016
MALTA       |KM75 182135Z AUTO 31021G26KT 40SM 14/M05 A3008 RMK AO1 T01391049
LAUREL      |K6S8 182135Z AUTO 34022G26KT 40SM 13/00 A3009 RMK AO1 T01280000
TWIN BRIDGES|K7S1 182135Z AUTO 34022G28KT 40SM 14/M03 A3006 RMK AO1 T01441032






000
SXUS55 KMSO 182123
OSOMSO
MONTANA AWOS SUMMARY
NATIONAL WEATHER SERVICE MISSOULA MT
223 PM MST SAT APR 18 2015

Montana AWOS Reports

MALTA       |KM75 182115Z AUTO 28022G27KT 40SM 14/M04 A3008 RMK AO1 T01391038
LAUREL      |K6S8 182115Z AUTO 33019G25KT 40SM 14/M01 A3008 RMK AO1 T01391005
TWIN BRIDGES|K7S1 182115Z AUTO 34017G24KT 40SM 16/M03 A3006 RMK AO1 T01561032
ROUNDUP     |KRPX 182115Z AUTO 33015G24KT 40SM 08/M01 A3006 RMK AO1 T00831010






000
SXUS55 KMSO 182103
OSOMSO
MONTANA AWOS SUMMARY
NATIONAL WEATHER SERVICE MISSOULA MT
202 PM MST SAT APR 18 2015

Montana AWOS Reports

PLAINS      |KS34 182055Z AUTO 28012G18KT 10SM 20/M09 A3015 RMK AO1 T02001093
ROUNDUP     |KRPX 182055Z AUTO 34022G29KT 40SM 09/M01 A3005 RMK AO1 T00891010
MALTA       |KM75 182055Z AUTO 30018G26KT 40SM 13/M03 A3008 RMK AO1 T01331032
SCOBEY      |K9S2 182055Z AUTO 33022G28KT 40SM 14/M03 A3000 RMK AO1 T01391032
TWIN BRIDGES|K7S1 182055Z AUTO 34016G21KT 40SM 16/M03 A3006 RMK AO1 T01561032






000
SXUS55 KMSO 182043
OSOMSO
MONTANA AWOS SUMMARY
NATIONAL WEATHER SERVICE MISSOULA MT
143 PM MST SAT APR 18 2015

Montana AWOS Reports

ROUNDUP     |KRPX 182035Z AUTO 32019G30KT 40SM 08/M01 A3005 RMK AO1 T00831005
MALTA       |KM75 182035Z AUTO 30012G21KT 40SM 13/M02 A3009 RMK AO1 T01331021
LAUREL      |K6S8 182035Z AUTO 33016G24KT 40SM 13/M01 A3007 RMK AO1 T01331005
TWIN BRIDGES|K7S1 182035Z AUTO 31016G22KT 40SM 16/M03 A3007 RMK AO1 T01611027






000
SXUS55 KMSO 182043
OSOMSO
MONTANA AWOS SUMMARY
NATIONAL WEATHER SERVICE MISSOULA MT
143 PM MST SAT APR 18 2015

Montana AWOS Reports

ROUNDUP     |KRPX 182035Z AUTO 32019G30KT 40SM 08/M01 A3005 RMK AO1 T00831005
MALTA       |KM75 182035Z AUTO 30012G21KT 40SM 13/M02 A3009 RMK AO1 T01331021
LAUREL      |K6S8 182035Z AUTO 33016G24KT 40SM 13/M01 A3007 RMK AO1 T01331005
TWIN BRIDGES|K7S1 182035Z AUTO 31016G22KT 40SM 16/M03 A3007 RMK AO1 T01611027






000
SXUS55 KMSO 182023
OSOMSO
MONTANA AWOS SUMMARY
NATIONAL WEATHER SERVICE MISSOULA MT
123 PM MST SAT APR 18 2015

Montana AWOS Reports

ROUNDUP     |KRPX 182015Z AUTO 32019G30KT 40SM 09/00 A3004 RMK AO1 T00940000
MALTA       |KM75 182015Z AUTO 28019G24KT 40SM 12/M01 A3010 RMK AO1 T01221005
LAUREL      |K6S8 182015Z AUTO 33019G24KT 40SM 15/00 A3005 RMK AO1 T01500000
TWIN BRIDGES|K7S1 182015Z AUTO 34011G20KT 40SM 16/M06 A3007 RMK AO1 T01611055






000
SXUS55 KMSO 182013
OSOMSO
MONTANA AWOS SUMMARY
NATIONAL WEATHER SERVICE MISSOULA MT
112 PM MST SAT APR 18 2015

Montana AWOS Reports

SCOBEY      |K9S2 181955Z AUTO 32024G30KT 40SM 14/M03 A2997 RMK AO1 T01391032
EKALAKA     |K97M 181955Z AUTO 26008KT 40SM 17/03 A2992 RMK AO1 T01720028
PLAINS      |KS34 181955Z AUTO 33008KT 40SM 19/M07 A3015 RMK AO1 T01891071






000
SXUS55 KMSO 182013
OSOMSO
MONTANA AWOS SUMMARY
NATIONAL WEATHER SERVICE MISSOULA MT
112 PM MST SAT APR 18 2015

Montana AWOS Reports

SCOBEY      |K9S2 181955Z AUTO 32024G30KT 40SM 14/M03 A2997 RMK AO1 T01391032
EKALAKA     |K97M 181955Z AUTO 26008KT 40SM 17/03 A2992 RMK AO1 T01720028
PLAINS      |KS34 181955Z AUTO 33008KT 40SM 19/M07 A3015 RMK AO1 T01891071






000
SXUS55 KMSO 182003
OSOMSO
MONTANA AWOS SUMMARY
NATIONAL WEATHER SERVICE MISSOULA MT
103 PM MST SAT APR 18 2015

Montana AWOS Reports

LAUREL      |K6S8 181955Z AUTO 33014G23KT 40SM 16/M01 A3004 RMK AO1 T01561005
ROUNDUP     |KRPX 181955Z AUTO 33020G28KT 40SM 11/01 A3003 RMK AO1 T01060006
MALTA       |KM75 181955Z AUTO 28018G27KT 40SM 12/00 A3009 RMK AO1 T01220000
TWIN BRIDGES|K7S1 181955Z AUTO 36014G21KT 40SM 16/M06 A3007 RMK AO1 T01611055






000
SXUS55 KMSO 181944
OSOMSO
MONTANA AWOS SUMMARY
NATIONAL WEATHER SERVICE MISSOULA MT
1243 PM MST SAT APR 18 2015

Montana AWOS Reports

LAUREL      |K6S8 181935Z AUTO 34013G19KT 40SM 18/01 A3002 RMK AO1 T01830006
ROUNDUP     |KRPX 181935Z AUTO 33017G33KT 40SM 12/01 A3001 RMK AO1 T01220006
MALTA       |KM75 181935Z AUTO 28021G26KT 40SM 12/M02 A3009 RMK AO1 T01221016
TWIN BRIDGES|K7S1 181935Z AUTO 35014G18KT 40SM 16/M07 A3007 RMK AO1 T01611066






000
SXUS55 KMSO 181944
OSOMSO
MONTANA AWOS SUMMARY
NATIONAL WEATHER SERVICE MISSOULA MT
1243 PM MST SAT APR 18 2015

Montana AWOS Reports

LAUREL      |K6S8 181935Z AUTO 34013G19KT 40SM 18/01 A3002 RMK AO1 T01830006
ROUNDUP     |KRPX 181935Z AUTO 33017G33KT 40SM 12/01 A3001 RMK AO1 T01220006
MALTA       |KM75 181935Z AUTO 28021G26KT 40SM 12/M02 A3009 RMK AO1 T01221016
TWIN BRIDGES|K7S1 181935Z AUTO 35014G18KT 40SM 16/M07 A3007 RMK AO1 T01611066






000
SXUS55 KMSO 181923
OSOMSO
MONTANA AWOS SUMMARY
NATIONAL WEATHER SERVICE MISSOULA MT
1223 PM MST SAT APR 18 2015

Montana AWOS Reports

ROUNDUP     |KRPX 181915Z AUTO 34022G29KT 40SM 12/00 A2999 RMK AO1 T01220000
MALTA       |KM75 181915Z AUTO 31016G23KT 40SM 12/M02 A3008 RMK AO1 T01221016
LAUREL      |K6S8 181915Z AUTO 32014G21KT 40SM 19/M02 A3001 RMK AO1 T01891016
TWIN BRIDGES|K7S1 181915Z AUTO 34012G17KT 40SM 16/M06 A3008 RMK AO1 T01611060






000
SXUS55 KMSO 181903
OSOMSO
MONTANA AWOS SUMMARY
NATIONAL WEATHER SERVICE MISSOULA MT
1203 PM MST SAT APR 18 2015

Montana AWOS Reports

SCOBEY      |K9S2 181855Z AUTO 33022G31KT 40SM 13/M02 A2996 RMK AO1 T01331021
LAUREL      |K6S8 181855Z AUTO 30016G20KT 40SM 19/M01 A3001 RMK AO1 T01891010
TWIN BRIDGES|K7S1 181855Z AUTO 36009G16KT 40SM 16/M06 A3008 RMK AO1 T01561055
ROUNDUP     |KRPX 181855Z AUTO 32020G26KT 40SM 12/00 A2998 RMK AO1 T01220000
MALTA       |KM75 181855Z AUTO 31020G24KT 40SM 12/M02 A3009 RMK AO1 T01221016
EKALAKA     |K97M 181855Z AUTO 00000KT 40SM 17/04 A2993 RMK AO1 T01670044
PLAINS      |KS34 181855Z AUTO 00000KT 40SM 18/M02 A3017 RMK AO1 T01781016






000
SXUS55 KMSO 181843
OSOMSO
MONTANA AWOS SUMMARY
NATIONAL WEATHER SERVICE MISSOULA MT
1143 AM MST SAT APR 18 2015

Montana AWOS Reports

ROUNDUP     |KRPX 181835Z AUTO 32024G29KT 40SM 14/01 A2997 RMK AO1 T01390006
MALTA       |KM75 181835Z AUTO 32015G24KT 40SM 12/M01 A3008 RMK AO1 T01221010
LAUREL      |K6S8 181835Z AUTO 30014G18KT 40SM 18/M02 A3001 RMK AO1 T01831021
TWIN BRIDGES|K7S1 181835Z AUTO 36011G20KT 40SM 16/M07 A3008 RMK AO1 T01611066






000
SXUS55 KMSO 181823
OSOMSO
MONTANA AWOS SUMMARY
NATIONAL WEATHER SERVICE MISSOULA MT
1122 AM MST SAT APR 18 2015

Montana AWOS Reports

ROUNDUP     |KRPX 181815Z AUTO 34018G29KT 40SM 14/01 A2997 RMK AO1 T01440011
MALTA       |KM75 181815Z AUTO 33018G23KT 40SM 11/M02 A3008 RMK AO1 T01111016
LAUREL      |K6S8 181815Z AUTO 31013G20KT 40SM 18/M02 A3001 RMK AO1 T01831016
TWIN BRIDGES|K7S1 181815Z AUTO 34013G17KT 40SM 15/M06 A3008 RMK AO1 T01501055






000
SXUS55 KMSO 181803
OSOMSO
MONTANA AWOS SUMMARY
NATIONAL WEATHER SERVICE MISSOULA MT
1103 AM MST SAT APR 18 2015

Montana AWOS Reports

SCOBEY      |K9S2 181755Z AUTO 33019G27KT 40SM 12/00 A2996 RMK AO1 T01220000
PLAINS      |KS34 181755Z AUTO 08005KT 40SM 17/00 A3018 RMK AO1 T01720000
LAUREL      |K6S8 181755Z AUTO 30012G17KT 40SM 18/M02 A3001 RMK AO1 T01781021
TWIN BRIDGES|K7S1 181755Z AUTO 35010G15KT 40SM 14/M06 A3009 RMK AO1 T01441055
ROUNDUP     |KRPX 181755Z AUTO 34019G27KT 40SM 15/01 A2996 RMK AO1 T01500011
MALTA       |KM75 181755Z AUTO 30018G22KT 40SM 12/M01 A3008 RMK AO1 T01171010
EKALAKA     |K97M 181755Z AUTO 13007KT 40SM 16/04 A2994 RMK AO1 T01610044






000
SXUS55 KMSO 181803
OSOMSO
MONTANA AWOS SUMMARY
NATIONAL WEATHER SERVICE MISSOULA MT
1103 AM MST SAT APR 18 2015

Montana AWOS Reports

SCOBEY      |K9S2 181755Z AUTO 33019G27KT 40SM 12/00 A2996 RMK AO1 T01220000
PLAINS      |KS34 181755Z AUTO 08005KT 40SM 17/00 A3018 RMK AO1 T01720000
LAUREL      |K6S8 181755Z AUTO 30012G17KT 40SM 18/M02 A3001 RMK AO1 T01781021
TWIN BRIDGES|K7S1 181755Z AUTO 35010G15KT 40SM 14/M06 A3009 RMK AO1 T01441055
ROUNDUP     |KRPX 181755Z AUTO 34019G27KT 40SM 15/01 A2996 RMK AO1 T01500011
MALTA       |KM75 181755Z AUTO 30018G22KT 40SM 12/M01 A3008 RMK AO1 T01171010
EKALAKA     |K97M 181755Z AUTO 13007KT 40SM 16/04 A2994 RMK AO1 T01610044






000
SXUS55 KMSO 181743
OSOMSO
MONTANA AWOS SUMMARY
NATIONAL WEATHER SERVICE MISSOULA MT
1042 AM MST SAT APR 18 2015

Montana AWOS Reports

LAUREL      |K6S8 181735Z AUTO 32010G16KT 40SM 18/M02 A3001 RMK AO1 T01781016
ROUNDUP     |KRPX 181735Z AUTO 34018G29KT 40SM 15/01 A2996 RMK AO1 T01500011
MALTA       |KM75 181735Z AUTO 31013G22KT 40SM 11/00 A3007 RMK AO1 T01110000
TWIN BRIDGES|K7S1 181735Z AUTO 32008KT 290V350 40SM 14/M03 A3010 RMK AO1 T01391032






000
SXUS55 KMSO 181723
OSOMSO
MONTANA AWOS SUMMARY
NATIONAL WEATHER SERVICE MISSOULA MT
1023 AM MST SAT APR 18 2015

Montana AWOS Reports

LAUREL      |K6S8 181715Z AUTO 32011G15KT 40SM 18/M01 A3001 RMK AO1 T01781010
ROUNDUP     |KRPX 181715Z AUTO 33017G26KT 40SM 15/M01 A2995 RMK AO1 T01501010
MALTA       |KM75 181715Z AUTO 32016G23KT 40SM 12/00 A3006 RMK AO1 T01170000
TWIN BRIDGES|K7S1 181715Z AUTO 31004KT 40SM 13/M04 A3010 RMK AO1 T01331038






000
SXUS55 KMSO 181723
OSOMSO
MONTANA AWOS SUMMARY
NATIONAL WEATHER SERVICE MISSOULA MT
1023 AM MST SAT APR 18 2015

Montana AWOS Reports

LAUREL      |K6S8 181715Z AUTO 32011G15KT 40SM 18/M01 A3001 RMK AO1 T01781010
ROUNDUP     |KRPX 181715Z AUTO 33017G26KT 40SM 15/M01 A2995 RMK AO1 T01501010
MALTA       |KM75 181715Z AUTO 32016G23KT 40SM 12/00 A3006 RMK AO1 T01170000
TWIN BRIDGES|K7S1 181715Z AUTO 31004KT 40SM 13/M04 A3010 RMK AO1 T01331038






000
SXUS55 KMSO 181713
OSOMSO
MONTANA AWOS SUMMARY
NATIONAL WEATHER SERVICE MISSOULA MT
1013 AM MST SAT APR 18 2015

Montana AWOS Reports

SCOBEY      |K9S2 181655Z AUTO 33020G25KT 25SM 11/00 A2995 RMK AO1 T01110000
PLAINS      |KS34 181655Z AUTO 00000KT 40SM 14/03 A3018 RMK AO1 T01390028
EKALAKA     |K97M 181655Z AUTO 12008KT 40SM 16/05 A2996 RMK AO1 T01560050






000
SXUS55 KMSO 181703
OSOMSO
MONTANA AWOS SUMMARY
NATIONAL WEATHER SERVICE MISSOULA MT
1003 AM MST SAT APR 18 2015

Montana AWOS Reports

LAUREL      |K6S8 181655Z AUTO 34006KT 40SM 18/00 A3000 RMK AO1 T01780000
TWIN BRIDGES|K7S1 181655Z AUTO 29007KT 40SM 13/M02 A3011 RMK AO1 T01281021
ROUNDUP     |KRPX 181655Z AUTO 34018G25KT 40SM 16/M02 A2994 RMK AO1 T01561016
MALTA       |KM75 181655Z AUTO 33015G23KT 40SM 11/00 A3006 RMK AO1 T01110000






000
SXUS55 KMSO 181703
OSOMSO
MONTANA AWOS SUMMARY
NATIONAL WEATHER SERVICE MISSOULA MT
1003 AM MST SAT APR 18 2015

Montana AWOS Reports

LAUREL      |K6S8 181655Z AUTO 34006KT 40SM 18/00 A3000 RMK AO1 T01780000
TWIN BRIDGES|K7S1 181655Z AUTO 29007KT 40SM 13/M02 A3011 RMK AO1 T01281021
ROUNDUP     |KRPX 181655Z AUTO 34018G25KT 40SM 16/M02 A2994 RMK AO1 T01561016
MALTA       |KM75 181655Z AUTO 33015G23KT 40SM 11/00 A3006 RMK AO1 T01110000






000
SXUS55 KMSO 181644
OSOMSO
MONTANA AWOS SUMMARY
NATIONAL WEATHER SERVICE MISSOULA MT
943 AM MST SAT APR 18 2015

Montana AWOS Reports

LAUREL      |K6S8 181635Z AUTO 00000KT 40SM 17/01 A3001 RMK AO1 T01670011
ROUNDUP     |KRPX 181635Z AUTO 34010G18KT 40SM 16/M03 A2994 RMK AO1 T01611032
MALTA       |KM75 181635Z AUTO 32020G25KT 40SM 12/02 A3005 RMK AO1 T01220017
TWIN BRIDGES|K7S1 181635Z AUTO 32005KT 40SM 12/M02 A3011 RMK AO1 T01171016






000
SXUS55 KMSO 181633
OSOMSO
MONTANA AWOS SUMMARY
NATIONAL WEATHER SERVICE MISSOULA MT
933 AM MST SAT APR 18 2015

Montana AWOS Reports

ROUNDUP     |KRPX 181615Z AUTO 33013G19KT 40SM 16/M03 A2993 RMK AO1 T01611032
MALTA       |KM75 181615Z AUTO 34010G22KT 40SM 11/02 A3004 RMK AO1 T01110017
LAUREL      |K6S8 181615Z AUTO 00000KT 40SM 14/01 A3000 RMK AO1 T01440006
TWIN BRIDGES|K7S1 181615Z AUTO 00000KT 40SM 09/M01 A3011 RMK AO1 T00941010






000
SXUS55 KMSO 181613
OSOMSO
MONTANA AWOS SUMMARY
NATIONAL WEATHER SERVICE MISSOULA MT
913 AM MST SAT APR 18 2015

Montana AWOS Reports

PLAINS      |KS34 181555Z AUTO 00000KT 40SM 10/03 A3018 RMK AO1 T01000033
SCOBEY      |K9S2 181555Z AUTO 31011G17KT 40SM 12/M02 A2992 RMK AO1 T01221016
EKALAKA     |K97M 181555Z AUTO 14013G18KT 40SM 14/04 A2997 RMK AO1 T01390039






000
SXUS55 KMSO 181613
OSOMSO
MONTANA AWOS SUMMARY
NATIONAL WEATHER SERVICE MISSOULA MT
913 AM MST SAT APR 18 2015

Montana AWOS Reports

PLAINS      |KS34 181555Z AUTO 00000KT 40SM 10/03 A3018 RMK AO1 T01000033
SCOBEY      |K9S2 181555Z AUTO 31011G17KT 40SM 12/M02 A2992 RMK AO1 T01221016
EKALAKA     |K97M 181555Z AUTO 14013G18KT 40SM 14/04 A2997 RMK AO1 T01390039






000
SXUS55 KMSO 181603
OSOMSO
MONTANA AWOS SUMMARY
NATIONAL WEATHER SERVICE MISSOULA MT
903 AM MST SAT APR 18 2015

Montana AWOS Reports

LAUREL      |K6S8 181555Z AUTO 19005KT 40SM 13/01 A3000 RMK AO1 T01330011
TWIN BRIDGES|K7S1 181555Z AUTO 00000KT 40SM 08/M01 A3011 RMK AO1 T00831005
ROUNDUP     |KRPX 181555Z AUTO 30014G18KT 40SM 16/M03 A2993 RMK AO1 T01561032
MALTA       |KM75 181555Z AUTO 33014G24KT 40SM 12/02 A3003 RMK AO1 T01170022






000
SXUS55 KMSO 181553
OSOMSO
MONTANA AWOS SUMMARY
NATIONAL WEATHER SERVICE MISSOULA MT
852 AM MST SAT APR 18 2015

Montana AWOS Reports

LAUREL      |K6S8 181535Z AUTO 20007KT 40SM 12/01 A3000 RMK AO1 T01170011






000
SXUS55 KMSO 181543
OSOMSO
MONTANA AWOS SUMMARY
NATIONAL WEATHER SERVICE MISSOULA MT
843 AM MST SAT APR 18 2015

Montana AWOS Reports

ROUNDUP     |KRPX 181535Z AUTO 00000KT 40SM 13/M02 A2993 RMK AO1 T01331021
MALTA       |KM75 181535Z AUTO 32019G26KT 40SM 11/02 A3001 RMK AO1 T01060017






000
SXUS55 KMSO 181523
OSOMSO
MONTANA AWOS SUMMARY
NATIONAL WEATHER SERVICE MISSOULA MT
823 AM MST SAT APR 18 2015

Montana AWOS Reports

ROUNDUP     |KRPX 181515Z AUTO 00000KT 40SM 12/M01 A2993 RMK AO1 T01171010
MALTA       |KM75 181515Z AUTO 33022G30KT 40SM 11/02 A2998 RMK AO1 T01060022
LAUREL      |K6S8 181515Z AUTO 00000KT 40SM 11/02 A3001 RMK AO1 T01060017
TWIN BRIDGES|K7S1 181515Z AUTO 00000KT 40SM 06/M03 A3011 RMK AO1 T00611027






000
SXUS55 KMSO 181523
OSOMSO
MONTANA AWOS SUMMARY
NATIONAL WEATHER SERVICE MISSOULA MT
823 AM MST SAT APR 18 2015

Montana AWOS Reports

ROUNDUP     |KRPX 181515Z AUTO 00000KT 40SM 12/M01 A2993 RMK AO1 T01171010
MALTA       |KM75 181515Z AUTO 33022G30KT 40SM 11/02 A2998 RMK AO1 T01060022
LAUREL      |K6S8 181515Z AUTO 00000KT 40SM 11/02 A3001 RMK AO1 T01060017
TWIN BRIDGES|K7S1 181515Z AUTO 00000KT 40SM 06/M03 A3011 RMK AO1 T00611027






000
SXUS55 KMSO 181513
OSOMSO
MONTANA AWOS SUMMARY
NATIONAL WEATHER SERVICE MISSOULA MT
813 AM MST SAT APR 18 2015

Montana AWOS Reports

PLAINS      |KS34 181455Z AUTO 00000KT 25SM 05/01 A3017 RMK AO1 T00500011






000
SXUS55 KMSO 181503
OSOMSO
MONTANA AWOS SUMMARY
NATIONAL WEATHER SERVICE MISSOULA MT
803 AM MST SAT APR 18 2015

Montana AWOS Reports

SCOBEY      |K9S2 181455Z AUTO 23006KT 25SM 11/M02 A2992 RMK AO1 T01061021
EKALAKA     |K97M 181455Z AUTO 13007KT 40SM 13/04 A2997 RMK AO1 T01330039
LAUREL      |K6S8 181455Z AUTO 18004KT 40SM 09/01 A3000 RMK AO1 T00890006
ROUNDUP     |KRPX 181455Z AUTO 20006KT 40SM 10/M01 A2992 RMK AO1 T01001010
MALTA       |KM75 181455Z AUTO 33023G29KT 40SM 11/02 A2997 RMK AO1 T01060017
TWIN BRIDGES|K7S1 181455Z AUTO 00000KT 40SM 06/M02 A3011 RMK AO1 T00611016






000
SXUS55 KMSO 181503
OSOMSO
MONTANA AWOS SUMMARY
NATIONAL WEATHER SERVICE MISSOULA MT
803 AM MST SAT APR 18 2015

Montana AWOS Reports

SCOBEY      |K9S2 181455Z AUTO 23006KT 25SM 11/M02 A2992 RMK AO1 T01061021
EKALAKA     |K97M 181455Z AUTO 13007KT 40SM 13/04 A2997 RMK AO1 T01330039
LAUREL      |K6S8 181455Z AUTO 18004KT 40SM 09/01 A3000 RMK AO1 T00890006
ROUNDUP     |KRPX 181455Z AUTO 20006KT 40SM 10/M01 A2992 RMK AO1 T01001010
MALTA       |KM75 181455Z AUTO 33023G29KT 40SM 11/02 A2997 RMK AO1 T01060017
TWIN BRIDGES|K7S1 181455Z AUTO 00000KT 40SM 06/M02 A3011 RMK AO1 T00611016






000
SXUS55 KMSO 181444
OSOMSO
MONTANA AWOS SUMMARY
NATIONAL WEATHER SERVICE MISSOULA MT
743 AM MST SAT APR 18 2015

Montana AWOS Reports

LAUREL      |K6S8 181435Z AUTO 00000KT 40SM 07/01 A3001 RMK AO1 T00720006
ROUNDUP     |KRPX 181435Z AUTO 21005KT 40SM 08/M02 A2992 RMK AO1 T00831016
MALTA       |KM75 181435Z AUTO 34025G30KT 40SM 11/02 A2995 RMK AO1 T01060022
TWIN BRIDGES|K7S1 181435Z AUTO 00000KT 40SM 05/M03 A3011 RMK AO1 T00501032






000
SXUS55 KMSO 181423
OSOMSO
MONTANA AWOS SUMMARY
NATIONAL WEATHER SERVICE MISSOULA MT
723 AM MST SAT APR 18 2015

Montana AWOS Reports

ROUNDUP     |KRPX 181415Z AUTO 20008KT 40SM 06/M03 A2992 RMK AO1 T00611027
MALTA       |KM75 181415Z AUTO 35019G27KT 40SM 11/03 A2993 RMK AO1 T01060028
LAUREL      |K6S8 181415Z AUTO 00000KT 40SM 06/M01 A3000 RMK AO1 T00561005
TWIN BRIDGES|K7S1 181415Z AUTO 00000KT 40SM 03/M03 A3011 RMK AO1 T00281032






000
SXUS55 KMSO 181423
OSOMSO
MONTANA AWOS SUMMARY
NATIONAL WEATHER SERVICE MISSOULA MT
723 AM MST SAT APR 18 2015

Montana AWOS Reports

ROUNDUP     |KRPX 181415Z AUTO 20008KT 40SM 06/M03 A2992 RMK AO1 T00611027
MALTA       |KM75 181415Z AUTO 35019G27KT 40SM 11/03 A2993 RMK AO1 T01060028
LAUREL      |K6S8 181415Z AUTO 00000KT 40SM 06/M01 A3000 RMK AO1 T00561005
TWIN BRIDGES|K7S1 181415Z AUTO 00000KT 40SM 03/M03 A3011 RMK AO1 T00281032






000
SXUS55 KMSO 181414
OSOMSO
MONTANA AWOS SUMMARY
NATIONAL WEATHER SERVICE MISSOULA MT
713 AM MST SAT APR 18 2015

Montana AWOS Reports

EKALAKA     |K97M 181355Z AUTO 00000KT 40SM 09/04 A2998 RMK AO1 T00940044






000
SXUS55 KMSO 181403
OSOMSO
MONTANA AWOS SUMMARY
NATIONAL WEATHER SERVICE MISSOULA MT
703 AM MST SAT APR 18 2015

Montana AWOS Reports

LAUREL      |K6S8 181355Z AUTO 00000KT 40SM 04/M01 A3000 RMK AO1 T00441005
TWIN BRIDGES|K7S1 181355Z AUTO 00000KT 40SM 01/M04 A3011 RMK AO1 T00111043
ROUNDUP     |KRPX 181355Z AUTO 19007KT 40SM 06/M03 A2992 RMK AO1 T00611027
MALTA       |KM75 181355Z AUTO 32020G24KT 40SM 11/03 A2993 RMK AO1 T01060028






000
SXUS55 KMSO 181403
OSOMSO
MONTANA AWOS SUMMARY
NATIONAL WEATHER SERVICE MISSOULA MT
703 AM MST SAT APR 18 2015

Montana AWOS Reports

LAUREL      |K6S8 181355Z AUTO 00000KT 40SM 04/M01 A3000 RMK AO1 T00441005
TWIN BRIDGES|K7S1 181355Z AUTO 00000KT 40SM 01/M04 A3011 RMK AO1 T00111043
ROUNDUP     |KRPX 181355Z AUTO 19007KT 40SM 06/M03 A2992 RMK AO1 T00611027
MALTA       |KM75 181355Z AUTO 32020G24KT 40SM 11/03 A2993 RMK AO1 T01060028






000
SXUS55 KMSO 181343
OSOMSO
MONTANA AWOS SUMMARY
NATIONAL WEATHER SERVICE MISSOULA MT
643 AM MST SAT APR 18 2015

Montana AWOS Reports

LAUREL      |K6S8 181335Z AUTO 00000KT 40SM 03/M02 A2999 RMK AO1 T00281016
ROUNDUP     |KRPX 181335Z AUTO 20008KT 40SM 05/M03 A2992 RMK AO1 T00501027
MALTA       |KM75 181335Z AUTO 00000KT 40SM 05/M01 A2993 RMK AO1 T00501010
TWIN BRIDGES|K7S1 181335Z AUTO 00000KT 40SM 01/M05 A3010 RMK AO1 T00061049






000
SXUS55 KMSO 181324
OSOMSO
MONTANA AWOS SUMMARY
NATIONAL WEATHER SERVICE MISSOULA MT
623 AM MST SAT APR 18 2015

Montana AWOS Reports

LAUREL      |K6S8 181315Z AUTO 00000KT 40SM 02/M02 A2999 RMK AO1 T00171016
ROUNDUP     |KRPX 181315Z AUTO 21006KT 40SM 03/M03 A2991 RMK AO1 T00331027
MALTA       |KM75 181315Z AUTO 00000KT 40SM 04/M02 A2992 RMK AO1 T00391021
TWIN BRIDGES|K7S1 181315Z AUTO 09004KT 40SM M01/M06 A3010 RMK AO1 T10051055






000
SXUS55 KMSO 181303
OSOMSO
MONTANA AWOS SUMMARY
NATIONAL WEATHER SERVICE MISSOULA MT
603 AM MST SAT APR 18 2015

Montana AWOS Reports

MALTA       |KM75 181255Z AUTO 24006KT 40SM 03/M03 A2992 RMK AO1 T00331027
LAUREL      |K6S8 181255Z AUTO 00000KT 40SM 01/M03 A2998 RMK AO1 T00111027
TWIN BRIDGES|K7S1 181255Z AUTO 00000KT 40SM M01/M06 A3009 RMK AO1 T10051055
ROUNDUP     |KRPX 181255Z AUTO 00000KT 40SM 02/M04 A2991 RMK AO1 T00171038
SCOBEY      |K9S2 181255Z AUTO 00000KT 25SM 03/M05 A2991 RMK AO1 T00281049
EKALAKA     |K97M 181255Z AUTO 13004KT 40SM 07/03 A2998 RMK AO1 T00670033






000
SXUS55 KMSO 181253
OSOMSO
MONTANA AWOS SUMMARY
NATIONAL WEATHER SERVICE MISSOULA MT
553 AM MST SAT APR 18 2015

Montana AWOS Reports

TWIN BRIDGES|K7S1 181235Z AUTO 00000KT 40SM 00/M06 A3009 RMK AO1 T00001055






000
SXUS55 KMSO 181253
OSOMSO
MONTANA AWOS SUMMARY
NATIONAL WEATHER SERVICE MISSOULA MT
553 AM MST SAT APR 18 2015

Montana AWOS Reports

TWIN BRIDGES|K7S1 181235Z AUTO 00000KT 40SM 00/M06 A3009 RMK AO1 T00001055






000
SXUS55 KMSO 181243
OSOMSO
MONTANA AWOS SUMMARY
NATIONAL WEATHER SERVICE MISSOULA MT
543 AM MST SAT APR 18 2015

Montana AWOS Reports

LAUREL      |K6S8 181235Z AUTO 00000KT 40SM 01/M03 A2998 RMK AO1 T00111027
ROUNDUP     |KRPX 181235Z AUTO 20005KT 40SM 02/M03 A2990 RMK AO1 T00221027
MALTA       |KM75 181235Z AUTO 00000KT 40SM 02/M03 A2991 RMK AO1 T00171032






000
SXUS55 KMSO 181243
OSOMSO
MONTANA AWOS SUMMARY
NATIONAL WEATHER SERVICE MISSOULA MT
543 AM MST SAT APR 18 2015

Montana AWOS Reports

LAUREL      |K6S8 181235Z AUTO 00000KT 40SM 01/M03 A2998 RMK AO1 T00111027
ROUNDUP     |KRPX 181235Z AUTO 20005KT 40SM 02/M03 A2990 RMK AO1 T00221027
MALTA       |KM75 181235Z AUTO 00000KT 40SM 02/M03 A2991 RMK AO1 T00171032






000
SXUS55 KMSO 181223
OSOMSO
MONTANA AWOS SUMMARY
NATIONAL WEATHER SERVICE MISSOULA MT
523 AM MST SAT APR 18 2015

Montana AWOS Reports

LAUREL      |K6S8 181215Z AUTO 00000KT 40SM 02/M02 A2997 RMK AO1 T00171021
ROUNDUP     |KRPX 181215Z AUTO 20009KT 40SM 02/M03 A2989 RMK AO1 T00171032
MALTA       |KM75 181215Z AUTO 24009KT 40SM 02/M03 A2990 RMK AO1 T00171032
TWIN BRIDGES|K7S1 181215Z AUTO 00000KT 40SM M01/M06 A3009 RMK AO1 T10101055






000
SXUS55 KMSO 181213
OSOMSO
MONTANA AWOS SUMMARY
NATIONAL WEATHER SERVICE MISSOULA MT
513 AM MST SAT APR 18 2015

Montana AWOS Reports

SCOBEY      |K9S2 181155Z AUTO 00000KT 25SM 02/M06 A2991 RMK AO1 T00221055
EKALAKA     |K97M 181155Z AUTO 00000KT 40SM 05/01 A2999 RMK AO1 T00500011






000
SXUS55 KMSO 181213
OSOMSO
MONTANA AWOS SUMMARY
NATIONAL WEATHER SERVICE MISSOULA MT
513 AM MST SAT APR 18 2015

Montana AWOS Reports

SCOBEY      |K9S2 181155Z AUTO 00000KT 25SM 02/M06 A2991 RMK AO1 T00221055
EKALAKA     |K97M 181155Z AUTO 00000KT 40SM 05/01 A2999 RMK AO1 T00500011






000
SXUS55 KMSO 181203
OSOMSO
MONTANA AWOS SUMMARY
NATIONAL WEATHER SERVICE MISSOULA MT
502 AM MST SAT APR 18 2015

Montana AWOS Reports

MALTA       |KM75 181155Z AUTO 24004KT 40SM 03/M03 A2990 RMK AO1 T00281027
LAUREL      |K6S8 181155Z AUTO 00000KT 40SM 01/M03 A2997 RMK AO1 T00111027
TWIN BRIDGES|K7S1 181155Z AUTO 00000KT 40SM 00/M05 A3008 RMK AO1 T00001049
ROUNDUP     |KRPX 181155Z AUTO 00000KT 40SM 01/M04 A2990 RMK AO1 T00111038






000
SXUS55 KMSO 181203
OSOMSO
MONTANA AWOS SUMMARY
NATIONAL WEATHER SERVICE MISSOULA MT
502 AM MST SAT APR 18 2015

Montana AWOS Reports

MALTA       |KM75 181155Z AUTO 24004KT 40SM 03/M03 A2990 RMK AO1 T00281027
LAUREL      |K6S8 181155Z AUTO 00000KT 40SM 01/M03 A2997 RMK AO1 T00111027
TWIN BRIDGES|K7S1 181155Z AUTO 00000KT 40SM 00/M05 A3008 RMK AO1 T00001049
ROUNDUP     |KRPX 181155Z AUTO 00000KT 40SM 01/M04 A2990 RMK AO1 T00111038






000
SXUS55 KMSO 181143
OSOMSO
MONTANA AWOS SUMMARY
NATIONAL WEATHER SERVICE MISSOULA MT
443 AM MST SAT APR 18 2015

Montana AWOS Reports

LAUREL      |K6S8 181135Z AUTO 00000KT 40SM 01/M03 A2997 RMK AO1 T00111027
TWIN BRIDGES|K7S1 181135Z AUTO 05004KT 40SM M01/M05 A3008 RMK AO1 T10051049
ROUNDUP     |KRPX 181135Z AUTO 00000KT 40SM 02/M04 A2989 RMK AO1 T00171038
MALTA       |KM75 181135Z AUTO 00000KT 40SM 03/M04 A2989 RMK AO1 T00281038






000
SXUS55 KMSO 181143
OSOMSO
MONTANA AWOS SUMMARY
NATIONAL WEATHER SERVICE MISSOULA MT
443 AM MST SAT APR 18 2015

Montana AWOS Reports

LAUREL      |K6S8 181135Z AUTO 00000KT 40SM 01/M03 A2997 RMK AO1 T00111027
TWIN BRIDGES|K7S1 181135Z AUTO 05004KT 40SM M01/M05 A3008 RMK AO1 T10051049
ROUNDUP     |KRPX 181135Z AUTO 00000KT 40SM 02/M04 A2989 RMK AO1 T00171038
MALTA       |KM75 181135Z AUTO 00000KT 40SM 03/M04 A2989 RMK AO1 T00281038






000
SXUS55 KMSO 181123
OSOMSO
MONTANA AWOS SUMMARY
NATIONAL WEATHER SERVICE MISSOULA MT
423 AM MST SAT APR 18 2015

Montana AWOS Reports

LAUREL      |K6S8 181115Z AUTO 00000KT 40SM 02/M02 A2997 RMK AO1 T00221016
TWIN BRIDGES|K7S1 181115Z AUTO 00000KT 40SM M01/M06 A3008 RMK AO1 T10051055
ROUNDUP     |KRPX 181115Z AUTO 20012G17KT 40SM 03/M03 A2988 RMK AO1 T00281027






000
SXUS55 KMSO 181123
OSOMSO
MONTANA AWOS SUMMARY
NATIONAL WEATHER SERVICE MISSOULA MT
423 AM MST SAT APR 18 2015

Montana AWOS Reports

LAUREL      |K6S8 181115Z AUTO 00000KT 40SM 02/M02 A2997 RMK AO1 T00221016
TWIN BRIDGES|K7S1 181115Z AUTO 00000KT 40SM M01/M06 A3008 RMK AO1 T10051055
ROUNDUP     |KRPX 181115Z AUTO 20012G17KT 40SM 03/M03 A2988 RMK AO1 T00281027






000
SXUS55 KMSO 181103
OSOMSO
MONTANA AWOS SUMMARY
NATIONAL WEATHER SERVICE MISSOULA MT
403 AM MST SAT APR 18 2015

Montana AWOS Reports

SCOBEY      |K9S2 181055Z AUTO 00000KT 25SM 02/M06 A2992 RMK AO1 T00221055
EKALAKA     |K97M 181055Z AUTO 00000KT 40SM 06/01 A2999 RMK AO1 T00610011
ROUNDUP     |KRPX 181055Z AUTO 19009KT 40SM 03/M03 A2988 RMK AO1 T00281032
MALTA       |KM75 181055Z AUTO 00000KT 40SM 05/M02 A2989 RMK AO1 T00501021
LAUREL      |K6S8 181055Z AUTO 00000KT 40SM 02/M02 A2996 RMK AO1 T00221021
TWIN BRIDGES|K7S1 181055Z AUTO 00000KT 40SM 01/M05 A3007 RMK AO1 T00061049






000
SXUS55 KMSO 181103
OSOMSO
MONTANA AWOS SUMMARY
NATIONAL WEATHER SERVICE MISSOULA MT
403 AM MST SAT APR 18 2015

Montana AWOS Reports

SCOBEY      |K9S2 181055Z AUTO 00000KT 25SM 02/M06 A2992 RMK AO1 T00221055
EKALAKA     |K97M 181055Z AUTO 00000KT 40SM 06/01 A2999 RMK AO1 T00610011
ROUNDUP     |KRPX 181055Z AUTO 19009KT 40SM 03/M03 A2988 RMK AO1 T00281032
MALTA       |KM75 181055Z AUTO 00000KT 40SM 05/M02 A2989 RMK AO1 T00501021
LAUREL      |K6S8 181055Z AUTO 00000KT 40SM 02/M02 A2996 RMK AO1 T00221021
TWIN BRIDGES|K7S1 181055Z AUTO 00000KT 40SM 01/M05 A3007 RMK AO1 T00061049






000
SXUS55 KMSO 181043
OSOMSO
MONTANA AWOS SUMMARY
NATIONAL WEATHER SERVICE MISSOULA MT
343 AM MST SAT APR 18 2015

Montana AWOS Reports

ROUNDUP     |KRPX 181035Z AUTO 20011G16KT 40SM 03/M03 A2988 RMK AO1 T00281032
MALTA       |KM75 181035Z AUTO 00000KT 40SM 06/M02 A2989 RMK AO1 T00561021
LAUREL      |K6S8 181035Z AUTO 00000KT 40SM 02/M03 A2997 RMK AO1 T00221027
TWIN BRIDGES|K7S1 181035Z AUTO 00000KT 40SM 01/M05 A3007 RMK AO1 T00061049






000
SXUS55 KMSO 181043
OSOMSO
MONTANA AWOS SUMMARY
NATIONAL WEATHER SERVICE MISSOULA MT
343 AM MST SAT APR 18 2015

Montana AWOS Reports

ROUNDUP     |KRPX 181035Z AUTO 20011G16KT 40SM 03/M03 A2988 RMK AO1 T00281032
MALTA       |KM75 181035Z AUTO 00000KT 40SM 06/M02 A2989 RMK AO1 T00561021
LAUREL      |K6S8 181035Z AUTO 00000KT 40SM 02/M03 A2997 RMK AO1 T00221027
TWIN BRIDGES|K7S1 181035Z AUTO 00000KT 40SM 01/M05 A3007 RMK AO1 T00061049






000
SXUS55 KMSO 181023
OSOMSO
MONTANA AWOS SUMMARY
NATIONAL WEATHER SERVICE MISSOULA MT
323 AM MST SAT APR 18 2015

Montana AWOS Reports

MALTA       |KM75 181015Z AUTO 24004KT 40SM 07/M01 A2989 RMK AO1 T00671010
LAUREL      |K6S8 181015Z AUTO 00000KT 40SM 03/M03 A2997 RMK AO1 T00281027
TWIN BRIDGES|K7S1 181015Z AUTO 00000KT 40SM 01/M05 A3007 RMK AO1 T00061049
ROUNDUP     |KRPX 181015Z AUTO 19008KT 40SM 03/M03 A2988 RMK AO1 T00281027






000
SXUS55 KMSO 181023
OSOMSO
MONTANA AWOS SUMMARY
NATIONAL WEATHER SERVICE MISSOULA MT
323 AM MST SAT APR 18 2015

Montana AWOS Reports

MALTA       |KM75 181015Z AUTO 24004KT 40SM 07/M01 A2989 RMK AO1 T00671010
LAUREL      |K6S8 181015Z AUTO 00000KT 40SM 03/M03 A2997 RMK AO1 T00281027
TWIN BRIDGES|K7S1 181015Z AUTO 00000KT 40SM 01/M05 A3007 RMK AO1 T00061049
ROUNDUP     |KRPX 181015Z AUTO 19008KT 40SM 03/M03 A2988 RMK AO1 T00281027






000
SXUS55 KMSO 181003
OSOMSO
MONTANA AWOS SUMMARY
NATIONAL WEATHER SERVICE MISSOULA MT
303 AM MST SAT APR 18 2015

Montana AWOS Reports

SCOBEY      |K9S2 180955Z AUTO 00000KT 25SM 04/M05 A2992 RMK AO1 T00391049
EKALAKA     |K97M 180955Z AUTO 00000KT 40SM 08/03 A3000 RMK AO1 T00780028
ROUNDUP     |KRPX 180955Z AUTO 19011G15KT 40SM 03/M03 A2988 RMK AO1 T00331027
MALTA       |KM75 180955Z AUTO 00000KT 40SM 08/M01 A2988 RMK AO1 T00781010
LAUREL      |K6S8 180955Z AUTO 00000KT 40SM 03/M03 A2997 RMK AO1 T00331027
TWIN BRIDGES|K7S1 180955Z AUTO 00000KT 40SM 00/M05 A3007 RMK AO1 T00001049






000
SXUS55 KMSO 181003
OSOMSO
MONTANA AWOS SUMMARY
NATIONAL WEATHER SERVICE MISSOULA MT
303 AM MST SAT APR 18 2015

Montana AWOS Reports

SCOBEY      |K9S2 180955Z AUTO 00000KT 25SM 04/M05 A2992 RMK AO1 T00391049
EKALAKA     |K97M 180955Z AUTO 00000KT 40SM 08/03 A3000 RMK AO1 T00780028
ROUNDUP     |KRPX 180955Z AUTO 19011G15KT 40SM 03/M03 A2988 RMK AO1 T00331027
MALTA       |KM75 180955Z AUTO 00000KT 40SM 08/M01 A2988 RMK AO1 T00781010
LAUREL      |K6S8 180955Z AUTO 00000KT 40SM 03/M03 A2997 RMK AO1 T00331027
TWIN BRIDGES|K7S1 180955Z AUTO 00000KT 40SM 00/M05 A3007 RMK AO1 T00001049






    US Dept of Commerce
    National Oceanic and Atmospheric Administration
    National Weather Service
    1325 East West Highway
    Silver Spring, MD 20910
    Page Author: NWS Internet Services Team
Disclaimer
Information Quality
Credits
Glossary
Privacy Policy
Freedom of Information Act (FOIA)
About Us
Career Opportunities